<?xml version="1.0" encoding="UTF-8" standalone="no" ?>
<gpx xmlns="http://www.topografix.com/GPX/1/1" xmlns:xsi="http://www.w3.org/2001/XMLSchema-instance" xsi:schemaLocation="http://www.topografix.com/GPX/1/1 http://www.topografix.com/GPX/1/1/gpx.xsd" version="1.1" creator="VisuGPX - https://www.visugpx.com">
  <metadata>
    <name>Loisirs &amp; Découvertes à Chantérac</name>
    <desc><![CDATA[Promenade dans notre département . Accessible à tous]]></desc>
  </metadata>
  <trk>
    <name><![CDATA[Tracé 8 déc. 2015 13:53:38 Chanterac]]></name>
    <trkseg>
      <trkpt lat="45.17313" lon="0.4447">
        <ele>157</ele>
        <time>2015-12-08T12:53:38Z</time>
      </trkpt>
      <trkpt lat="45.17314" lon="0.44469">
        <ele>156</ele>
        <time>2015-12-08T12:53:44Z</time>
      </trkpt>
      <trkpt lat="45.17314" lon="0.44469">
        <ele>156</ele>
        <time>2015-12-08T12:53:45Z</time>
      </trkpt>
      <trkpt lat="45.17354" lon="0.44446">
        <ele>184</ele>
        <time>2015-12-08T13:09:17Z</time>
      </trkpt>
      <trkpt lat="45.17357" lon="0.44443">
        <ele>162</ele>
        <time>2015-12-08T13:09:24Z</time>
      </trkpt>
      <trkpt lat="45.17364" lon="0.44441">
        <ele>158</ele>
        <time>2015-12-08T13:09:28Z</time>
      </trkpt>
      <trkpt lat="45.17369" lon="0.44437">
        <ele>158</ele>
        <time>2015-12-08T13:09:32Z</time>
      </trkpt>
      <trkpt lat="45.17374" lon="0.4444">
        <ele>159</ele>
        <time>2015-12-08T13:09:36Z</time>
      </trkpt>
      <trkpt lat="45.17377" lon="0.44436">
        <ele>162</ele>
        <time>2015-12-08T13:09:41Z</time>
      </trkpt>
      <trkpt lat="45.17381" lon="0.44434">
        <ele>164</ele>
        <time>2015-12-08T13:09:46Z</time>
      </trkpt>
      <trkpt lat="45.17385" lon="0.44428">
        <ele>161</ele>
        <time>2015-12-08T13:09:50Z</time>
      </trkpt>
      <trkpt lat="45.1739" lon="0.44423">
        <ele>161</ele>
        <time>2015-12-08T13:09:54Z</time>
      </trkpt>
      <trkpt lat="45.17395" lon="0.44427">
        <ele>162</ele>
        <time>2015-12-08T13:09:58Z</time>
      </trkpt>
      <trkpt lat="45.17399" lon="0.44424">
        <ele>163</ele>
        <time>2015-12-08T13:10:02Z</time>
      </trkpt>
      <trkpt lat="45.17404" lon="0.44421">
        <ele>162</ele>
        <time>2015-12-08T13:10:06Z</time>
      </trkpt>
      <trkpt lat="45.1741" lon="0.44418">
        <ele>162</ele>
        <time>2015-12-08T13:10:11Z</time>
      </trkpt>
      <trkpt lat="45.17415" lon="0.44412">
        <ele>161</ele>
        <time>2015-12-08T13:10:15Z</time>
      </trkpt>
      <trkpt lat="45.17419" lon="0.44401">
        <ele>156</ele>
        <time>2015-12-08T13:10:20Z</time>
      </trkpt>
      <trkpt lat="45.17422" lon="0.44401">
        <ele>160</ele>
        <time>2015-12-08T13:10:31Z</time>
      </trkpt>
      <trkpt lat="45.17426" lon="0.44399">
        <ele>160</ele>
        <time>2015-12-08T13:10:36Z</time>
      </trkpt>
      <trkpt lat="45.17431" lon="0.44398">
        <ele>161</ele>
        <time>2015-12-08T13:10:41Z</time>
      </trkpt>
      <trkpt lat="45.17434" lon="0.44396">
        <ele>162</ele>
        <time>2015-12-08T13:10:45Z</time>
      </trkpt>
      <trkpt lat="45.17437" lon="0.4439">
        <ele>160</ele>
        <time>2015-12-08T13:10:50Z</time>
      </trkpt>
      <trkpt lat="45.17441" lon="0.44386">
        <ele>163</ele>
        <time>2015-12-08T13:10:54Z</time>
      </trkpt>
      <trkpt lat="45.17444" lon="0.44382">
        <ele>164</ele>
        <time>2015-12-08T13:10:58Z</time>
      </trkpt>
      <trkpt lat="45.17448" lon="0.44375">
        <ele>165</ele>
        <time>2015-12-08T13:11:03Z</time>
      </trkpt>
      <trkpt lat="45.17452" lon="0.4437">
        <ele>165</ele>
        <time>2015-12-08T13:11:08Z</time>
      </trkpt>
      <trkpt lat="45.17455" lon="0.44365">
        <ele>166</ele>
        <time>2015-12-08T13:11:12Z</time>
      </trkpt>
      <trkpt lat="45.17458" lon="0.4436">
        <ele>166</ele>
        <time>2015-12-08T13:11:17Z</time>
      </trkpt>
      <trkpt lat="45.17462" lon="0.44353">
        <ele>166</ele>
        <time>2015-12-08T13:11:22Z</time>
      </trkpt>
      <trkpt lat="45.17464" lon="0.44349">
        <ele>165</ele>
        <time>2015-12-08T13:11:26Z</time>
      </trkpt>
      <trkpt lat="45.17467" lon="0.44343">
        <ele>166</ele>
        <time>2015-12-08T13:11:31Z</time>
      </trkpt>
      <trkpt lat="45.17469" lon="0.44337">
        <ele>166</ele>
        <time>2015-12-08T13:11:35Z</time>
      </trkpt>
      <trkpt lat="45.1747" lon="0.44332">
        <ele>166</ele>
        <time>2015-12-08T13:11:40Z</time>
      </trkpt>
      <trkpt lat="45.17473" lon="0.44325">
        <ele>168</ele>
        <time>2015-12-08T13:11:44Z</time>
      </trkpt>
      <trkpt lat="45.17476" lon="0.44319">
        <ele>168</ele>
        <time>2015-12-08T13:11:48Z</time>
      </trkpt>
      <trkpt lat="45.17478" lon="0.44315">
        <ele>170</ele>
        <time>2015-12-08T13:11:52Z</time>
      </trkpt>
      <trkpt lat="45.17481" lon="0.44311">
        <ele>170</ele>
        <time>2015-12-08T13:11:57Z</time>
      </trkpt>
      <trkpt lat="45.17482" lon="0.44305">
        <ele>169</ele>
        <time>2015-12-08T13:12:04Z</time>
      </trkpt>
      <trkpt lat="45.17484" lon="0.44297">
        <ele>170</ele>
        <time>2015-12-08T13:12:08Z</time>
      </trkpt>
      <trkpt lat="45.17488" lon="0.4429">
        <ele>172</ele>
        <time>2015-12-08T13:12:13Z</time>
      </trkpt>
      <trkpt lat="45.17487" lon="0.44285">
        <ele>170</ele>
        <time>2015-12-08T13:12:17Z</time>
      </trkpt>
      <trkpt lat="45.1749" lon="0.44275">
        <ele>170</ele>
        <time>2015-12-08T13:12:22Z</time>
      </trkpt>
      <trkpt lat="45.17493" lon="0.44269">
        <ele>171</ele>
        <time>2015-12-08T13:12:26Z</time>
      </trkpt>
      <trkpt lat="45.17495" lon="0.44264">
        <ele>170</ele>
        <time>2015-12-08T13:12:30Z</time>
      </trkpt>
      <trkpt lat="45.17496" lon="0.44258">
        <ele>171</ele>
        <time>2015-12-08T13:12:35Z</time>
      </trkpt>
      <trkpt lat="45.17498" lon="0.44246">
        <ele>168</ele>
        <time>2015-12-08T13:12:40Z</time>
      </trkpt>
      <trkpt lat="45.17499" lon="0.4424">
        <ele>167</ele>
        <time>2015-12-08T13:12:44Z</time>
      </trkpt>
      <trkpt lat="45.17499" lon="0.4423">
        <ele>167</ele>
        <time>2015-12-08T13:12:49Z</time>
      </trkpt>
      <trkpt lat="45.17501" lon="0.44225">
        <ele>166</ele>
        <time>2015-12-08T13:12:57Z</time>
      </trkpt>
      <trkpt lat="45.17502" lon="0.44219">
        <ele>169</ele>
        <time>2015-12-08T13:13:04Z</time>
      </trkpt>
      <trkpt lat="45.17505" lon="0.44215">
        <ele>169</ele>
        <time>2015-12-08T13:13:14Z</time>
      </trkpt>
      <trkpt lat="45.17509" lon="0.44213">
        <ele>171</ele>
        <time>2015-12-08T13:13:19Z</time>
      </trkpt>
      <trkpt lat="45.17514" lon="0.44211">
        <ele>175</ele>
        <time>2015-12-08T13:13:23Z</time>
      </trkpt>
      <trkpt lat="45.17517" lon="0.44208">
        <ele>174</ele>
        <time>2015-12-08T13:13:29Z</time>
      </trkpt>
      <trkpt lat="45.17521" lon="0.44204">
        <ele>173</ele>
        <time>2015-12-08T13:13:33Z</time>
      </trkpt>
      <trkpt lat="45.17526" lon="0.442">
        <ele>173</ele>
        <time>2015-12-08T13:13:37Z</time>
      </trkpt>
      <trkpt lat="45.17531" lon="0.44196">
        <ele>174</ele>
        <time>2015-12-08T13:13:42Z</time>
      </trkpt>
      <trkpt lat="45.17537" lon="0.44197">
        <ele>174</ele>
        <time>2015-12-08T13:13:46Z</time>
      </trkpt>
      <trkpt lat="45.17542" lon="0.44192">
        <ele>175</ele>
        <time>2015-12-08T13:13:51Z</time>
      </trkpt>
      <trkpt lat="45.17545" lon="0.4419">
        <ele>170</ele>
        <time>2015-12-08T13:13:55Z</time>
      </trkpt>
      <trkpt lat="45.17548" lon="0.44185">
        <ele>168</ele>
        <time>2015-12-08T13:14:01Z</time>
      </trkpt>
      <trkpt lat="45.1755" lon="0.44183">
        <ele>168</ele>
        <time>2015-12-08T13:14:15Z</time>
      </trkpt>
      <trkpt lat="45.17556" lon="0.44177">
        <ele>165</ele>
        <time>2015-12-08T13:14:19Z</time>
      </trkpt>
      <trkpt lat="45.17562" lon="0.44172">
        <ele>167</ele>
        <time>2015-12-08T13:14:23Z</time>
      </trkpt>
      <trkpt lat="45.17568" lon="0.44167">
        <ele>167</ele>
        <time>2015-12-08T13:14:27Z</time>
      </trkpt>
      <trkpt lat="45.17572" lon="0.44162">
        <ele>169</ele>
        <time>2015-12-08T13:14:32Z</time>
      </trkpt>
      <trkpt lat="45.17579" lon="0.44156">
        <ele>171</ele>
        <time>2015-12-08T13:14:36Z</time>
      </trkpt>
      <trkpt lat="45.17583" lon="0.4415">
        <ele>171</ele>
        <time>2015-12-08T13:14:40Z</time>
      </trkpt>
      <trkpt lat="45.17587" lon="0.44143">
        <ele>172</ele>
        <time>2015-12-08T13:14:44Z</time>
      </trkpt>
      <trkpt lat="45.17589" lon="0.44144">
        <ele>171</ele>
        <time>2015-12-08T13:14:50Z</time>
      </trkpt>
      <trkpt lat="45.17598" lon="0.44136">
        <ele>171</ele>
        <time>2015-12-08T13:14:54Z</time>
      </trkpt>
      <trkpt lat="45.17602" lon="0.4413">
        <ele>170</ele>
        <time>2015-12-08T13:14:59Z</time>
      </trkpt>
      <trkpt lat="45.17606" lon="0.44123">
        <ele>172</ele>
        <time>2015-12-08T13:15:03Z</time>
      </trkpt>
      <trkpt lat="45.1761" lon="0.44122">
        <ele>173</ele>
        <time>2015-12-08T13:15:07Z</time>
      </trkpt>
      <trkpt lat="45.17613" lon="0.44117">
        <ele>170</ele>
        <time>2015-12-08T13:15:11Z</time>
      </trkpt>
      <trkpt lat="45.17617" lon="0.44112">
        <ele>169</ele>
        <time>2015-12-08T13:15:16Z</time>
      </trkpt>
      <trkpt lat="45.17624" lon="0.44109">
        <ele>166</ele>
        <time>2015-12-08T13:15:21Z</time>
      </trkpt>
      <trkpt lat="45.17628" lon="0.44106">
        <ele>164</ele>
        <time>2015-12-08T13:15:26Z</time>
      </trkpt>
      <trkpt lat="45.17631" lon="0.44103">
        <ele>167</ele>
        <time>2015-12-08T13:15:31Z</time>
      </trkpt>
      <trkpt lat="45.17639" lon="0.441">
        <ele>169</ele>
        <time>2015-12-08T13:15:36Z</time>
      </trkpt>
      <trkpt lat="45.17643" lon="0.441">
        <ele>170</ele>
        <time>2015-12-08T13:15:40Z</time>
      </trkpt>
      <trkpt lat="45.17647" lon="0.441">
        <ele>170</ele>
        <time>2015-12-08T13:15:44Z</time>
      </trkpt>
      <trkpt lat="45.17651" lon="0.44101">
        <ele>172</ele>
        <time>2015-12-08T13:15:48Z</time>
      </trkpt>
      <trkpt lat="45.17657" lon="0.44099">
        <ele>173</ele>
        <time>2015-12-08T13:15:53Z</time>
      </trkpt>
      <trkpt lat="45.17661" lon="0.44098">
        <ele>171</ele>
        <time>2015-12-08T13:15:58Z</time>
      </trkpt>
      <trkpt lat="45.17665" lon="0.44092">
        <ele>171</ele>
        <time>2015-12-08T13:16:02Z</time>
      </trkpt>
      <trkpt lat="45.1767" lon="0.44091">
        <ele>174</ele>
        <time>2015-12-08T13:16:07Z</time>
      </trkpt>
      <trkpt lat="45.17675" lon="0.4409">
        <ele>173</ele>
        <time>2015-12-08T13:16:12Z</time>
      </trkpt>
      <trkpt lat="45.17678" lon="0.44085">
        <ele>176</ele>
        <time>2015-12-08T13:16:17Z</time>
      </trkpt>
      <trkpt lat="45.17684" lon="0.44083">
        <ele>176</ele>
        <time>2015-12-08T13:16:22Z</time>
      </trkpt>
      <trkpt lat="45.17692" lon="0.44078">
        <ele>173</ele>
        <time>2015-12-08T13:16:27Z</time>
      </trkpt>
      <trkpt lat="45.17698" lon="0.44071">
        <ele>172</ele>
        <time>2015-12-08T13:16:31Z</time>
      </trkpt>
      <trkpt lat="45.17702" lon="0.44064">
        <ele>173</ele>
        <time>2015-12-08T13:16:36Z</time>
      </trkpt>
      <trkpt lat="45.17707" lon="0.44057">
        <ele>173</ele>
        <time>2015-12-08T13:16:40Z</time>
      </trkpt>
      <trkpt lat="45.1771" lon="0.44051">
        <ele>174</ele>
        <time>2015-12-08T13:16:45Z</time>
      </trkpt>
      <trkpt lat="45.17714" lon="0.44048">
        <ele>175</ele>
        <time>2015-12-08T13:16:50Z</time>
      </trkpt>
      <trkpt lat="45.17716" lon="0.44044">
        <ele>176</ele>
        <time>2015-12-08T13:16:55Z</time>
      </trkpt>
      <trkpt lat="45.17722" lon="0.44039">
        <ele>175</ele>
        <time>2015-12-08T13:17:00Z</time>
      </trkpt>
      <trkpt lat="45.17725" lon="0.44035">
        <ele>176</ele>
        <time>2015-12-08T13:17:06Z</time>
      </trkpt>
      <trkpt lat="45.17731" lon="0.44032">
        <ele>173</ele>
        <time>2015-12-08T13:17:10Z</time>
      </trkpt>
      <trkpt lat="45.17736" lon="0.44032">
        <ele>171</ele>
        <time>2015-12-08T13:17:15Z</time>
      </trkpt>
      <trkpt lat="45.17741" lon="0.4403">
        <ele>170</ele>
        <time>2015-12-08T13:17:20Z</time>
      </trkpt>
      <trkpt lat="45.17745" lon="0.44029">
        <ele>173</ele>
        <time>2015-12-08T13:17:25Z</time>
      </trkpt>
      <trkpt lat="45.17751" lon="0.44025">
        <ele>176</ele>
        <time>2015-12-08T13:17:30Z</time>
      </trkpt>
      <trkpt lat="45.17754" lon="0.44023">
        <ele>179</ele>
        <time>2015-12-08T13:17:34Z</time>
      </trkpt>
      <trkpt lat="45.17758" lon="0.44019">
        <ele>181</ele>
        <time>2015-12-08T13:17:39Z</time>
      </trkpt>
      <trkpt lat="45.17763" lon="0.44018">
        <ele>183</ele>
        <time>2015-12-08T13:17:43Z</time>
      </trkpt>
      <trkpt lat="45.17767" lon="0.44015">
        <ele>183</ele>
        <time>2015-12-08T13:17:47Z</time>
      </trkpt>
      <trkpt lat="45.17771" lon="0.44013">
        <ele>182</ele>
        <time>2015-12-08T13:17:51Z</time>
      </trkpt>
      <trkpt lat="45.17775" lon="0.44014">
        <ele>182</ele>
        <time>2015-12-08T13:17:56Z</time>
      </trkpt>
      <trkpt lat="45.1778" lon="0.44013">
        <ele>180</ele>
        <time>2015-12-08T13:18:00Z</time>
      </trkpt>
      <trkpt lat="45.17785" lon="0.44008">
        <ele>180</ele>
        <time>2015-12-08T13:18:04Z</time>
      </trkpt>
      <trkpt lat="45.1779" lon="0.44005">
        <ele>181</ele>
        <time>2015-12-08T13:18:08Z</time>
      </trkpt>
      <trkpt lat="45.17793" lon="0.44001">
        <ele>184</ele>
        <time>2015-12-08T13:18:15Z</time>
      </trkpt>
      <trkpt lat="45.17796" lon="0.43995">
        <ele>184</ele>
        <time>2015-12-08T13:18:20Z</time>
      </trkpt>
      <trkpt lat="45.17799" lon="0.4399">
        <ele>188</ele>
        <time>2015-12-08T13:18:27Z</time>
      </trkpt>
      <trkpt lat="45.178" lon="0.43985">
        <ele>189</ele>
        <time>2015-12-08T13:18:32Z</time>
      </trkpt>
      <trkpt lat="45.17804" lon="0.43976">
        <ele>188</ele>
        <time>2015-12-08T13:18:37Z</time>
      </trkpt>
      <trkpt lat="45.17806" lon="0.43971">
        <ele>188</ele>
        <time>2015-12-08T13:18:43Z</time>
      </trkpt>
      <trkpt lat="45.17811" lon="0.43964">
        <ele>186</ele>
        <time>2015-12-08T13:18:48Z</time>
      </trkpt>
      <trkpt lat="45.17814" lon="0.43961">
        <ele>186</ele>
        <time>2015-12-08T13:18:52Z</time>
      </trkpt>
      <trkpt lat="45.17817" lon="0.43955">
        <ele>185</ele>
        <time>2015-12-08T13:18:57Z</time>
      </trkpt>
      <trkpt lat="45.17821" lon="0.43947">
        <ele>184</ele>
        <time>2015-12-08T13:19:01Z</time>
      </trkpt>
      <trkpt lat="45.17824" lon="0.43941">
        <ele>183</ele>
        <time>2015-12-08T13:19:06Z</time>
      </trkpt>
      <trkpt lat="45.17827" lon="0.43937">
        <ele>184</ele>
        <time>2015-12-08T13:19:12Z</time>
      </trkpt>
      <trkpt lat="45.17829" lon="0.4393">
        <ele>183</ele>
        <time>2015-12-08T13:19:16Z</time>
      </trkpt>
      <trkpt lat="45.17834" lon="0.43922">
        <ele>180</ele>
        <time>2015-12-08T13:19:21Z</time>
      </trkpt>
      <trkpt lat="45.17836" lon="0.43915">
        <ele>179</ele>
        <time>2015-12-08T13:19:25Z</time>
      </trkpt>
      <trkpt lat="45.17839" lon="0.43909">
        <ele>180</ele>
        <time>2015-12-08T13:19:29Z</time>
      </trkpt>
      <trkpt lat="45.17841" lon="0.43903">
        <ele>181</ele>
        <time>2015-12-08T13:19:34Z</time>
      </trkpt>
      <trkpt lat="45.17843" lon="0.43896">
        <ele>183</ele>
        <time>2015-12-08T13:19:39Z</time>
      </trkpt>
      <trkpt lat="45.17845" lon="0.43894">
        <ele>182</ele>
        <time>2015-12-08T13:19:42Z</time>
      </trkpt>
      <trkpt lat="45.17851" lon="0.43883">
        <ele>182</ele>
        <time>2015-12-08T13:19:55Z</time>
      </trkpt>
      <trkpt lat="45.17853" lon="0.43877">
        <ele>180</ele>
        <time>2015-12-08T13:19:59Z</time>
      </trkpt>
      <trkpt lat="45.17855" lon="0.43873">
        <ele>185</ele>
        <time>2015-12-08T13:20:05Z</time>
      </trkpt>
      <trkpt lat="45.17858" lon="0.4387">
        <ele>189</ele>
        <time>2015-12-08T13:20:11Z</time>
      </trkpt>
      <trkpt lat="45.17862" lon="0.43866">
        <ele>190</ele>
        <time>2015-12-08T13:20:15Z</time>
      </trkpt>
      <trkpt lat="45.17866" lon="0.43863">
        <ele>189</ele>
        <time>2015-12-08T13:20:19Z</time>
      </trkpt>
      <trkpt lat="45.17869" lon="0.43859">
        <ele>190</ele>
        <time>2015-12-08T13:20:23Z</time>
      </trkpt>
      <trkpt lat="45.17873" lon="0.43854">
        <ele>190</ele>
        <time>2015-12-08T13:20:28Z</time>
      </trkpt>
      <trkpt lat="45.17878" lon="0.43851">
        <ele>190</ele>
        <time>2015-12-08T13:20:32Z</time>
      </trkpt>
      <trkpt lat="45.17882" lon="0.43845">
        <ele>190</ele>
        <time>2015-12-08T13:20:37Z</time>
      </trkpt>
      <trkpt lat="45.17885" lon="0.43841">
        <ele>191</ele>
        <time>2015-12-08T13:20:42Z</time>
      </trkpt>
      <trkpt lat="45.17888" lon="0.43838">
        <ele>193</ele>
        <time>2015-12-08T13:20:49Z</time>
      </trkpt>
      <trkpt lat="45.17892" lon="0.43835">
        <ele>194</ele>
        <time>2015-12-08T13:20:55Z</time>
      </trkpt>
      <trkpt lat="45.17895" lon="0.43829">
        <ele>194</ele>
        <time>2015-12-08T13:20:59Z</time>
      </trkpt>
      <trkpt lat="45.17895" lon="0.43824">
        <ele>197</ele>
        <time>2015-12-08T13:21:03Z</time>
      </trkpt>
      <trkpt lat="45.179" lon="0.43815">
        <ele>195</ele>
        <time>2015-12-08T13:21:07Z</time>
      </trkpt>
      <trkpt lat="45.179" lon="0.43805">
        <ele>196</ele>
        <time>2015-12-08T13:21:12Z</time>
      </trkpt>
      <trkpt lat="45.179" lon="0.438">
        <ele>197</ele>
        <time>2015-12-08T13:21:16Z</time>
      </trkpt>
      <trkpt lat="45.17903" lon="0.43794">
        <ele>197</ele>
        <time>2015-12-08T13:21:20Z</time>
      </trkpt>
      <trkpt lat="45.17904" lon="0.43787">
        <ele>198</ele>
        <time>2015-12-08T13:21:25Z</time>
      </trkpt>
      <trkpt lat="45.17905" lon="0.43782">
        <ele>198</ele>
        <time>2015-12-08T13:21:29Z</time>
      </trkpt>
      <trkpt lat="45.17906" lon="0.43774">
        <ele>199</ele>
        <time>2015-12-08T13:21:33Z</time>
      </trkpt>
      <trkpt lat="45.17906" lon="0.43768">
        <ele>201</ele>
        <time>2015-12-08T13:21:38Z</time>
      </trkpt>
      <trkpt lat="45.17908" lon="0.43761">
        <ele>203</ele>
        <time>2015-12-08T13:21:43Z</time>
      </trkpt>
      <trkpt lat="45.1791" lon="0.43755">
        <ele>203</ele>
        <time>2015-12-08T13:21:48Z</time>
      </trkpt>
      <trkpt lat="45.17912" lon="0.43746">
        <ele>203</ele>
        <time>2015-12-08T13:21:53Z</time>
      </trkpt>
      <trkpt lat="45.17912" lon="0.43741">
        <ele>203</ele>
        <time>2015-12-08T13:21:57Z</time>
      </trkpt>
      <trkpt lat="45.17913" lon="0.43732">
        <ele>204</ele>
        <time>2015-12-08T13:22:01Z</time>
      </trkpt>
      <trkpt lat="45.17917" lon="0.43728">
        <ele>205</ele>
        <time>2015-12-08T13:22:05Z</time>
      </trkpt>
      <trkpt lat="45.17917" lon="0.43722">
        <ele>206</ele>
        <time>2015-12-08T13:22:09Z</time>
      </trkpt>
      <trkpt lat="45.17918" lon="0.43716">
        <ele>207</ele>
        <time>2015-12-08T13:22:14Z</time>
      </trkpt>
      <trkpt lat="45.17919" lon="0.43708">
        <ele>209</ele>
        <time>2015-12-08T13:22:19Z</time>
      </trkpt>
      <trkpt lat="45.17921" lon="0.43703">
        <ele>208</ele>
        <time>2015-12-08T13:22:25Z</time>
      </trkpt>
      <trkpt lat="45.17923" lon="0.43696">
        <ele>208</ele>
        <time>2015-12-08T13:22:29Z</time>
      </trkpt>
      <trkpt lat="45.17923" lon="0.4369">
        <ele>209</ele>
        <time>2015-12-08T13:22:33Z</time>
      </trkpt>
      <trkpt lat="45.17924" lon="0.43685">
        <ele>209</ele>
        <time>2015-12-08T13:22:38Z</time>
      </trkpt>
      <trkpt lat="45.17924" lon="0.43678">
        <ele>211</ele>
        <time>2015-12-08T13:22:43Z</time>
      </trkpt>
      <trkpt lat="45.17925" lon="0.43671">
        <ele>212</ele>
        <time>2015-12-08T13:22:47Z</time>
      </trkpt>
      <trkpt lat="45.17925" lon="0.43664">
        <ele>213</ele>
        <time>2015-12-08T13:22:51Z</time>
      </trkpt>
      <trkpt lat="45.1793" lon="0.43656">
        <ele>212</ele>
        <time>2015-12-08T13:22:55Z</time>
      </trkpt>
      <trkpt lat="45.1793" lon="0.43649">
        <ele>211</ele>
        <time>2015-12-08T13:23:00Z</time>
      </trkpt>
      <trkpt lat="45.1793" lon="0.43643">
        <ele>216</ele>
        <time>2015-12-08T13:23:09Z</time>
      </trkpt>
      <trkpt lat="45.17933" lon="0.43637">
        <ele>216</ele>
        <time>2015-12-08T13:23:14Z</time>
      </trkpt>
      <trkpt lat="45.17934" lon="0.43633">
        <ele>212</ele>
        <time>2015-12-08T13:23:19Z</time>
      </trkpt>
      <trkpt lat="45.17935" lon="0.43626">
        <ele>212</ele>
        <time>2015-12-08T13:23:24Z</time>
      </trkpt>
      <trkpt lat="45.17936" lon="0.4362">
        <ele>215</ele>
        <time>2015-12-08T13:23:28Z</time>
      </trkpt>
      <trkpt lat="45.17936" lon="0.43614">
        <ele>215</ele>
        <time>2015-12-08T13:23:32Z</time>
      </trkpt>
      <trkpt lat="45.17937" lon="0.43607">
        <ele>215</ele>
        <time>2015-12-08T13:23:36Z</time>
      </trkpt>
      <trkpt lat="45.17938" lon="0.43597">
        <ele>214</ele>
        <time>2015-12-08T13:23:41Z</time>
      </trkpt>
      <trkpt lat="45.17938" lon="0.43589">
        <ele>213</ele>
        <time>2015-12-08T13:23:45Z</time>
      </trkpt>
      <trkpt lat="45.17937" lon="0.43582">
        <ele>212</ele>
        <time>2015-12-08T13:23:49Z</time>
      </trkpt>
      <trkpt lat="45.17935" lon="0.43577">
        <ele>203</ele>
        <time>2015-12-08T13:24:56Z</time>
      </trkpt>
      <trkpt lat="45.17936" lon="0.43571">
        <ele>195</ele>
        <time>2015-12-08T13:25:13Z</time>
      </trkpt>
      <trkpt lat="45.1794" lon="0.43567">
        <ele>209</ele>
        <time>2015-12-08T13:25:38Z</time>
      </trkpt>
      <trkpt lat="45.17942" lon="0.43562">
        <ele>211</ele>
        <time>2015-12-08T13:25:55Z</time>
      </trkpt>
      <trkpt lat="45.17946" lon="0.43563">
        <ele>210</ele>
        <time>2015-12-08T13:26:02Z</time>
      </trkpt>
      <trkpt lat="45.17952" lon="0.43566">
        <ele>210</ele>
        <time>2015-12-08T13:26:07Z</time>
      </trkpt>
      <trkpt lat="45.17956" lon="0.43566">
        <ele>211</ele>
        <time>2015-12-08T13:26:13Z</time>
      </trkpt>
      <trkpt lat="45.17961" lon="0.43569">
        <ele>209</ele>
        <time>2015-12-08T13:26:18Z</time>
      </trkpt>
      <trkpt lat="45.17964" lon="0.43571">
        <ele>212</ele>
        <time>2015-12-08T13:26:24Z</time>
      </trkpt>
      <trkpt lat="45.17971" lon="0.43572">
        <ele>212</ele>
        <time>2015-12-08T13:26:29Z</time>
      </trkpt>
      <trkpt lat="45.17976" lon="0.43581">
        <ele>210</ele>
        <time>2015-12-08T13:26:33Z</time>
      </trkpt>
      <trkpt lat="45.17976" lon="0.43586">
        <ele>209</ele>
        <time>2015-12-08T13:26:38Z</time>
      </trkpt>
      <trkpt lat="45.1798" lon="0.43588">
        <ele>210</ele>
        <time>2015-12-08T13:26:42Z</time>
      </trkpt>
      <trkpt lat="45.17982" lon="0.43595">
        <ele>211</ele>
        <time>2015-12-08T13:26:47Z</time>
      </trkpt>
      <trkpt lat="45.17983" lon="0.436">
        <ele>212</ele>
        <time>2015-12-08T13:26:51Z</time>
      </trkpt>
      <trkpt lat="45.17985" lon="0.43606">
        <ele>211</ele>
        <time>2015-12-08T13:26:56Z</time>
      </trkpt>
      <trkpt lat="45.17991" lon="0.43608">
        <ele>208</ele>
        <time>2015-12-08T13:27:00Z</time>
      </trkpt>
      <trkpt lat="45.17996" lon="0.43614">
        <ele>205</ele>
        <time>2015-12-08T13:27:04Z</time>
      </trkpt>
      <trkpt lat="45.18003" lon="0.43618">
        <ele>203</ele>
        <time>2015-12-08T13:27:08Z</time>
      </trkpt>
      <trkpt lat="45.18007" lon="0.43623">
        <ele>202</ele>
        <time>2015-12-08T13:27:12Z</time>
      </trkpt>
      <trkpt lat="45.18011" lon="0.43629">
        <ele>202</ele>
        <time>2015-12-08T13:27:16Z</time>
      </trkpt>
      <trkpt lat="45.18012" lon="0.43635">
        <ele>204</ele>
        <time>2015-12-08T13:27:21Z</time>
      </trkpt>
      <trkpt lat="45.18016" lon="0.43639">
        <ele>208</ele>
        <time>2015-12-08T13:27:26Z</time>
      </trkpt>
      <trkpt lat="45.1802" lon="0.43645">
        <ele>210</ele>
        <time>2015-12-08T13:27:31Z</time>
      </trkpt>
      <trkpt lat="45.18022" lon="0.4365">
        <ele>210</ele>
        <time>2015-12-08T13:27:36Z</time>
      </trkpt>
      <trkpt lat="45.18025" lon="0.43653">
        <ele>212</ele>
        <time>2015-12-08T13:27:42Z</time>
      </trkpt>
      <trkpt lat="45.18027" lon="0.4366">
        <ele>215</ele>
        <time>2015-12-08T13:27:46Z</time>
      </trkpt>
      <trkpt lat="45.18031" lon="0.43664">
        <ele>216</ele>
        <time>2015-12-08T13:27:50Z</time>
      </trkpt>
      <trkpt lat="45.18038" lon="0.43664">
        <ele>215</ele>
        <time>2015-12-08T13:27:54Z</time>
      </trkpt>
      <trkpt lat="45.18039" lon="0.4367">
        <ele>214</ele>
        <time>2015-12-08T13:27:59Z</time>
      </trkpt>
      <trkpt lat="45.1804" lon="0.43673">
        <ele>217</ele>
        <time>2015-12-08T13:28:04Z</time>
      </trkpt>
      <trkpt lat="45.18046" lon="0.43677">
        <ele>215</ele>
        <time>2015-12-08T13:28:09Z</time>
      </trkpt>
      <trkpt lat="45.18054" lon="0.43685">
        <ele>215</ele>
        <time>2015-12-08T13:28:13Z</time>
      </trkpt>
      <trkpt lat="45.18061" lon="0.43691">
        <ele>212</ele>
        <time>2015-12-08T13:28:17Z</time>
      </trkpt>
      <trkpt lat="45.18067" lon="0.43696">
        <ele>211</ele>
        <time>2015-12-08T13:28:21Z</time>
      </trkpt>
      <trkpt lat="45.18071" lon="0.43701">
        <ele>211</ele>
        <time>2015-12-08T13:28:25Z</time>
      </trkpt>
      <trkpt lat="45.18076" lon="0.43703">
        <ele>208</ele>
        <time>2015-12-08T13:28:29Z</time>
      </trkpt>
      <trkpt lat="45.18081" lon="0.43708">
        <ele>209</ele>
        <time>2015-12-08T13:28:33Z</time>
      </trkpt>
      <trkpt lat="45.18085" lon="0.43713">
        <ele>211</ele>
        <time>2015-12-08T13:28:38Z</time>
      </trkpt>
      <trkpt lat="45.18088" lon="0.4372">
        <ele>215</ele>
        <time>2015-12-08T13:28:43Z</time>
      </trkpt>
      <trkpt lat="45.18093" lon="0.43722">
        <ele>213</ele>
        <time>2015-12-08T13:28:47Z</time>
      </trkpt>
      <trkpt lat="45.18096" lon="0.43721">
        <ele>215</ele>
        <time>2015-12-08T13:28:51Z</time>
      </trkpt>
      <trkpt lat="45.18103" lon="0.43725">
        <ele>217</ele>
        <time>2015-12-08T13:28:56Z</time>
      </trkpt>
      <trkpt lat="45.18107" lon="0.4373">
        <ele>216</ele>
        <time>2015-12-08T13:29:01Z</time>
      </trkpt>
      <trkpt lat="45.18111" lon="0.43736">
        <ele>218</ele>
        <time>2015-12-08T13:29:05Z</time>
      </trkpt>
      <trkpt lat="45.18115" lon="0.43738">
        <ele>217</ele>
        <time>2015-12-08T13:29:09Z</time>
      </trkpt>
      <trkpt lat="45.1812" lon="0.4374">
        <ele>217</ele>
        <time>2015-12-08T13:29:13Z</time>
      </trkpt>
      <trkpt lat="45.18124" lon="0.43744">
        <ele>219</ele>
        <time>2015-12-08T13:29:18Z</time>
      </trkpt>
      <trkpt lat="45.1813" lon="0.43746">
        <ele>218</ele>
        <time>2015-12-08T13:29:23Z</time>
      </trkpt>
      <trkpt lat="45.18134" lon="0.43749">
        <ele>218</ele>
        <time>2015-12-08T13:29:27Z</time>
      </trkpt>
      <trkpt lat="45.18137" lon="0.43751">
        <ele>217</ele>
        <time>2015-12-08T13:29:31Z</time>
      </trkpt>
      <trkpt lat="45.18142" lon="0.43754">
        <ele>214</ele>
        <time>2015-12-08T13:29:35Z</time>
      </trkpt>
      <trkpt lat="45.18139" lon="0.4376">
        <ele>212</ele>
        <time>2015-12-08T13:29:40Z</time>
      </trkpt>
      <trkpt lat="45.18138" lon="0.4377">
        <ele>212</ele>
        <time>2015-12-08T13:29:45Z</time>
      </trkpt>
      <trkpt lat="45.18141" lon="0.43773">
        <ele>213</ele>
        <time>2015-12-08T13:29:49Z</time>
      </trkpt>
      <trkpt lat="45.18147" lon="0.43777">
        <ele>211</ele>
        <time>2015-12-08T13:29:53Z</time>
      </trkpt>
      <trkpt lat="45.18152" lon="0.43782">
        <ele>209</ele>
        <time>2015-12-08T13:29:57Z</time>
      </trkpt>
      <trkpt lat="45.18155" lon="0.43786">
        <ele>209</ele>
        <time>2015-12-08T13:30:02Z</time>
      </trkpt>
      <trkpt lat="45.1816" lon="0.43793">
        <ele>207</ele>
        <time>2015-12-08T13:30:07Z</time>
      </trkpt>
      <trkpt lat="45.18163" lon="0.43796">
        <ele>208</ele>
        <time>2015-12-08T13:30:14Z</time>
      </trkpt>
      <trkpt lat="45.18171" lon="0.43809">
        <ele>206</ele>
        <time>2015-12-08T13:30:18Z</time>
      </trkpt>
      <trkpt lat="45.18174" lon="0.43814">
        <ele>205</ele>
        <time>2015-12-08T13:30:23Z</time>
      </trkpt>
      <trkpt lat="45.18177" lon="0.43819">
        <ele>207</ele>
        <time>2015-12-08T13:30:28Z</time>
      </trkpt>
      <trkpt lat="45.18181" lon="0.43826">
        <ele>203</ele>
        <time>2015-12-08T13:30:33Z</time>
      </trkpt>
      <trkpt lat="45.18184" lon="0.43832">
        <ele>203</ele>
        <time>2015-12-08T13:30:37Z</time>
      </trkpt>
      <trkpt lat="45.18189" lon="0.43836">
        <ele>200</ele>
        <time>2015-12-08T13:30:41Z</time>
      </trkpt>
      <trkpt lat="45.18194" lon="0.43841">
        <ele>200</ele>
        <time>2015-12-08T13:30:45Z</time>
      </trkpt>
      <trkpt lat="45.18201" lon="0.43846">
        <ele>200</ele>
        <time>2015-12-08T13:30:49Z</time>
      </trkpt>
      <trkpt lat="45.18206" lon="0.43856">
        <ele>201</ele>
        <time>2015-12-08T13:30:54Z</time>
      </trkpt>
      <trkpt lat="45.18213" lon="0.43854">
        <ele>201</ele>
        <time>2015-12-08T13:30:58Z</time>
      </trkpt>
      <trkpt lat="45.18218" lon="0.43854">
        <ele>202</ele>
        <time>2015-12-08T13:31:02Z</time>
      </trkpt>
      <trkpt lat="45.18223" lon="0.43856">
        <ele>201</ele>
        <time>2015-12-08T13:31:06Z</time>
      </trkpt>
      <trkpt lat="45.18229" lon="0.43857">
        <ele>201</ele>
        <time>2015-12-08T13:31:10Z</time>
      </trkpt>
      <trkpt lat="45.18234" lon="0.43861">
        <ele>202</ele>
        <time>2015-12-08T13:31:15Z</time>
      </trkpt>
      <trkpt lat="45.1824" lon="0.4386">
        <ele>200</ele>
        <time>2015-12-08T13:31:19Z</time>
      </trkpt>
      <trkpt lat="45.18243" lon="0.43862">
        <ele>202</ele>
        <time>2015-12-08T13:31:23Z</time>
      </trkpt>
      <trkpt lat="45.18248" lon="0.43865">
        <ele>201</ele>
        <time>2015-12-08T13:31:28Z</time>
      </trkpt>
      <trkpt lat="45.18251" lon="0.43865">
        <ele>202</ele>
        <time>2015-12-08T13:31:32Z</time>
      </trkpt>
      <trkpt lat="45.18256" lon="0.43866">
        <ele>203</ele>
        <time>2015-12-08T13:31:36Z</time>
      </trkpt>
      <trkpt lat="45.18264" lon="0.43868">
        <ele>200</ele>
        <time>2015-12-08T13:31:41Z</time>
      </trkpt>
      <trkpt lat="45.1827" lon="0.4387">
        <ele>200</ele>
        <time>2015-12-08T13:31:46Z</time>
      </trkpt>
      <trkpt lat="45.18279" lon="0.43871">
        <ele>199</ele>
        <time>2015-12-08T13:31:50Z</time>
      </trkpt>
      <trkpt lat="45.18282" lon="0.43887">
        <ele>200</ele>
        <time>2015-12-08T13:31:54Z</time>
      </trkpt>
      <trkpt lat="45.1829" lon="0.43877">
        <ele>196</ele>
        <time>2015-12-08T13:31:58Z</time>
      </trkpt>
      <trkpt lat="45.18292" lon="0.4388">
        <ele>195</ele>
        <time>2015-12-08T13:32:05Z</time>
      </trkpt>
      <trkpt lat="45.18295" lon="0.43889">
        <ele>196</ele>
        <time>2015-12-08T13:32:09Z</time>
      </trkpt>
      <trkpt lat="45.18299" lon="0.439">
        <ele>196</ele>
        <time>2015-12-08T13:32:14Z</time>
      </trkpt>
      <trkpt lat="45.18301" lon="0.43909">
        <ele>198</ele>
        <time>2015-12-08T13:32:18Z</time>
      </trkpt>
      <trkpt lat="45.18304" lon="0.43912">
        <ele>198</ele>
        <time>2015-12-08T13:32:23Z</time>
      </trkpt>
      <trkpt lat="45.18306" lon="0.43918">
        <ele>199</ele>
        <time>2015-12-08T13:32:27Z</time>
      </trkpt>
      <trkpt lat="45.1831" lon="0.43924">
        <ele>198</ele>
        <time>2015-12-08T13:32:32Z</time>
      </trkpt>
      <trkpt lat="45.18314" lon="0.43931">
        <ele>199</ele>
        <time>2015-12-08T13:32:37Z</time>
      </trkpt>
      <trkpt lat="45.18318" lon="0.43939">
        <ele>200</ele>
        <time>2015-12-08T13:32:42Z</time>
      </trkpt>
      <trkpt lat="45.18322" lon="0.43944">
        <ele>202</ele>
        <time>2015-12-08T13:32:47Z</time>
      </trkpt>
      <trkpt lat="45.18322" lon="0.43955">
        <ele>201</ele>
        <time>2015-12-08T13:32:51Z</time>
      </trkpt>
      <trkpt lat="45.18322" lon="0.43962">
        <ele>202</ele>
        <time>2015-12-08T13:32:55Z</time>
      </trkpt>
      <trkpt lat="45.18325" lon="0.43971">
        <ele>200</ele>
        <time>2015-12-08T13:33:00Z</time>
      </trkpt>
      <trkpt lat="45.18327" lon="0.43975">
        <ele>199</ele>
        <time>2015-12-08T13:33:05Z</time>
      </trkpt>
      <trkpt lat="45.18327" lon="0.43984">
        <ele>199</ele>
        <time>2015-12-08T13:33:10Z</time>
      </trkpt>
      <trkpt lat="45.18327" lon="0.43992">
        <ele>198</ele>
        <time>2015-12-08T13:33:15Z</time>
      </trkpt>
      <trkpt lat="45.18329" lon="0.43999">
        <ele>199</ele>
        <time>2015-12-08T13:33:20Z</time>
      </trkpt>
      <trkpt lat="45.18332" lon="0.44005">
        <ele>200</ele>
        <time>2015-12-08T13:33:24Z</time>
      </trkpt>
      <trkpt lat="45.18338" lon="0.44014">
        <ele>202</ele>
        <time>2015-12-08T13:33:29Z</time>
      </trkpt>
      <trkpt lat="45.18338" lon="0.44018">
        <ele>201</ele>
        <time>2015-12-08T13:33:32Z</time>
      </trkpt>
      <trkpt lat="45.18343" lon="0.44025">
        <ele>201</ele>
        <time>2015-12-08T13:33:37Z</time>
      </trkpt>
      <trkpt lat="45.18348" lon="0.44027">
        <ele>201</ele>
        <time>2015-12-08T13:33:41Z</time>
      </trkpt>
      <trkpt lat="45.18354" lon="0.44029">
        <ele>200</ele>
        <time>2015-12-08T13:33:45Z</time>
      </trkpt>
      <trkpt lat="45.18358" lon="0.44031">
        <ele>200</ele>
        <time>2015-12-08T13:33:49Z</time>
      </trkpt>
      <trkpt lat="45.18362" lon="0.44031">
        <ele>200</ele>
        <time>2015-12-08T13:33:55Z</time>
      </trkpt>
      <trkpt lat="45.18365" lon="0.44034">
        <ele>202</ele>
        <time>2015-12-08T13:34:00Z</time>
      </trkpt>
      <trkpt lat="45.1837" lon="0.44041">
        <ele>200</ele>
        <time>2015-12-08T13:34:04Z</time>
      </trkpt>
      <trkpt lat="45.18377" lon="0.44035">
        <ele>199</ele>
        <time>2015-12-08T13:34:08Z</time>
      </trkpt>
      <trkpt lat="45.18381" lon="0.44038">
        <ele>202</ele>
        <time>2015-12-08T13:34:13Z</time>
      </trkpt>
      <trkpt lat="45.18385" lon="0.4404">
        <ele>204</ele>
        <time>2015-12-08T13:34:17Z</time>
      </trkpt>
      <trkpt lat="45.18389" lon="0.4404">
        <ele>206</ele>
        <time>2015-12-08T13:34:22Z</time>
      </trkpt>
      <trkpt lat="45.18394" lon="0.44043">
        <ele>206</ele>
        <time>2015-12-08T13:34:26Z</time>
      </trkpt>
      <trkpt lat="45.184" lon="0.44044">
        <ele>204</ele>
        <time>2015-12-08T13:34:30Z</time>
      </trkpt>
      <trkpt lat="45.18403" lon="0.44049">
        <ele>206</ele>
        <time>2015-12-08T13:34:35Z</time>
      </trkpt>
      <trkpt lat="45.18407" lon="0.44052">
        <ele>206</ele>
        <time>2015-12-08T13:34:40Z</time>
      </trkpt>
      <trkpt lat="45.18411" lon="0.44054">
        <ele>204</ele>
        <time>2015-12-08T13:34:44Z</time>
      </trkpt>
      <trkpt lat="45.18415" lon="0.44059">
        <ele>205</ele>
        <time>2015-12-08T13:34:48Z</time>
      </trkpt>
      <trkpt lat="45.18418" lon="0.44061">
        <ele>205</ele>
        <time>2015-12-08T13:34:52Z</time>
      </trkpt>
      <trkpt lat="45.18421" lon="0.44066">
        <ele>207</ele>
        <time>2015-12-08T13:34:56Z</time>
      </trkpt>
      <trkpt lat="45.18423" lon="0.44071">
        <ele>207</ele>
        <time>2015-12-08T13:35:00Z</time>
      </trkpt>
      <trkpt lat="45.18429" lon="0.44075">
        <ele>208</ele>
        <time>2015-12-08T13:35:05Z</time>
      </trkpt>
      <trkpt lat="45.18433" lon="0.44079">
        <ele>207</ele>
        <time>2015-12-08T13:35:09Z</time>
      </trkpt>
      <trkpt lat="45.18438" lon="0.44084">
        <ele>208</ele>
        <time>2015-12-08T13:35:14Z</time>
      </trkpt>
      <trkpt lat="45.18443" lon="0.44087">
        <ele>208</ele>
        <time>2015-12-08T13:35:18Z</time>
      </trkpt>
      <trkpt lat="45.18449" lon="0.4409">
        <ele>207</ele>
        <time>2015-12-08T13:35:23Z</time>
      </trkpt>
      <trkpt lat="45.18456" lon="0.44092">
        <ele>207</ele>
        <time>2015-12-08T13:35:28Z</time>
      </trkpt>
      <trkpt lat="45.1846" lon="0.44097">
        <ele>204</ele>
        <time>2015-12-08T13:35:32Z</time>
      </trkpt>
      <trkpt lat="45.18463" lon="0.441">
        <ele>204</ele>
        <time>2015-12-08T13:35:36Z</time>
      </trkpt>
      <trkpt lat="45.18469" lon="0.44102">
        <ele>206</ele>
        <time>2015-12-08T13:35:41Z</time>
      </trkpt>
      <trkpt lat="45.18473" lon="0.44101">
        <ele>205</ele>
        <time>2015-12-08T13:35:45Z</time>
      </trkpt>
      <trkpt lat="45.18477" lon="0.44104">
        <ele>208</ele>
        <time>2015-12-08T13:35:50Z</time>
      </trkpt>
      <trkpt lat="45.18482" lon="0.44108">
        <ele>210</ele>
        <time>2015-12-08T13:35:54Z</time>
      </trkpt>
      <trkpt lat="45.18488" lon="0.44109">
        <ele>207</ele>
        <time>2015-12-08T13:35:59Z</time>
      </trkpt>
      <trkpt lat="45.18494" lon="0.44108">
        <ele>208</ele>
        <time>2015-12-08T13:36:04Z</time>
      </trkpt>
      <trkpt lat="45.18499" lon="0.44109">
        <ele>208</ele>
        <time>2015-12-08T13:36:08Z</time>
      </trkpt>
      <trkpt lat="45.18502" lon="0.44108">
        <ele>206</ele>
        <time>2015-12-08T13:36:13Z</time>
      </trkpt>
      <trkpt lat="45.18506" lon="0.44107">
        <ele>206</ele>
        <time>2015-12-08T13:36:23Z</time>
      </trkpt>
      <trkpt lat="45.18511" lon="0.4411">
        <ele>205</ele>
        <time>2015-12-08T13:36:27Z</time>
      </trkpt>
      <trkpt lat="45.18517" lon="0.44112">
        <ele>205</ele>
        <time>2015-12-08T13:36:31Z</time>
      </trkpt>
      <trkpt lat="45.1852" lon="0.44114">
        <ele>206</ele>
        <time>2015-12-08T13:36:35Z</time>
      </trkpt>
      <trkpt lat="45.18526" lon="0.44115">
        <ele>204</ele>
        <time>2015-12-08T13:36:40Z</time>
      </trkpt>
      <trkpt lat="45.18531" lon="0.44119">
        <ele>204</ele>
        <time>2015-12-08T13:36:44Z</time>
      </trkpt>
      <trkpt lat="45.18534" lon="0.44122">
        <ele>208</ele>
        <time>2015-12-08T13:36:50Z</time>
      </trkpt>
      <trkpt lat="45.18539" lon="0.44124">
        <ele>210</ele>
        <time>2015-12-08T13:36:55Z</time>
      </trkpt>
      <trkpt lat="45.18543" lon="0.44124">
        <ele>212</ele>
        <time>2015-12-08T13:37:00Z</time>
      </trkpt>
      <trkpt lat="45.18544" lon="0.44128">
        <ele>218</ele>
        <time>2015-12-08T13:37:04Z</time>
      </trkpt>
      <trkpt lat="45.18549" lon="0.4413">
        <ele>220</ele>
        <time>2015-12-08T13:37:10Z</time>
      </trkpt>
      <trkpt lat="45.18552" lon="0.44131">
        <ele>221</ele>
        <time>2015-12-08T13:37:14Z</time>
      </trkpt>
      <trkpt lat="45.18557" lon="0.4413">
        <ele>221</ele>
        <time>2015-12-08T13:37:18Z</time>
      </trkpt>
      <trkpt lat="45.18563" lon="0.44132">
        <ele>222</ele>
        <time>2015-12-08T13:37:23Z</time>
      </trkpt>
      <trkpt lat="45.18572" lon="0.44134">
        <ele>223</ele>
        <time>2015-12-08T13:37:28Z</time>
      </trkpt>
      <trkpt lat="45.18583" lon="0.44133">
        <ele>218</ele>
        <time>2015-12-08T13:37:32Z</time>
      </trkpt>
      <trkpt lat="45.18594" lon="0.44131">
        <ele>214</ele>
        <time>2015-12-08T13:37:37Z</time>
      </trkpt>
      <trkpt lat="45.18598" lon="0.44131">
        <ele>217</ele>
        <time>2015-12-08T13:37:42Z</time>
      </trkpt>
      <trkpt lat="45.18608" lon="0.4413">
        <ele>217</ele>
        <time>2015-12-08T13:37:46Z</time>
      </trkpt>
      <trkpt lat="45.18617" lon="0.44132">
        <ele>216</ele>
        <time>2015-12-08T13:37:50Z</time>
      </trkpt>
      <trkpt lat="45.18622" lon="0.44134">
        <ele>219</ele>
        <time>2015-12-08T13:37:54Z</time>
      </trkpt>
      <trkpt lat="45.18629" lon="0.44133">
        <ele>220</ele>
        <time>2015-12-08T13:37:58Z</time>
      </trkpt>
      <trkpt lat="45.18635" lon="0.44131">
        <ele>221</ele>
        <time>2015-12-08T13:38:02Z</time>
      </trkpt>
      <trkpt lat="45.18646" lon="0.4413">
        <ele>219</ele>
        <time>2015-12-08T13:38:06Z</time>
      </trkpt>
      <trkpt lat="45.18654" lon="0.4413">
        <ele>221</ele>
        <time>2015-12-08T13:38:10Z</time>
      </trkpt>
      <trkpt lat="45.18658" lon="0.44131">
        <ele>220</ele>
        <time>2015-12-08T13:38:15Z</time>
      </trkpt>
      <trkpt lat="45.18666" lon="0.44128">
        <ele>221</ele>
        <time>2015-12-08T13:38:20Z</time>
      </trkpt>
      <trkpt lat="45.18671" lon="0.44126">
        <ele>220</ele>
        <time>2015-12-08T13:38:24Z</time>
      </trkpt>
      <trkpt lat="45.18678" lon="0.44124">
        <ele>217</ele>
        <time>2015-12-08T13:38:29Z</time>
      </trkpt>
      <trkpt lat="45.18684" lon="0.44123">
        <ele>220</ele>
        <time>2015-12-08T13:38:33Z</time>
      </trkpt>
      <trkpt lat="45.18692" lon="0.44121">
        <ele>217</ele>
        <time>2015-12-08T13:38:38Z</time>
      </trkpt>
      <trkpt lat="45.18698" lon="0.44119">
        <ele>216</ele>
        <time>2015-12-08T13:38:43Z</time>
      </trkpt>
      <trkpt lat="45.18708" lon="0.44121">
        <ele>217</ele>
        <time>2015-12-08T13:38:47Z</time>
      </trkpt>
      <trkpt lat="45.18713" lon="0.4412">
        <ele>223</ele>
        <time>2015-12-08T13:38:52Z</time>
      </trkpt>
      <trkpt lat="45.18718" lon="0.4412">
        <ele>222</ele>
        <time>2015-12-08T13:38:56Z</time>
      </trkpt>
      <trkpt lat="45.18724" lon="0.4412">
        <ele>222</ele>
        <time>2015-12-08T13:39:01Z</time>
      </trkpt>
      <trkpt lat="45.18728" lon="0.44118">
        <ele>222</ele>
        <time>2015-12-08T13:39:06Z</time>
      </trkpt>
      <trkpt lat="45.18732" lon="0.44119">
        <ele>222</ele>
        <time>2015-12-08T13:39:15Z</time>
      </trkpt>
      <trkpt lat="45.18737" lon="0.44118">
        <ele>222</ele>
        <time>2015-12-08T13:39:20Z</time>
      </trkpt>
      <trkpt lat="45.18741" lon="0.44117">
        <ele>222</ele>
        <time>2015-12-08T13:39:24Z</time>
      </trkpt>
      <trkpt lat="45.18745" lon="0.44116">
        <ele>222</ele>
        <time>2015-12-08T13:39:28Z</time>
      </trkpt>
      <trkpt lat="45.18753" lon="0.44114">
        <ele>220</ele>
        <time>2015-12-08T13:39:32Z</time>
      </trkpt>
      <trkpt lat="45.18758" lon="0.44115">
        <ele>221</ele>
        <time>2015-12-08T13:39:37Z</time>
      </trkpt>
      <trkpt lat="45.18764" lon="0.44118">
        <ele>219</ele>
        <time>2015-12-08T13:39:42Z</time>
      </trkpt>
      <trkpt lat="45.18768" lon="0.44121">
        <ele>218</ele>
        <time>2015-12-08T13:39:46Z</time>
      </trkpt>
      <trkpt lat="45.18774" lon="0.44119">
        <ele>218</ele>
        <time>2015-12-08T13:39:50Z</time>
      </trkpt>
      <trkpt lat="45.18779" lon="0.44119">
        <ele>219</ele>
        <time>2015-12-08T13:39:54Z</time>
      </trkpt>
      <trkpt lat="45.18785" lon="0.44119">
        <ele>221</ele>
        <time>2015-12-08T13:39:59Z</time>
      </trkpt>
      <trkpt lat="45.1879" lon="0.44121">
        <ele>221</ele>
        <time>2015-12-08T13:40:03Z</time>
      </trkpt>
      <trkpt lat="45.18794" lon="0.44123">
        <ele>221</ele>
        <time>2015-12-08T13:40:08Z</time>
      </trkpt>
      <trkpt lat="45.188" lon="0.44127">
        <ele>219</ele>
        <time>2015-12-08T13:40:13Z</time>
      </trkpt>
      <trkpt lat="45.18805" lon="0.44128">
        <ele>219</ele>
        <time>2015-12-08T13:40:18Z</time>
      </trkpt>
      <trkpt lat="45.18809" lon="0.44131">
        <ele>217</ele>
        <time>2015-12-08T13:40:22Z</time>
      </trkpt>
      <trkpt lat="45.18814" lon="0.44134">
        <ele>216</ele>
        <time>2015-12-08T13:40:26Z</time>
      </trkpt>
      <trkpt lat="45.18817" lon="0.44137">
        <ele>215</ele>
        <time>2015-12-08T13:40:31Z</time>
      </trkpt>
      <trkpt lat="45.18821" lon="0.44138">
        <ele>215</ele>
        <time>2015-12-08T13:40:35Z</time>
      </trkpt>
      <trkpt lat="45.18829" lon="0.44138">
        <ele>213</ele>
        <time>2015-12-08T13:40:39Z</time>
      </trkpt>
      <trkpt lat="45.18833" lon="0.44141">
        <ele>210</ele>
        <time>2015-12-08T13:40:43Z</time>
      </trkpt>
      <trkpt lat="45.1884" lon="0.44144">
        <ele>210</ele>
        <time>2015-12-08T13:40:48Z</time>
      </trkpt>
      <trkpt lat="45.18844" lon="0.44147">
        <ele>210</ele>
        <time>2015-12-08T13:40:53Z</time>
      </trkpt>
      <trkpt lat="45.18848" lon="0.44148">
        <ele>211</ele>
        <time>2015-12-08T13:40:57Z</time>
      </trkpt>
      <trkpt lat="45.18856" lon="0.44151">
        <ele>207</ele>
        <time>2015-12-08T13:41:02Z</time>
      </trkpt>
      <trkpt lat="45.18859" lon="0.44152">
        <ele>208</ele>
        <time>2015-12-08T13:41:06Z</time>
      </trkpt>
      <trkpt lat="45.18864" lon="0.44157">
        <ele>206</ele>
        <time>2015-12-08T13:41:11Z</time>
      </trkpt>
      <trkpt lat="45.18869" lon="0.44159">
        <ele>207</ele>
        <time>2015-12-08T13:41:16Z</time>
      </trkpt>
      <trkpt lat="45.18873" lon="0.44163">
        <ele>207</ele>
        <time>2015-12-08T13:41:21Z</time>
      </trkpt>
      <trkpt lat="45.18878" lon="0.44167">
        <ele>209</ele>
        <time>2015-12-08T13:41:26Z</time>
      </trkpt>
      <trkpt lat="45.18884" lon="0.44172">
        <ele>209</ele>
        <time>2015-12-08T13:41:31Z</time>
      </trkpt>
      <trkpt lat="45.18892" lon="0.44174">
        <ele>208</ele>
        <time>2015-12-08T13:41:36Z</time>
      </trkpt>
      <trkpt lat="45.18896" lon="0.44175">
        <ele>210</ele>
        <time>2015-12-08T13:41:41Z</time>
      </trkpt>
      <trkpt lat="45.18901" lon="0.44175">
        <ele>212</ele>
        <time>2015-12-08T13:41:47Z</time>
      </trkpt>
      <trkpt lat="45.18905" lon="0.44176">
        <ele>212</ele>
        <time>2015-12-08T13:41:52Z</time>
      </trkpt>
      <trkpt lat="45.1891" lon="0.44181">
        <ele>210</ele>
        <time>2015-12-08T13:41:57Z</time>
      </trkpt>
      <trkpt lat="45.18915" lon="0.44181">
        <ele>212</ele>
        <time>2015-12-08T13:42:01Z</time>
      </trkpt>
      <trkpt lat="45.18922" lon="0.44182">
        <ele>210</ele>
        <time>2015-12-08T13:42:06Z</time>
      </trkpt>
      <trkpt lat="45.18926" lon="0.44182">
        <ele>212</ele>
        <time>2015-12-08T13:42:13Z</time>
      </trkpt>
      <trkpt lat="45.18933" lon="0.44183">
        <ele>212</ele>
        <time>2015-12-08T13:42:18Z</time>
      </trkpt>
      <trkpt lat="45.18938" lon="0.44185">
        <ele>211</ele>
        <time>2015-12-08T13:42:22Z</time>
      </trkpt>
      <trkpt lat="45.18943" lon="0.44186">
        <ele>211</ele>
        <time>2015-12-08T13:42:26Z</time>
      </trkpt>
      <trkpt lat="45.18946" lon="0.44185">
        <ele>210</ele>
        <time>2015-12-08T13:42:30Z</time>
      </trkpt>
      <trkpt lat="45.18949" lon="0.4418">
        <ele>208</ele>
        <time>2015-12-08T13:42:38Z</time>
      </trkpt>
      <trkpt lat="45.18951" lon="0.44176">
        <ele>209</ele>
        <time>2015-12-08T13:42:45Z</time>
      </trkpt>
      <trkpt lat="45.18955" lon="0.44166">
        <ele>208</ele>
        <time>2015-12-08T13:42:50Z</time>
      </trkpt>
      <trkpt lat="45.18957" lon="0.44158">
        <ele>208</ele>
        <time>2015-12-08T13:42:54Z</time>
      </trkpt>
      <trkpt lat="45.18958" lon="0.44153">
        <ele>209</ele>
        <time>2015-12-08T13:42:58Z</time>
      </trkpt>
      <trkpt lat="45.1896" lon="0.44147">
        <ele>210</ele>
        <time>2015-12-08T13:43:02Z</time>
      </trkpt>
      <trkpt lat="45.18962" lon="0.44139">
        <ele>209</ele>
        <time>2015-12-08T13:43:07Z</time>
      </trkpt>
      <trkpt lat="45.18963" lon="0.44133">
        <ele>209</ele>
        <time>2015-12-08T13:43:11Z</time>
      </trkpt>
      <trkpt lat="45.18963" lon="0.44127">
        <ele>208</ele>
        <time>2015-12-08T13:43:15Z</time>
      </trkpt>
      <trkpt lat="45.18964" lon="0.4412">
        <ele>209</ele>
        <time>2015-12-08T13:43:19Z</time>
      </trkpt>
      <trkpt lat="45.18967" lon="0.44115">
        <ele>210</ele>
        <time>2015-12-08T13:43:23Z</time>
      </trkpt>
      <trkpt lat="45.18969" lon="0.44109">
        <ele>210</ele>
        <time>2015-12-08T13:43:28Z</time>
      </trkpt>
      <trkpt lat="45.18971" lon="0.44105">
        <ele>210</ele>
        <time>2015-12-08T13:43:32Z</time>
      </trkpt>
      <trkpt lat="45.18973" lon="0.44099">
        <ele>210</ele>
        <time>2015-12-08T13:43:36Z</time>
      </trkpt>
      <trkpt lat="45.18975" lon="0.44093">
        <ele>209</ele>
        <time>2015-12-08T13:43:41Z</time>
      </trkpt>
      <trkpt lat="45.18977" lon="0.44087">
        <ele>208</ele>
        <time>2015-12-08T13:44:13Z</time>
      </trkpt>
      <trkpt lat="45.18981" lon="0.44086">
        <ele>209</ele>
        <time>2015-12-08T13:44:17Z</time>
      </trkpt>
      <trkpt lat="45.18985" lon="0.44088">
        <ele>211</ele>
        <time>2015-12-08T13:44:23Z</time>
      </trkpt>
      <trkpt lat="45.18991" lon="0.4409">
        <ele>212</ele>
        <time>2015-12-08T13:44:28Z</time>
      </trkpt>
      <trkpt lat="45.18996" lon="0.44093">
        <ele>213</ele>
        <time>2015-12-08T13:44:33Z</time>
      </trkpt>
      <trkpt lat="45.19" lon="0.44097">
        <ele>212</ele>
        <time>2015-12-08T13:44:37Z</time>
      </trkpt>
      <trkpt lat="45.19006" lon="0.44103">
        <ele>212</ele>
        <time>2015-12-08T13:44:42Z</time>
      </trkpt>
      <trkpt lat="45.1901" lon="0.44104">
        <ele>213</ele>
        <time>2015-12-08T13:44:46Z</time>
      </trkpt>
      <trkpt lat="45.19015" lon="0.44108">
        <ele>213</ele>
        <time>2015-12-08T13:44:51Z</time>
      </trkpt>
      <trkpt lat="45.19019" lon="0.44111">
        <ele>211</ele>
        <time>2015-12-08T13:44:55Z</time>
      </trkpt>
      <trkpt lat="45.19024" lon="0.44115">
        <ele>212</ele>
        <time>2015-12-08T13:45:00Z</time>
      </trkpt>
      <trkpt lat="45.19029" lon="0.44117">
        <ele>212</ele>
        <time>2015-12-08T13:45:04Z</time>
      </trkpt>
      <trkpt lat="45.19035" lon="0.44122">
        <ele>211</ele>
        <time>2015-12-08T13:45:09Z</time>
      </trkpt>
      <trkpt lat="45.19037" lon="0.44129">
        <ele>211</ele>
        <time>2015-12-08T13:45:13Z</time>
      </trkpt>
      <trkpt lat="45.19043" lon="0.44134">
        <ele>211</ele>
        <time>2015-12-08T13:45:18Z</time>
      </trkpt>
      <trkpt lat="45.19046" lon="0.44137">
        <ele>213</ele>
        <time>2015-12-08T13:45:23Z</time>
      </trkpt>
      <trkpt lat="45.1905" lon="0.44141">
        <ele>215</ele>
        <time>2015-12-08T13:45:27Z</time>
      </trkpt>
      <trkpt lat="45.19053" lon="0.44145">
        <ele>217</ele>
        <time>2015-12-08T13:45:33Z</time>
      </trkpt>
      <trkpt lat="45.19058" lon="0.44149">
        <ele>214</ele>
        <time>2015-12-08T13:45:38Z</time>
      </trkpt>
      <trkpt lat="45.19062" lon="0.44152">
        <ele>215</ele>
        <time>2015-12-08T13:46:14Z</time>
      </trkpt>
      <trkpt lat="45.19065" lon="0.44155">
        <ele>213</ele>
        <time>2015-12-08T13:46:19Z</time>
      </trkpt>
      <trkpt lat="45.19068" lon="0.44158">
        <ele>213</ele>
        <time>2015-12-08T13:46:23Z</time>
      </trkpt>
      <trkpt lat="45.1907" lon="0.44164">
        <ele>213</ele>
        <time>2015-12-08T13:46:28Z</time>
      </trkpt>
      <trkpt lat="45.19073" lon="0.44166">
        <ele>211</ele>
        <time>2015-12-08T13:46:32Z</time>
      </trkpt>
      <trkpt lat="45.19075" lon="0.44169">
        <ele>210</ele>
        <time>2015-12-08T13:46:36Z</time>
      </trkpt>
      <trkpt lat="45.19077" lon="0.44173">
        <ele>212</ele>
        <time>2015-12-08T13:46:41Z</time>
      </trkpt>
      <trkpt lat="45.19078" lon="0.44181">
        <ele>214</ele>
        <time>2015-12-08T13:46:46Z</time>
      </trkpt>
      <trkpt lat="45.19079" lon="0.44186">
        <ele>214</ele>
        <time>2015-12-08T13:46:52Z</time>
      </trkpt>
      <trkpt lat="45.1908" lon="0.44192">
        <ele>209</ele>
        <time>2015-12-08T13:46:56Z</time>
      </trkpt>
      <trkpt lat="45.19079" lon="0.44197">
        <ele>212</ele>
        <time>2015-12-08T13:47:02Z</time>
      </trkpt>
      <trkpt lat="45.19082" lon="0.44206">
        <ele>213</ele>
        <time>2015-12-08T13:47:06Z</time>
      </trkpt>
      <trkpt lat="45.19082" lon="0.44215">
        <ele>214</ele>
        <time>2015-12-08T13:47:10Z</time>
      </trkpt>
      <trkpt lat="45.1909" lon="0.44226">
        <ele>218</ele>
        <time>2015-12-08T13:47:15Z</time>
      </trkpt>
      <trkpt lat="45.19091" lon="0.4423">
        <ele>221</ele>
        <time>2015-12-08T13:47:20Z</time>
      </trkpt>
      <trkpt lat="45.19092" lon="0.44236">
        <ele>221</ele>
        <time>2015-12-08T13:47:24Z</time>
      </trkpt>
      <trkpt lat="45.1909" lon="0.44249">
        <ele>218</ele>
        <time>2015-12-08T13:47:29Z</time>
      </trkpt>
      <trkpt lat="45.19089" lon="0.44257">
        <ele>217</ele>
        <time>2015-12-08T13:47:34Z</time>
      </trkpt>
      <trkpt lat="45.19088" lon="0.44263">
        <ele>219</ele>
        <time>2015-12-08T13:47:39Z</time>
      </trkpt>
      <trkpt lat="45.19089" lon="0.44267">
        <ele>218</ele>
        <time>2015-12-08T13:47:54Z</time>
      </trkpt>
      <trkpt lat="45.19092" lon="0.44275">
        <ele>216</ele>
        <time>2015-12-08T13:47:58Z</time>
      </trkpt>
      <trkpt lat="45.19092" lon="0.44292">
        <ele>212</ele>
        <time>2015-12-08T13:48:03Z</time>
      </trkpt>
      <trkpt lat="45.19096" lon="0.44302">
        <ele>212</ele>
        <time>2015-12-08T13:48:07Z</time>
      </trkpt>
      <trkpt lat="45.19096" lon="0.44311">
        <ele>213</ele>
        <time>2015-12-08T13:48:12Z</time>
      </trkpt>
      <trkpt lat="45.19098" lon="0.44315">
        <ele>213</ele>
        <time>2015-12-08T13:48:17Z</time>
      </trkpt>
      <trkpt lat="45.19099" lon="0.44322">
        <ele>214</ele>
        <time>2015-12-08T13:48:22Z</time>
      </trkpt>
      <trkpt lat="45.19098" lon="0.44326">
        <ele>214</ele>
        <time>2015-12-08T13:48:26Z</time>
      </trkpt>
      <trkpt lat="45.19104" lon="0.44331">
        <ele>216</ele>
        <time>2015-12-08T13:48:31Z</time>
      </trkpt>
      <trkpt lat="45.191" lon="0.44349">
        <ele>214</ele>
        <time>2015-12-08T13:48:35Z</time>
      </trkpt>
      <trkpt lat="45.19101" lon="0.44354">
        <ele>215</ele>
        <time>2015-12-08T13:48:41Z</time>
      </trkpt>
      <trkpt lat="45.19108" lon="0.44361">
        <ele>213</ele>
        <time>2015-12-08T13:48:45Z</time>
      </trkpt>
      <trkpt lat="45.19111" lon="0.44368">
        <ele>212</ele>
        <time>2015-12-08T13:48:49Z</time>
      </trkpt>
      <trkpt lat="45.19114" lon="0.44375">
        <ele>212</ele>
        <time>2015-12-08T13:48:54Z</time>
      </trkpt>
      <trkpt lat="45.19119" lon="0.44378">
        <ele>212</ele>
        <time>2015-12-08T13:48:58Z</time>
      </trkpt>
      <trkpt lat="45.1912" lon="0.44384">
        <ele>213</ele>
        <time>2015-12-08T13:49:02Z</time>
      </trkpt>
      <trkpt lat="45.19122" lon="0.4439">
        <ele>214</ele>
        <time>2015-12-08T13:49:06Z</time>
      </trkpt>
      <trkpt lat="45.19125" lon="0.44397">
        <ele>213</ele>
        <time>2015-12-08T13:49:10Z</time>
      </trkpt>
      <trkpt lat="45.19128" lon="0.44404">
        <ele>212</ele>
        <time>2015-12-08T13:49:15Z</time>
      </trkpt>
      <trkpt lat="45.19128" lon="0.44409">
        <ele>210</ele>
        <time>2015-12-08T13:49:22Z</time>
      </trkpt>
      <trkpt lat="45.19129" lon="0.4442">
        <ele>207</ele>
        <time>2015-12-08T13:49:26Z</time>
      </trkpt>
      <trkpt lat="45.19131" lon="0.4443">
        <ele>208</ele>
        <time>2015-12-08T13:49:31Z</time>
      </trkpt>
      <trkpt lat="45.19132" lon="0.44436">
        <ele>208</ele>
        <time>2015-12-08T13:49:35Z</time>
      </trkpt>
      <trkpt lat="45.19134" lon="0.44444">
        <ele>209</ele>
        <time>2015-12-08T13:49:39Z</time>
      </trkpt>
      <trkpt lat="45.19135" lon="0.44453">
        <ele>207</ele>
        <time>2015-12-08T13:49:44Z</time>
      </trkpt>
      <trkpt lat="45.19136" lon="0.44462">
        <ele>206</ele>
        <time>2015-12-08T13:49:49Z</time>
      </trkpt>
      <trkpt lat="45.19139" lon="0.44473">
        <ele>207</ele>
        <time>2015-12-08T13:49:54Z</time>
      </trkpt>
      <trkpt lat="45.19137" lon="0.4448">
        <ele>208</ele>
        <time>2015-12-08T13:49:58Z</time>
      </trkpt>
      <trkpt lat="45.19137" lon="0.44487">
        <ele>208</ele>
        <time>2015-12-08T13:50:03Z</time>
      </trkpt>
      <trkpt lat="45.19135" lon="0.44494">
        <ele>206</ele>
        <time>2015-12-08T13:50:07Z</time>
      </trkpt>
      <trkpt lat="45.19133" lon="0.44499">
        <ele>207</ele>
        <time>2015-12-08T13:50:13Z</time>
      </trkpt>
      <trkpt lat="45.19132" lon="0.44504">
        <ele>206</ele>
        <time>2015-12-08T13:50:22Z</time>
      </trkpt>
      <trkpt lat="45.19133" lon="0.44511">
        <ele>207</ele>
        <time>2015-12-08T13:50:26Z</time>
      </trkpt>
      <trkpt lat="45.19131" lon="0.44519">
        <ele>206</ele>
        <time>2015-12-08T13:50:31Z</time>
      </trkpt>
      <trkpt lat="45.19132" lon="0.44521">
        <ele>209</ele>
        <time>2015-12-08T13:50:40Z</time>
      </trkpt>
      <trkpt lat="45.19133" lon="0.4453">
        <ele>209</ele>
        <time>2015-12-08T13:50:45Z</time>
      </trkpt>
      <trkpt lat="45.19133" lon="0.44535">
        <ele>209</ele>
        <time>2015-12-08T13:50:51Z</time>
      </trkpt>
      <trkpt lat="45.19133" lon="0.44556">
        <ele>207</ele>
        <time>2015-12-08T13:50:56Z</time>
      </trkpt>
      <trkpt lat="45.19129" lon="0.44561">
        <ele>209</ele>
        <time>2015-12-08T13:51:00Z</time>
      </trkpt>
      <trkpt lat="45.19128" lon="0.44569">
        <ele>212</ele>
        <time>2015-12-08T13:51:05Z</time>
      </trkpt>
      <trkpt lat="45.19128" lon="0.44575">
        <ele>211</ele>
        <time>2015-12-08T13:51:16Z</time>
      </trkpt>
      <trkpt lat="45.19126" lon="0.44581">
        <ele>210</ele>
        <time>2015-12-08T13:51:32Z</time>
      </trkpt>
      <trkpt lat="45.19125" lon="0.44596">
        <ele>212</ele>
        <time>2015-12-08T13:51:37Z</time>
      </trkpt>
      <trkpt lat="45.19124" lon="0.44609">
        <ele>212</ele>
        <time>2015-12-08T13:51:41Z</time>
      </trkpt>
      <trkpt lat="45.19123" lon="0.44623">
        <ele>210</ele>
        <time>2015-12-08T13:51:46Z</time>
      </trkpt>
      <trkpt lat="45.19121" lon="0.44632">
        <ele>211</ele>
        <time>2015-12-08T13:51:50Z</time>
      </trkpt>
      <trkpt lat="45.19118" lon="0.44636">
        <ele>214</ele>
        <time>2015-12-08T13:51:54Z</time>
      </trkpt>
      <trkpt lat="45.19117" lon="0.44641">
        <ele>216</ele>
        <time>2015-12-08T13:51:58Z</time>
      </trkpt>
      <trkpt lat="45.19117" lon="0.44648">
        <ele>217</ele>
        <time>2015-12-08T13:52:02Z</time>
      </trkpt>
      <trkpt lat="45.19115" lon="0.44655">
        <ele>218</ele>
        <time>2015-12-08T13:52:07Z</time>
      </trkpt>
      <trkpt lat="45.19114" lon="0.44661">
        <ele>218</ele>
        <time>2015-12-08T13:52:12Z</time>
      </trkpt>
      <trkpt lat="45.19112" lon="0.44667">
        <ele>216</ele>
        <time>2015-12-08T13:52:19Z</time>
      </trkpt>
      <trkpt lat="45.1911" lon="0.44672">
        <ele>215</ele>
        <time>2015-12-08T13:52:25Z</time>
      </trkpt>
      <trkpt lat="45.1911" lon="0.4468">
        <ele>214</ele>
        <time>2015-12-08T13:52:29Z</time>
      </trkpt>
      <trkpt lat="45.19109" lon="0.44686">
        <ele>215</ele>
        <time>2015-12-08T13:52:34Z</time>
      </trkpt>
      <trkpt lat="45.19108" lon="0.44695">
        <ele>213</ele>
        <time>2015-12-08T13:52:38Z</time>
      </trkpt>
      <trkpt lat="45.19106" lon="0.44703">
        <ele>213</ele>
        <time>2015-12-08T13:52:42Z</time>
      </trkpt>
      <trkpt lat="45.19106" lon="0.44716">
        <ele>212</ele>
        <time>2015-12-08T13:52:47Z</time>
      </trkpt>
      <trkpt lat="45.19106" lon="0.44722">
        <ele>213</ele>
        <time>2015-12-08T13:52:51Z</time>
      </trkpt>
      <trkpt lat="45.19103" lon="0.44725">
        <ele>214</ele>
        <time>2015-12-08T13:52:56Z</time>
      </trkpt>
      <trkpt lat="45.19102" lon="0.44731">
        <ele>214</ele>
        <time>2015-12-08T13:53:01Z</time>
      </trkpt>
      <trkpt lat="45.19103" lon="0.44737">
        <ele>214</ele>
        <time>2015-12-08T13:53:06Z</time>
      </trkpt>
      <trkpt lat="45.19102" lon="0.44742">
        <ele>214</ele>
        <time>2015-12-08T13:53:11Z</time>
      </trkpt>
      <trkpt lat="45.19098" lon="0.44753">
        <ele>213</ele>
        <time>2015-12-08T13:53:15Z</time>
      </trkpt>
      <trkpt lat="45.19095" lon="0.44761">
        <ele>213</ele>
        <time>2015-12-08T13:53:19Z</time>
      </trkpt>
      <trkpt lat="45.19092" lon="0.44769">
        <ele>213</ele>
        <time>2015-12-08T13:53:24Z</time>
      </trkpt>
      <trkpt lat="45.19088" lon="0.44774">
        <ele>212</ele>
        <time>2015-12-08T13:53:28Z</time>
      </trkpt>
      <trkpt lat="45.19087" lon="0.4478">
        <ele>213</ele>
        <time>2015-12-08T13:53:34Z</time>
      </trkpt>
      <trkpt lat="45.19084" lon="0.44784">
        <ele>213</ele>
        <time>2015-12-08T13:53:44Z</time>
      </trkpt>
      <trkpt lat="45.19078" lon="0.44795">
        <ele>214</ele>
        <time>2015-12-08T13:53:49Z</time>
      </trkpt>
      <trkpt lat="45.19072" lon="0.44799">
        <ele>215</ele>
        <time>2015-12-08T13:53:54Z</time>
      </trkpt>
      <trkpt lat="45.19068" lon="0.44804">
        <ele>217</ele>
        <time>2015-12-08T13:53:58Z</time>
      </trkpt>
      <trkpt lat="45.19067" lon="0.44819">
        <ele>215</ele>
        <time>2015-12-08T13:54:03Z</time>
      </trkpt>
      <trkpt lat="45.19065" lon="0.44825">
        <ele>214</ele>
        <time>2015-12-08T13:54:07Z</time>
      </trkpt>
      <trkpt lat="45.19064" lon="0.44832">
        <ele>214</ele>
        <time>2015-12-08T13:54:11Z</time>
      </trkpt>
      <trkpt lat="45.19062" lon="0.44845">
        <ele>213</ele>
        <time>2015-12-08T13:54:16Z</time>
      </trkpt>
      <trkpt lat="45.1906" lon="0.4485">
        <ele>215</ele>
        <time>2015-12-08T13:54:21Z</time>
      </trkpt>
      <trkpt lat="45.19058" lon="0.44855">
        <ele>216</ele>
        <time>2015-12-08T13:54:26Z</time>
      </trkpt>
      <trkpt lat="45.19054" lon="0.44858">
        <ele>217</ele>
        <time>2015-12-08T13:54:30Z</time>
      </trkpt>
      <trkpt lat="45.19052" lon="0.44865">
        <ele>215</ele>
        <time>2015-12-08T13:54:34Z</time>
      </trkpt>
      <trkpt lat="45.19048" lon="0.44873">
        <ele>214</ele>
        <time>2015-12-08T13:54:38Z</time>
      </trkpt>
      <trkpt lat="45.19045" lon="0.44877">
        <ele>216</ele>
        <time>2015-12-08T13:54:43Z</time>
      </trkpt>
      <trkpt lat="45.19042" lon="0.4488">
        <ele>215</ele>
        <time>2015-12-08T13:54:49Z</time>
      </trkpt>
      <trkpt lat="45.19038" lon="0.44884">
        <ele>213</ele>
        <time>2015-12-08T13:54:53Z</time>
      </trkpt>
      <trkpt lat="45.19034" lon="0.44887">
        <ele>213</ele>
        <time>2015-12-08T13:54:57Z</time>
      </trkpt>
      <trkpt lat="45.19027" lon="0.44896">
        <ele>210</ele>
        <time>2015-12-08T13:55:02Z</time>
      </trkpt>
      <trkpt lat="45.19023" lon="0.449">
        <ele>208</ele>
        <time>2015-12-08T13:55:06Z</time>
      </trkpt>
      <trkpt lat="45.1902" lon="0.44905">
        <ele>210</ele>
        <time>2015-12-08T13:55:12Z</time>
      </trkpt>
      <trkpt lat="45.19018" lon="0.4491">
        <ele>210</ele>
        <time>2015-12-08T13:55:17Z</time>
      </trkpt>
      <trkpt lat="45.19013" lon="0.44918">
        <ele>210</ele>
        <time>2015-12-08T13:55:22Z</time>
      </trkpt>
      <trkpt lat="45.1901" lon="0.44926">
        <ele>210</ele>
        <time>2015-12-08T13:55:26Z</time>
      </trkpt>
      <trkpt lat="45.19007" lon="0.44935">
        <ele>209</ele>
        <time>2015-12-08T13:55:30Z</time>
      </trkpt>
      <trkpt lat="45.19008" lon="0.44944">
        <ele>212</ele>
        <time>2015-12-08T13:55:34Z</time>
      </trkpt>
      <trkpt lat="45.19002" lon="0.44946">
        <ele>208</ele>
        <time>2015-12-08T13:55:38Z</time>
      </trkpt>
      <trkpt lat="45.19002" lon="0.44954">
        <ele>206</ele>
        <time>2015-12-08T13:55:42Z</time>
      </trkpt>
      <trkpt lat="45.18998" lon="0.44957">
        <ele>205</ele>
        <time>2015-12-08T13:55:46Z</time>
      </trkpt>
      <trkpt lat="45.18994" lon="0.44964">
        <ele>206</ele>
        <time>2015-12-08T13:55:50Z</time>
      </trkpt>
      <trkpt lat="45.18991" lon="0.44969">
        <ele>208</ele>
        <time>2015-12-08T13:55:55Z</time>
      </trkpt>
      <trkpt lat="45.18988" lon="0.44974">
        <ele>208</ele>
        <time>2015-12-08T13:55:59Z</time>
      </trkpt>
      <trkpt lat="45.18985" lon="0.44983">
        <ele>206</ele>
        <time>2015-12-08T13:56:04Z</time>
      </trkpt>
      <trkpt lat="45.18983" lon="0.44985">
        <ele>212</ele>
        <time>2015-12-08T13:56:11Z</time>
      </trkpt>
      <trkpt lat="45.1898" lon="0.44993">
        <ele>213</ele>
        <time>2015-12-08T13:56:15Z</time>
      </trkpt>
      <trkpt lat="45.18976" lon="0.44997">
        <ele>212</ele>
        <time>2015-12-08T13:56:19Z</time>
      </trkpt>
      <trkpt lat="45.18974" lon="0.45007">
        <ele>214</ele>
        <time>2015-12-08T13:56:24Z</time>
      </trkpt>
      <trkpt lat="45.1897" lon="0.45011">
        <ele>214</ele>
        <time>2015-12-08T13:56:29Z</time>
      </trkpt>
      <trkpt lat="45.18966" lon="0.4502">
        <ele>214</ele>
        <time>2015-12-08T13:56:33Z</time>
      </trkpt>
      <trkpt lat="45.18964" lon="0.45028">
        <ele>210</ele>
        <time>2015-12-08T13:56:38Z</time>
      </trkpt>
      <trkpt lat="45.18965" lon="0.45032">
        <ele>209</ele>
        <time>2015-12-08T13:56:42Z</time>
      </trkpt>
      <trkpt lat="45.18963" lon="0.45042">
        <ele>210</ele>
        <time>2015-12-08T13:56:47Z</time>
      </trkpt>
      <trkpt lat="45.18961" lon="0.45052">
        <ele>208</ele>
        <time>2015-12-08T13:56:51Z</time>
      </trkpt>
      <trkpt lat="45.18958" lon="0.45058">
        <ele>210</ele>
        <time>2015-12-08T13:56:56Z</time>
      </trkpt>
      <trkpt lat="45.18958" lon="0.45064">
        <ele>209</ele>
        <time>2015-12-08T13:57:00Z</time>
      </trkpt>
      <trkpt lat="45.18959" lon="0.45069">
        <ele>210</ele>
        <time>2015-12-08T13:57:40Z</time>
      </trkpt>
      <trkpt lat="45.1896" lon="0.45075">
        <ele>209</ele>
        <time>2015-12-08T13:57:58Z</time>
      </trkpt>
      <trkpt lat="45.18961" lon="0.4508">
        <ele>210</ele>
        <time>2015-12-08T14:01:16Z</time>
      </trkpt>
      <trkpt lat="45.18958" lon="0.45085">
        <ele>207</ele>
        <time>2015-12-08T14:01:23Z</time>
      </trkpt>
      <trkpt lat="45.18955" lon="0.45089">
        <ele>207</ele>
        <time>2015-12-08T14:01:32Z</time>
      </trkpt>
      <trkpt lat="45.18952" lon="0.45093">
        <ele>207</ele>
        <time>2015-12-08T14:01:38Z</time>
      </trkpt>
      <trkpt lat="45.18948" lon="0.45093">
        <ele>207</ele>
        <time>2015-12-08T14:01:46Z</time>
      </trkpt>
      <trkpt lat="45.18943" lon="0.45094">
        <ele>208</ele>
        <time>2015-12-08T14:01:50Z</time>
      </trkpt>
      <trkpt lat="45.1894" lon="0.45094">
        <ele>209</ele>
        <time>2015-12-08T14:01:55Z</time>
      </trkpt>
      <trkpt lat="45.18934" lon="0.45096">
        <ele>206</ele>
        <time>2015-12-08T14:01:59Z</time>
      </trkpt>
      <trkpt lat="45.18929" lon="0.45097">
        <ele>207</ele>
        <time>2015-12-08T14:02:04Z</time>
      </trkpt>
      <trkpt lat="45.18925" lon="0.45098">
        <ele>208</ele>
        <time>2015-12-08T14:02:08Z</time>
      </trkpt>
      <trkpt lat="45.18921" lon="0.45102">
        <ele>208</ele>
        <time>2015-12-08T14:02:12Z</time>
      </trkpt>
      <trkpt lat="45.18916" lon="0.4511">
        <ele>207</ele>
        <time>2015-12-08T14:02:17Z</time>
      </trkpt>
      <trkpt lat="45.18912" lon="0.45112">
        <ele>206</ele>
        <time>2015-12-08T14:02:21Z</time>
      </trkpt>
      <trkpt lat="45.18905" lon="0.45112">
        <ele>206</ele>
        <time>2015-12-08T14:02:25Z</time>
      </trkpt>
      <trkpt lat="45.18902" lon="0.45116">
        <ele>208</ele>
        <time>2015-12-08T14:02:30Z</time>
      </trkpt>
      <trkpt lat="45.18898" lon="0.45118">
        <ele>207</ele>
        <time>2015-12-08T14:02:34Z</time>
      </trkpt>
      <trkpt lat="45.18891" lon="0.45117">
        <ele>210</ele>
        <time>2015-12-08T14:02:38Z</time>
      </trkpt>
      <trkpt lat="45.18887" lon="0.45126">
        <ele>210</ele>
        <time>2015-12-08T14:02:42Z</time>
      </trkpt>
      <trkpt lat="45.18881" lon="0.45131">
        <ele>209</ele>
        <time>2015-12-08T14:02:46Z</time>
      </trkpt>
      <trkpt lat="45.18875" lon="0.4513">
        <ele>210</ele>
        <time>2015-12-08T14:02:50Z</time>
      </trkpt>
      <trkpt lat="45.18868" lon="0.45133">
        <ele>210</ele>
        <time>2015-12-08T14:02:55Z</time>
      </trkpt>
      <trkpt lat="45.18861" lon="0.45136">
        <ele>211</ele>
        <time>2015-12-08T14:03:00Z</time>
      </trkpt>
      <trkpt lat="45.18859" lon="0.45143">
        <ele>211</ele>
        <time>2015-12-08T14:03:04Z</time>
      </trkpt>
      <trkpt lat="45.18857" lon="0.45149">
        <ele>210</ele>
        <time>2015-12-08T14:03:08Z</time>
      </trkpt>
      <trkpt lat="45.18855" lon="0.45154">
        <ele>209</ele>
        <time>2015-12-08T14:03:13Z</time>
      </trkpt>
      <trkpt lat="45.18853" lon="0.45162">
        <ele>209</ele>
        <time>2015-12-08T14:03:17Z</time>
      </trkpt>
      <trkpt lat="45.18849" lon="0.45168">
        <ele>209</ele>
        <time>2015-12-08T14:03:22Z</time>
      </trkpt>
      <trkpt lat="45.18847" lon="0.45172">
        <ele>211</ele>
        <time>2015-12-08T14:03:26Z</time>
      </trkpt>
      <trkpt lat="45.18843" lon="0.45179">
        <ele>210</ele>
        <time>2015-12-08T14:03:31Z</time>
      </trkpt>
      <trkpt lat="45.18842" lon="0.45187">
        <ele>211</ele>
        <time>2015-12-08T14:03:35Z</time>
      </trkpt>
      <trkpt lat="45.18839" lon="0.45196">
        <ele>209</ele>
        <time>2015-12-08T14:03:39Z</time>
      </trkpt>
      <trkpt lat="45.18838" lon="0.45205">
        <ele>207</ele>
        <time>2015-12-08T14:03:43Z</time>
      </trkpt>
      <trkpt lat="45.18836" lon="0.45212">
        <ele>206</ele>
        <time>2015-12-08T14:03:48Z</time>
      </trkpt>
      <trkpt lat="45.18835" lon="0.45216">
        <ele>208</ele>
        <time>2015-12-08T14:03:52Z</time>
      </trkpt>
      <trkpt lat="45.18831" lon="0.45221">
        <ele>210</ele>
        <time>2015-12-08T14:03:56Z</time>
      </trkpt>
      <trkpt lat="45.18827" lon="0.45225">
        <ele>210</ele>
        <time>2015-12-08T14:04:01Z</time>
      </trkpt>
      <trkpt lat="45.18826" lon="0.45232">
        <ele>211</ele>
        <time>2015-12-08T14:04:05Z</time>
      </trkpt>
      <trkpt lat="45.18821" lon="0.45239">
        <ele>211</ele>
        <time>2015-12-08T14:04:10Z</time>
      </trkpt>
      <trkpt lat="45.18818" lon="0.45243">
        <ele>215</ele>
        <time>2015-12-08T14:04:16Z</time>
      </trkpt>
      <trkpt lat="45.18812" lon="0.45244">
        <ele>215</ele>
        <time>2015-12-08T14:04:21Z</time>
      </trkpt>
      <trkpt lat="45.18808" lon="0.45248">
        <ele>217</ele>
        <time>2015-12-08T14:04:26Z</time>
      </trkpt>
      <trkpt lat="45.18806" lon="0.45254">
        <ele>216</ele>
        <time>2015-12-08T14:04:31Z</time>
      </trkpt>
      <trkpt lat="45.18803" lon="0.45269">
        <ele>212</ele>
        <time>2015-12-08T14:04:36Z</time>
      </trkpt>
      <trkpt lat="45.18801" lon="0.45275">
        <ele>211</ele>
        <time>2015-12-08T14:04:40Z</time>
      </trkpt>
      <trkpt lat="45.188" lon="0.45285">
        <ele>208</ele>
        <time>2015-12-08T14:04:45Z</time>
      </trkpt>
      <trkpt lat="45.18796" lon="0.45292">
        <ele>208</ele>
        <time>2015-12-08T14:04:50Z</time>
      </trkpt>
      <trkpt lat="45.18794" lon="0.45297">
        <ele>207</ele>
        <time>2015-12-08T14:04:54Z</time>
      </trkpt>
      <trkpt lat="45.18792" lon="0.45301">
        <ele>208</ele>
        <time>2015-12-08T14:04:58Z</time>
      </trkpt>
      <trkpt lat="45.18789" lon="0.4531">
        <ele>207</ele>
        <time>2015-12-08T14:05:03Z</time>
      </trkpt>
      <trkpt lat="45.18785" lon="0.45316">
        <ele>206</ele>
        <time>2015-12-08T14:05:07Z</time>
      </trkpt>
      <trkpt lat="45.18783" lon="0.45321">
        <ele>205</ele>
        <time>2015-12-08T14:05:13Z</time>
      </trkpt>
      <trkpt lat="45.18779" lon="0.45325">
        <ele>205</ele>
        <time>2015-12-08T14:05:17Z</time>
      </trkpt>
      <trkpt lat="45.18779" lon="0.45332">
        <ele>202</ele>
        <time>2015-12-08T14:05:21Z</time>
      </trkpt>
      <trkpt lat="45.18779" lon="0.45338">
        <ele>204</ele>
        <time>2015-12-08T14:05:26Z</time>
      </trkpt>
      <trkpt lat="45.18776" lon="0.45345">
        <ele>204</ele>
        <time>2015-12-08T14:05:30Z</time>
      </trkpt>
      <trkpt lat="45.18774" lon="0.45351">
        <ele>205</ele>
        <time>2015-12-08T14:05:34Z</time>
      </trkpt>
      <trkpt lat="45.18771" lon="0.45358">
        <ele>205</ele>
        <time>2015-12-08T14:05:38Z</time>
      </trkpt>
      <trkpt lat="45.1877" lon="0.45364">
        <ele>205</ele>
        <time>2015-12-08T14:05:42Z</time>
      </trkpt>
      <trkpt lat="45.18768" lon="0.45372">
        <ele>205</ele>
        <time>2015-12-08T14:05:46Z</time>
      </trkpt>
      <trkpt lat="45.18765" lon="0.45378">
        <ele>204</ele>
        <time>2015-12-08T14:05:50Z</time>
      </trkpt>
      <trkpt lat="45.18763" lon="0.45382">
        <ele>203</ele>
        <time>2015-12-08T14:05:55Z</time>
      </trkpt>
      <trkpt lat="45.1876" lon="0.45389">
        <ele>202</ele>
        <time>2015-12-08T14:06:00Z</time>
      </trkpt>
      <trkpt lat="45.18758" lon="0.45397">
        <ele>201</ele>
        <time>2015-12-08T14:06:04Z</time>
      </trkpt>
      <trkpt lat="45.18755" lon="0.45406">
        <ele>202</ele>
        <time>2015-12-08T14:06:09Z</time>
      </trkpt>
      <trkpt lat="45.18753" lon="0.45413">
        <ele>202</ele>
        <time>2015-12-08T14:06:13Z</time>
      </trkpt>
      <trkpt lat="45.1875" lon="0.45419">
        <ele>200</ele>
        <time>2015-12-08T14:06:17Z</time>
      </trkpt>
      <trkpt lat="45.18747" lon="0.45425">
        <ele>199</ele>
        <time>2015-12-08T14:06:21Z</time>
      </trkpt>
      <trkpt lat="45.18744" lon="0.45431">
        <ele>197</ele>
        <time>2015-12-08T14:06:25Z</time>
      </trkpt>
      <trkpt lat="45.18741" lon="0.45437">
        <ele>198</ele>
        <time>2015-12-08T14:06:30Z</time>
      </trkpt>
      <trkpt lat="45.18738" lon="0.45442">
        <ele>200</ele>
        <time>2015-12-08T14:06:35Z</time>
      </trkpt>
      <trkpt lat="45.18737" lon="0.45448">
        <ele>203</ele>
        <time>2015-12-08T14:06:39Z</time>
      </trkpt>
      <trkpt lat="45.18734" lon="0.45453">
        <ele>204</ele>
        <time>2015-12-08T14:06:43Z</time>
      </trkpt>
      <trkpt lat="45.18731" lon="0.45462">
        <ele>203</ele>
        <time>2015-12-08T14:06:48Z</time>
      </trkpt>
      <trkpt lat="45.18728" lon="0.45466">
        <ele>204</ele>
        <time>2015-12-08T14:06:54Z</time>
      </trkpt>
      <trkpt lat="45.18727" lon="0.45472">
        <ele>200</ele>
        <time>2015-12-08T14:07:00Z</time>
      </trkpt>
      <trkpt lat="45.18725" lon="0.45478">
        <ele>201</ele>
        <time>2015-12-08T14:08:29Z</time>
      </trkpt>
      <trkpt lat="45.18724" lon="0.45483">
        <ele>201</ele>
        <time>2015-12-08T14:09:11Z</time>
      </trkpt>
      <trkpt lat="45.18725" lon="0.4549">
        <ele>200</ele>
        <time>2015-12-08T14:09:16Z</time>
      </trkpt>
      <trkpt lat="45.18723" lon="0.45494">
        <ele>204</ele>
        <time>2015-12-08T14:09:26Z</time>
      </trkpt>
      <trkpt lat="45.18722" lon="0.45499">
        <ele>203</ele>
        <time>2015-12-08T14:09:31Z</time>
      </trkpt>
      <trkpt lat="45.18719" lon="0.455">
        <ele>206</ele>
        <time>2015-12-08T14:09:37Z</time>
      </trkpt>
      <trkpt lat="45.18715" lon="0.45504">
        <ele>205</ele>
        <time>2015-12-08T14:09:41Z</time>
      </trkpt>
      <trkpt lat="45.18714" lon="0.4551">
        <ele>205</ele>
        <time>2015-12-08T14:09:47Z</time>
      </trkpt>
      <trkpt lat="45.18712" lon="0.45516">
        <ele>205</ele>
        <time>2015-12-08T14:09:51Z</time>
      </trkpt>
      <trkpt lat="45.18708" lon="0.45521">
        <ele>204</ele>
        <time>2015-12-08T14:09:55Z</time>
      </trkpt>
      <trkpt lat="45.18704" lon="0.45525">
        <ele>203</ele>
        <time>2015-12-08T14:09:59Z</time>
      </trkpt>
      <trkpt lat="45.18702" lon="0.45537">
        <ele>205</ele>
        <time>2015-12-08T14:10:04Z</time>
      </trkpt>
      <trkpt lat="45.18699" lon="0.45544">
        <ele>205</ele>
        <time>2015-12-08T14:10:08Z</time>
      </trkpt>
      <trkpt lat="45.18697" lon="0.45552">
        <ele>208</ele>
        <time>2015-12-08T14:10:12Z</time>
      </trkpt>
      <trkpt lat="45.18696" lon="0.4556">
        <ele>207</ele>
        <time>2015-12-08T14:10:17Z</time>
      </trkpt>
      <trkpt lat="45.18693" lon="0.45563">
        <ele>211</ele>
        <time>2015-12-08T14:10:24Z</time>
      </trkpt>
      <trkpt lat="45.1869" lon="0.45571">
        <ele>208</ele>
        <time>2015-12-08T14:10:28Z</time>
      </trkpt>
      <trkpt lat="45.18689" lon="0.45579">
        <ele>209</ele>
        <time>2015-12-08T14:10:32Z</time>
      </trkpt>
      <trkpt lat="45.18686" lon="0.45583">
        <ele>208</ele>
        <time>2015-12-08T14:10:36Z</time>
      </trkpt>
      <trkpt lat="45.18685" lon="0.45594">
        <ele>208</ele>
        <time>2015-12-08T14:10:41Z</time>
      </trkpt>
      <trkpt lat="45.18684" lon="0.45602">
        <ele>208</ele>
        <time>2015-12-08T14:10:45Z</time>
      </trkpt>
      <trkpt lat="45.18686" lon="0.45614">
        <ele>210</ele>
        <time>2015-12-08T14:10:49Z</time>
      </trkpt>
      <trkpt lat="45.18686" lon="0.45621">
        <ele>210</ele>
        <time>2015-12-08T14:10:53Z</time>
      </trkpt>
      <trkpt lat="45.18683" lon="0.45629">
        <ele>207</ele>
        <time>2015-12-08T14:10:58Z</time>
      </trkpt>
      <trkpt lat="45.18684" lon="0.4564">
        <ele>207</ele>
        <time>2015-12-08T14:11:03Z</time>
      </trkpt>
      <trkpt lat="45.18685" lon="0.45648">
        <ele>206</ele>
        <time>2015-12-08T14:11:07Z</time>
      </trkpt>
      <trkpt lat="45.18681" lon="0.45649">
        <ele>211</ele>
        <time>2015-12-08T14:11:44Z</time>
      </trkpt>
      <trkpt lat="45.18679" lon="0.45656">
        <ele>210</ele>
        <time>2015-12-08T14:11:49Z</time>
      </trkpt>
      <trkpt lat="45.18678" lon="0.45666">
        <ele>211</ele>
        <time>2015-12-08T14:11:53Z</time>
      </trkpt>
      <trkpt lat="45.18678" lon="0.45676">
        <ele>209</ele>
        <time>2015-12-08T14:11:58Z</time>
      </trkpt>
      <trkpt lat="45.18677" lon="0.45681">
        <ele>210</ele>
        <time>2015-12-08T14:12:02Z</time>
      </trkpt>
      <trkpt lat="45.18673" lon="0.45694">
        <ele>211</ele>
        <time>2015-12-08T14:12:07Z</time>
      </trkpt>
      <trkpt lat="45.18672" lon="0.45703">
        <ele>210</ele>
        <time>2015-12-08T14:12:11Z</time>
      </trkpt>
      <trkpt lat="45.18671" lon="0.45712">
        <ele>209</ele>
        <time>2015-12-08T14:12:16Z</time>
      </trkpt>
      <trkpt lat="45.18669" lon="0.4572">
        <ele>207</ele>
        <time>2015-12-08T14:12:20Z</time>
      </trkpt>
      <trkpt lat="45.18668" lon="0.45729">
        <ele>205</ele>
        <time>2015-12-08T14:12:24Z</time>
      </trkpt>
      <trkpt lat="45.1867" lon="0.45737">
        <ele>202</ele>
        <time>2015-12-08T14:12:28Z</time>
      </trkpt>
      <trkpt lat="45.18668" lon="0.45746">
        <ele>202</ele>
        <time>2015-12-08T14:12:33Z</time>
      </trkpt>
      <trkpt lat="45.18665" lon="0.45756">
        <ele>200</ele>
        <time>2015-12-08T14:12:38Z</time>
      </trkpt>
      <trkpt lat="45.18664" lon="0.45762">
        <ele>200</ele>
        <time>2015-12-08T14:12:42Z</time>
      </trkpt>
      <trkpt lat="45.18663" lon="0.45769">
        <ele>201</ele>
        <time>2015-12-08T14:12:46Z</time>
      </trkpt>
      <trkpt lat="45.18661" lon="0.45776">
        <ele>199</ele>
        <time>2015-12-08T14:12:50Z</time>
      </trkpt>
      <trkpt lat="45.1866" lon="0.45783">
        <ele>197</ele>
        <time>2015-12-08T14:12:54Z</time>
      </trkpt>
      <trkpt lat="45.18657" lon="0.45787">
        <ele>199</ele>
        <time>2015-12-08T14:12:58Z</time>
      </trkpt>
      <trkpt lat="45.18657" lon="0.45797">
        <ele>201</ele>
        <time>2015-12-08T14:13:03Z</time>
      </trkpt>
      <trkpt lat="45.18653" lon="0.45803">
        <ele>201</ele>
        <time>2015-12-08T14:13:07Z</time>
      </trkpt>
      <trkpt lat="45.18652" lon="0.4581">
        <ele>203</ele>
        <time>2015-12-08T14:13:11Z</time>
      </trkpt>
      <trkpt lat="45.18649" lon="0.45821">
        <ele>205</ele>
        <time>2015-12-08T14:13:16Z</time>
      </trkpt>
      <trkpt lat="45.18647" lon="0.45831">
        <ele>205</ele>
        <time>2015-12-08T14:13:21Z</time>
      </trkpt>
      <trkpt lat="45.18646" lon="0.45839">
        <ele>206</ele>
        <time>2015-12-08T14:13:25Z</time>
      </trkpt>
      <trkpt lat="45.18644" lon="0.45842">
        <ele>204</ele>
        <time>2015-12-08T14:13:30Z</time>
      </trkpt>
      <trkpt lat="45.18645" lon="0.45852">
        <ele>206</ele>
        <time>2015-12-08T14:13:34Z</time>
      </trkpt>
      <trkpt lat="45.18643" lon="0.45857">
        <ele>209</ele>
        <time>2015-12-08T14:13:38Z</time>
      </trkpt>
      <trkpt lat="45.1864" lon="0.45868">
        <ele>209</ele>
        <time>2015-12-08T14:13:43Z</time>
      </trkpt>
      <trkpt lat="45.18635" lon="0.45877">
        <ele>208</ele>
        <time>2015-12-08T14:13:48Z</time>
      </trkpt>
      <trkpt lat="45.18632" lon="0.4588">
        <ele>209</ele>
        <time>2015-12-08T14:13:52Z</time>
      </trkpt>
      <trkpt lat="45.18627" lon="0.45883">
        <ele>210</ele>
        <time>2015-12-08T14:13:56Z</time>
      </trkpt>
      <trkpt lat="45.18627" lon="0.45886">
        <ele>211</ele>
        <time>2015-12-08T14:14:00Z</time>
      </trkpt>
      <trkpt lat="45.18623" lon="0.45901">
        <ele>209</ele>
        <time>2015-12-08T14:14:05Z</time>
      </trkpt>
      <trkpt lat="45.18619" lon="0.45904">
        <ele>213</ele>
        <time>2015-12-08T14:14:10Z</time>
      </trkpt>
      <trkpt lat="45.18617" lon="0.45916">
        <ele>212</ele>
        <time>2015-12-08T14:14:14Z</time>
      </trkpt>
      <trkpt lat="45.18613" lon="0.45924">
        <ele>211</ele>
        <time>2015-12-08T14:14:19Z</time>
      </trkpt>
      <trkpt lat="45.18609" lon="0.45929">
        <ele>213</ele>
        <time>2015-12-08T14:14:24Z</time>
      </trkpt>
      <trkpt lat="45.18608" lon="0.45934">
        <ele>213</ele>
        <time>2015-12-08T14:14:29Z</time>
      </trkpt>
      <trkpt lat="45.18606" lon="0.45939">
        <ele>214</ele>
        <time>2015-12-08T14:14:33Z</time>
      </trkpt>
      <trkpt lat="45.18604" lon="0.45947">
        <ele>216</ele>
        <time>2015-12-08T14:14:37Z</time>
      </trkpt>
      <trkpt lat="45.18604" lon="0.45957">
        <ele>218</ele>
        <time>2015-12-08T14:14:41Z</time>
      </trkpt>
      <trkpt lat="45.18599" lon="0.45974">
        <ele>214</ele>
        <time>2015-12-08T14:14:46Z</time>
      </trkpt>
      <trkpt lat="45.18597" lon="0.45984">
        <ele>213</ele>
        <time>2015-12-08T14:14:51Z</time>
      </trkpt>
      <trkpt lat="45.18596" lon="0.45989">
        <ele>211</ele>
        <time>2015-12-08T14:14:55Z</time>
      </trkpt>
      <trkpt lat="45.18595" lon="0.45995">
        <ele>209</ele>
        <time>2015-12-08T14:15:00Z</time>
      </trkpt>
      <trkpt lat="45.18594" lon="0.46001">
        <ele>212</ele>
        <time>2015-12-08T14:15:04Z</time>
      </trkpt>
      <trkpt lat="45.18595" lon="0.46008">
        <ele>213</ele>
        <time>2015-12-08T14:15:09Z</time>
      </trkpt>
      <trkpt lat="45.18593" lon="0.46012">
        <ele>212</ele>
        <time>2015-12-08T14:15:14Z</time>
      </trkpt>
      <trkpt lat="45.18591" lon="0.46024">
        <ele>213</ele>
        <time>2015-12-08T14:15:18Z</time>
      </trkpt>
      <trkpt lat="45.18587" lon="0.46029">
        <ele>212</ele>
        <time>2015-12-08T14:15:23Z</time>
      </trkpt>
      <trkpt lat="45.18583" lon="0.46035">
        <ele>212</ele>
        <time>2015-12-08T14:15:27Z</time>
      </trkpt>
      <trkpt lat="45.1858" lon="0.46043">
        <ele>215</ele>
        <time>2015-12-08T14:15:32Z</time>
      </trkpt>
      <trkpt lat="45.18576" lon="0.4605">
        <ele>214</ele>
        <time>2015-12-08T14:15:37Z</time>
      </trkpt>
      <trkpt lat="45.18573" lon="0.46055">
        <ele>215</ele>
        <time>2015-12-08T14:15:42Z</time>
      </trkpt>
      <trkpt lat="45.18571" lon="0.46059">
        <ele>215</ele>
        <time>2015-12-08T14:15:55Z</time>
      </trkpt>
      <trkpt lat="45.18568" lon="0.46065">
        <ele>215</ele>
        <time>2015-12-08T14:15:59Z</time>
      </trkpt>
      <trkpt lat="45.18564" lon="0.46077">
        <ele>214</ele>
        <time>2015-12-08T14:16:03Z</time>
      </trkpt>
      <trkpt lat="45.18561" lon="0.4609">
        <ele>214</ele>
        <time>2015-12-08T14:16:08Z</time>
      </trkpt>
      <trkpt lat="45.18557" lon="0.46095">
        <ele>214</ele>
        <time>2015-12-08T14:16:12Z</time>
      </trkpt>
      <trkpt lat="45.18554" lon="0.46101">
        <ele>215</ele>
        <time>2015-12-08T14:16:17Z</time>
      </trkpt>
      <trkpt lat="45.1855" lon="0.46109">
        <ele>216</ele>
        <time>2015-12-08T14:16:21Z</time>
      </trkpt>
      <trkpt lat="45.1855" lon="0.46116">
        <ele>214</ele>
        <time>2015-12-08T14:16:25Z</time>
      </trkpt>
      <trkpt lat="45.18547" lon="0.46127">
        <ele>213</ele>
        <time>2015-12-08T14:16:30Z</time>
      </trkpt>
      <trkpt lat="45.18544" lon="0.46134">
        <ele>212</ele>
        <time>2015-12-08T14:16:35Z</time>
      </trkpt>
      <trkpt lat="45.18542" lon="0.46143">
        <ele>210</ele>
        <time>2015-12-08T14:16:40Z</time>
      </trkpt>
      <trkpt lat="45.1854" lon="0.46151">
        <ele>212</ele>
        <time>2015-12-08T14:16:44Z</time>
      </trkpt>
      <trkpt lat="45.18535" lon="0.46157">
        <ele>213</ele>
        <time>2015-12-08T14:16:48Z</time>
      </trkpt>
      <trkpt lat="45.18534" lon="0.4616">
        <ele>212</ele>
        <time>2015-12-08T14:16:52Z</time>
      </trkpt>
      <trkpt lat="45.1853" lon="0.46168">
        <ele>214</ele>
        <time>2015-12-08T14:16:57Z</time>
      </trkpt>
      <trkpt lat="45.18527" lon="0.46173">
        <ele>215</ele>
        <time>2015-12-08T14:17:01Z</time>
      </trkpt>
      <trkpt lat="45.18525" lon="0.46182">
        <ele>214</ele>
        <time>2015-12-08T14:17:06Z</time>
      </trkpt>
      <trkpt lat="45.18526" lon="0.46191">
        <ele>218</ele>
        <time>2015-12-08T14:17:11Z</time>
      </trkpt>
      <trkpt lat="45.18521" lon="0.46197">
        <ele>218</ele>
        <time>2015-12-08T14:17:15Z</time>
      </trkpt>
      <trkpt lat="45.18517" lon="0.46204">
        <ele>218</ele>
        <time>2015-12-08T14:17:20Z</time>
      </trkpt>
      <trkpt lat="45.18515" lon="0.4621">
        <ele>216</ele>
        <time>2015-12-08T14:17:24Z</time>
      </trkpt>
      <trkpt lat="45.1851" lon="0.46216">
        <ele>213</ele>
        <time>2015-12-08T14:17:29Z</time>
      </trkpt>
      <trkpt lat="45.18508" lon="0.46224">
        <ele>210</ele>
        <time>2015-12-08T14:17:33Z</time>
      </trkpt>
      <trkpt lat="45.18506" lon="0.46231">
        <ele>207</ele>
        <time>2015-12-08T14:17:37Z</time>
      </trkpt>
      <trkpt lat="45.18504" lon="0.46242">
        <ele>205</ele>
        <time>2015-12-08T14:17:42Z</time>
      </trkpt>
      <trkpt lat="45.18503" lon="0.46252">
        <ele>204</ele>
        <time>2015-12-08T14:17:47Z</time>
      </trkpt>
      <trkpt lat="45.18501" lon="0.46257">
        <ele>203</ele>
        <time>2015-12-08T14:17:52Z</time>
      </trkpt>
      <trkpt lat="45.18499" lon="0.46266">
        <ele>203</ele>
        <time>2015-12-08T14:17:57Z</time>
      </trkpt>
      <trkpt lat="45.18496" lon="0.46275">
        <ele>205</ele>
        <time>2015-12-08T14:18:02Z</time>
      </trkpt>
      <trkpt lat="45.18495" lon="0.46285">
        <ele>207</ele>
        <time>2015-12-08T14:18:06Z</time>
      </trkpt>
      <trkpt lat="45.18491" lon="0.46293">
        <ele>204</ele>
        <time>2015-12-08T14:18:11Z</time>
      </trkpt>
      <trkpt lat="45.1849" lon="0.46298">
        <ele>203</ele>
        <time>2015-12-08T14:18:15Z</time>
      </trkpt>
      <trkpt lat="45.18487" lon="0.46305">
        <ele>200</ele>
        <time>2015-12-08T14:18:20Z</time>
      </trkpt>
      <trkpt lat="45.18485" lon="0.46313">
        <ele>202</ele>
        <time>2015-12-08T14:18:24Z</time>
      </trkpt>
      <trkpt lat="45.18485" lon="0.4632">
        <ele>201</ele>
        <time>2015-12-08T14:18:28Z</time>
      </trkpt>
      <trkpt lat="45.18485" lon="0.46327">
        <ele>200</ele>
        <time>2015-12-08T14:18:32Z</time>
      </trkpt>
      <trkpt lat="45.18482" lon="0.46335">
        <ele>201</ele>
        <time>2015-12-08T14:18:37Z</time>
      </trkpt>
      <trkpt lat="45.1848" lon="0.46344">
        <ele>204</ele>
        <time>2015-12-08T14:18:42Z</time>
      </trkpt>
      <trkpt lat="45.18477" lon="0.46348">
        <ele>204</ele>
        <time>2015-12-08T14:18:46Z</time>
      </trkpt>
      <trkpt lat="45.18476" lon="0.46356">
        <ele>205</ele>
        <time>2015-12-08T14:18:50Z</time>
      </trkpt>
      <trkpt lat="45.18477" lon="0.46367">
        <ele>203</ele>
        <time>2015-12-08T14:18:54Z</time>
      </trkpt>
      <trkpt lat="45.18477" lon="0.46381">
        <ele>203</ele>
        <time>2015-12-08T14:18:59Z</time>
      </trkpt>
      <trkpt lat="45.18479" lon="0.46388">
        <ele>205</ele>
        <time>2015-12-08T14:19:03Z</time>
      </trkpt>
      <trkpt lat="45.18477" lon="0.464">
        <ele>206</ele>
        <time>2015-12-08T14:19:07Z</time>
      </trkpt>
      <trkpt lat="45.18477" lon="0.46408">
        <ele>204</ele>
        <time>2015-12-08T14:19:11Z</time>
      </trkpt>
      <trkpt lat="45.18476" lon="0.46416">
        <ele>202</ele>
        <time>2015-12-08T14:19:15Z</time>
      </trkpt>
      <trkpt lat="45.18476" lon="0.46423">
        <ele>201</ele>
        <time>2015-12-08T14:19:20Z</time>
      </trkpt>
      <trkpt lat="45.18475" lon="0.46431">
        <ele>198</ele>
        <time>2015-12-08T14:19:24Z</time>
      </trkpt>
      <trkpt lat="45.18473" lon="0.46437">
        <ele>198</ele>
        <time>2015-12-08T14:19:28Z</time>
      </trkpt>
      <trkpt lat="45.18473" lon="0.46446">
        <ele>200</ele>
        <time>2015-12-08T14:19:32Z</time>
      </trkpt>
      <trkpt lat="45.18471" lon="0.4645">
        <ele>200</ele>
        <time>2015-12-08T14:19:56Z</time>
      </trkpt>
      <trkpt lat="45.18467" lon="0.46451">
        <ele>200</ele>
        <time>2015-12-08T14:20:04Z</time>
      </trkpt>
      <trkpt lat="45.18463" lon="0.4645">
        <ele>202</ele>
        <time>2015-12-08T14:20:08Z</time>
      </trkpt>
      <trkpt lat="45.18459" lon="0.46449">
        <ele>200</ele>
        <time>2015-12-08T14:20:13Z</time>
      </trkpt>
      <trkpt lat="45.18455" lon="0.46448">
        <ele>199</ele>
        <time>2015-12-08T14:20:20Z</time>
      </trkpt>
      <trkpt lat="45.18452" lon="0.46445">
        <ele>198</ele>
        <time>2015-12-08T14:20:26Z</time>
      </trkpt>
      <trkpt lat="45.18449" lon="0.46442">
        <ele>198</ele>
        <time>2015-12-08T14:20:30Z</time>
      </trkpt>
      <trkpt lat="45.18446" lon="0.46437">
        <ele>199</ele>
        <time>2015-12-08T14:20:34Z</time>
      </trkpt>
      <trkpt lat="45.18442" lon="0.46429">
        <ele>198</ele>
        <time>2015-12-08T14:20:39Z</time>
      </trkpt>
      <trkpt lat="45.18439" lon="0.46426">
        <ele>198</ele>
        <time>2015-12-08T14:20:43Z</time>
      </trkpt>
      <trkpt lat="45.18435" lon="0.46424">
        <ele>196</ele>
        <time>2015-12-08T14:20:47Z</time>
      </trkpt>
      <trkpt lat="45.18431" lon="0.46426">
        <ele>194</ele>
        <time>2015-12-08T14:20:58Z</time>
      </trkpt>
      <trkpt lat="45.18429" lon="0.46422">
        <ele>188</ele>
        <time>2015-12-08T14:21:12Z</time>
      </trkpt>
      <trkpt lat="45.18426" lon="0.46418">
        <ele>190</ele>
        <time>2015-12-08T14:21:20Z</time>
      </trkpt>
      <trkpt lat="45.18422" lon="0.46411">
        <ele>190</ele>
        <time>2015-12-08T14:21:24Z</time>
      </trkpt>
      <trkpt lat="45.18418" lon="0.46412">
        <ele>190</ele>
        <time>2015-12-08T14:21:28Z</time>
      </trkpt>
      <trkpt lat="45.18412" lon="0.46408">
        <ele>190</ele>
        <time>2015-12-08T14:21:32Z</time>
      </trkpt>
      <trkpt lat="45.18407" lon="0.46402">
        <ele>189</ele>
        <time>2015-12-08T14:21:36Z</time>
      </trkpt>
      <trkpt lat="45.184" lon="0.46402">
        <ele>185</ele>
        <time>2015-12-08T14:21:41Z</time>
      </trkpt>
      <trkpt lat="45.18395" lon="0.46403">
        <ele>185</ele>
        <time>2015-12-08T14:21:45Z</time>
      </trkpt>
      <trkpt lat="45.18392" lon="0.46406">
        <ele>184</ele>
        <time>2015-12-08T14:21:51Z</time>
      </trkpt>
      <trkpt lat="45.18388" lon="0.46403">
        <ele>183</ele>
        <time>2015-12-08T14:21:55Z</time>
      </trkpt>
      <trkpt lat="45.18385" lon="0.46407">
        <ele>182</ele>
        <time>2015-12-08T14:22:01Z</time>
      </trkpt>
      <trkpt lat="45.18382" lon="0.46405">
        <ele>181</ele>
        <time>2015-12-08T14:22:05Z</time>
      </trkpt>
      <trkpt lat="45.18379" lon="0.46401">
        <ele>181</ele>
        <time>2015-12-08T14:22:10Z</time>
      </trkpt>
      <trkpt lat="45.18375" lon="0.46399">
        <ele>177</ele>
        <time>2015-12-08T14:22:22Z</time>
      </trkpt>
      <trkpt lat="45.18371" lon="0.46397">
        <ele>179</ele>
        <time>2015-12-08T14:22:28Z</time>
      </trkpt>
      <trkpt lat="45.18369" lon="0.46393">
        <ele>176</ele>
        <time>2015-12-08T14:22:33Z</time>
      </trkpt>
      <trkpt lat="45.18363" lon="0.46389">
        <ele>175</ele>
        <time>2015-12-08T14:22:38Z</time>
      </trkpt>
      <trkpt lat="45.18359" lon="0.46388">
        <ele>176</ele>
        <time>2015-12-08T14:22:45Z</time>
      </trkpt>
      <trkpt lat="45.18356" lon="0.46387">
        <ele>173</ele>
        <time>2015-12-08T14:22:53Z</time>
      </trkpt>
      <trkpt lat="45.18351" lon="0.46386">
        <ele>172</ele>
        <time>2015-12-08T14:22:58Z</time>
      </trkpt>
      <trkpt lat="45.18347" lon="0.46384">
        <ele>171</ele>
        <time>2015-12-08T14:23:02Z</time>
      </trkpt>
      <trkpt lat="45.18342" lon="0.46383">
        <ele>167</ele>
        <time>2015-12-08T14:23:07Z</time>
      </trkpt>
      <trkpt lat="45.18337" lon="0.46376">
        <ele>166</ele>
        <time>2015-12-08T14:23:11Z</time>
      </trkpt>
      <trkpt lat="45.18333" lon="0.46377">
        <ele>164</ele>
        <time>2015-12-08T14:23:18Z</time>
      </trkpt>
      <trkpt lat="45.1833" lon="0.46375">
        <ele>164</ele>
        <time>2015-12-08T14:23:22Z</time>
      </trkpt>
      <trkpt lat="45.18325" lon="0.46372">
        <ele>164</ele>
        <time>2015-12-08T14:23:26Z</time>
      </trkpt>
      <trkpt lat="45.18319" lon="0.46368">
        <ele>163</ele>
        <time>2015-12-08T14:23:31Z</time>
      </trkpt>
      <trkpt lat="45.18315" lon="0.46366">
        <ele>164</ele>
        <time>2015-12-08T14:23:35Z</time>
      </trkpt>
      <trkpt lat="45.18307" lon="0.46364">
        <ele>160</ele>
        <time>2015-12-08T14:23:40Z</time>
      </trkpt>
      <trkpt lat="45.183" lon="0.46362">
        <ele>158</ele>
        <time>2015-12-08T14:23:45Z</time>
      </trkpt>
      <trkpt lat="45.18294" lon="0.46361">
        <ele>157</ele>
        <time>2015-12-08T14:23:50Z</time>
      </trkpt>
      <trkpt lat="45.18288" lon="0.46359">
        <ele>157</ele>
        <time>2015-12-08T14:23:55Z</time>
      </trkpt>
      <trkpt lat="45.18283" lon="0.46356">
        <ele>157</ele>
        <time>2015-12-08T14:23:59Z</time>
      </trkpt>
      <trkpt lat="45.18278" lon="0.46354">
        <ele>156</ele>
        <time>2015-12-08T14:24:03Z</time>
      </trkpt>
      <trkpt lat="45.18273" lon="0.46355">
        <ele>156</ele>
        <time>2015-12-08T14:24:07Z</time>
      </trkpt>
      <trkpt lat="45.18267" lon="0.46352">
        <ele>155</ele>
        <time>2015-12-08T14:24:12Z</time>
      </trkpt>
      <trkpt lat="45.18261" lon="0.46348">
        <ele>154</ele>
        <time>2015-12-08T14:24:16Z</time>
      </trkpt>
      <trkpt lat="45.18256" lon="0.46347">
        <ele>154</ele>
        <time>2015-12-08T14:24:21Z</time>
      </trkpt>
      <trkpt lat="45.18249" lon="0.46343">
        <ele>154</ele>
        <time>2015-12-08T14:24:26Z</time>
      </trkpt>
      <trkpt lat="45.18244" lon="0.46341">
        <ele>155</ele>
        <time>2015-12-08T14:24:30Z</time>
      </trkpt>
      <trkpt lat="45.18237" lon="0.46339">
        <ele>154</ele>
        <time>2015-12-08T14:24:35Z</time>
      </trkpt>
      <trkpt lat="45.18234" lon="0.46334">
        <ele>153</ele>
        <time>2015-12-08T14:24:39Z</time>
      </trkpt>
      <trkpt lat="45.18231" lon="0.46327">
        <ele>152</ele>
        <time>2015-12-08T14:24:43Z</time>
      </trkpt>
      <trkpt lat="45.18228" lon="0.46318">
        <ele>152</ele>
        <time>2015-12-08T14:24:48Z</time>
      </trkpt>
      <trkpt lat="45.18226" lon="0.46313">
        <ele>151</ele>
        <time>2015-12-08T14:24:52Z</time>
      </trkpt>
      <trkpt lat="45.18222" lon="0.46307">
        <ele>150</ele>
        <time>2015-12-08T14:24:57Z</time>
      </trkpt>
      <trkpt lat="45.18219" lon="0.46298">
        <ele>149</ele>
        <time>2015-12-08T14:25:01Z</time>
      </trkpt>
      <trkpt lat="45.18214" lon="0.46294">
        <ele>150</ele>
        <time>2015-12-08T14:25:06Z</time>
      </trkpt>
      <trkpt lat="45.18211" lon="0.4629">
        <ele>151</ele>
        <time>2015-12-08T14:25:10Z</time>
      </trkpt>
      <trkpt lat="45.18209" lon="0.46282">
        <ele>150</ele>
        <time>2015-12-08T14:25:14Z</time>
      </trkpt>
      <trkpt lat="45.18203" lon="0.46278">
        <ele>150</ele>
        <time>2015-12-08T14:25:18Z</time>
      </trkpt>
      <trkpt lat="45.18198" lon="0.46271">
        <ele>149</ele>
        <time>2015-12-08T14:25:23Z</time>
      </trkpt>
      <trkpt lat="45.18194" lon="0.46267">
        <ele>147</ele>
        <time>2015-12-08T14:25:27Z</time>
      </trkpt>
      <trkpt lat="45.18191" lon="0.46266">
        <ele>148</ele>
        <time>2015-12-08T14:25:33Z</time>
      </trkpt>
      <trkpt lat="45.18186" lon="0.46256">
        <ele>148</ele>
        <time>2015-12-08T14:25:38Z</time>
      </trkpt>
      <trkpt lat="45.18182" lon="0.4625">
        <ele>147</ele>
        <time>2015-12-08T14:25:42Z</time>
      </trkpt>
      <trkpt lat="45.18181" lon="0.46242">
        <ele>146</ele>
        <time>2015-12-08T14:25:46Z</time>
      </trkpt>
      <trkpt lat="45.18176" lon="0.46236">
        <ele>146</ele>
        <time>2015-12-08T14:25:50Z</time>
      </trkpt>
      <trkpt lat="45.18174" lon="0.4623">
        <ele>146</ele>
        <time>2015-12-08T14:25:54Z</time>
      </trkpt>
      <trkpt lat="45.18171" lon="0.46221">
        <ele>143</ele>
        <time>2015-12-08T14:25:59Z</time>
      </trkpt>
      <trkpt lat="45.18166" lon="0.46214">
        <ele>142</ele>
        <time>2015-12-08T14:26:03Z</time>
      </trkpt>
      <trkpt lat="45.18165" lon="0.46208">
        <ele>141</ele>
        <time>2015-12-08T14:26:07Z</time>
      </trkpt>
      <trkpt lat="45.18161" lon="0.46205">
        <ele>142</ele>
        <time>2015-12-08T14:26:11Z</time>
      </trkpt>
      <trkpt lat="45.18157" lon="0.46201">
        <ele>143</ele>
        <time>2015-12-08T14:26:15Z</time>
      </trkpt>
      <trkpt lat="45.18151" lon="0.46195">
        <ele>142</ele>
        <time>2015-12-08T14:26:20Z</time>
      </trkpt>
      <trkpt lat="45.18148" lon="0.46189">
        <ele>139</ele>
        <time>2015-12-08T14:26:24Z</time>
      </trkpt>
      <trkpt lat="45.18145" lon="0.46181">
        <ele>137</ele>
        <time>2015-12-08T14:26:28Z</time>
      </trkpt>
      <trkpt lat="45.18142" lon="0.46174">
        <ele>138</ele>
        <time>2015-12-08T14:26:33Z</time>
      </trkpt>
      <trkpt lat="45.18141" lon="0.46169">
        <ele>137</ele>
        <time>2015-12-08T14:26:37Z</time>
      </trkpt>
      <trkpt lat="45.18138" lon="0.46164">
        <ele>138</ele>
        <time>2015-12-08T14:26:41Z</time>
      </trkpt>
      <trkpt lat="45.18134" lon="0.46156">
        <ele>139</ele>
        <time>2015-12-08T14:26:46Z</time>
      </trkpt>
      <trkpt lat="45.18134" lon="0.46148">
        <ele>138</ele>
        <time>2015-12-08T14:26:51Z</time>
      </trkpt>
      <trkpt lat="45.18128" lon="0.46142">
        <ele>133</ele>
        <time>2015-12-08T14:26:55Z</time>
      </trkpt>
      <trkpt lat="45.18124" lon="0.4614">
        <ele>135</ele>
        <time>2015-12-08T14:27:00Z</time>
      </trkpt>
      <trkpt lat="45.1812" lon="0.46136">
        <ele>133</ele>
        <time>2015-12-08T14:27:05Z</time>
      </trkpt>
      <trkpt lat="45.18117" lon="0.46132">
        <ele>135</ele>
        <time>2015-12-08T14:27:12Z</time>
      </trkpt>
      <trkpt lat="45.18113" lon="0.46129">
        <ele>137</ele>
        <time>2015-12-08T14:27:17Z</time>
      </trkpt>
      <trkpt lat="45.18109" lon="0.46124">
        <ele>138</ele>
        <time>2015-12-08T14:27:21Z</time>
      </trkpt>
      <trkpt lat="45.18105" lon="0.46123">
        <ele>139</ele>
        <time>2015-12-08T14:27:25Z</time>
      </trkpt>
      <trkpt lat="45.18101" lon="0.4612">
        <ele>139</ele>
        <time>2015-12-08T14:27:29Z</time>
      </trkpt>
      <trkpt lat="45.18097" lon="0.46117">
        <ele>137</ele>
        <time>2015-12-08T14:27:33Z</time>
      </trkpt>
      <trkpt lat="45.18092" lon="0.46114">
        <ele>137</ele>
        <time>2015-12-08T14:27:37Z</time>
      </trkpt>
      <trkpt lat="45.18087" lon="0.4611">
        <ele>139</ele>
        <time>2015-12-08T14:27:42Z</time>
      </trkpt>
      <trkpt lat="45.18081" lon="0.46111">
        <ele>138</ele>
        <time>2015-12-08T14:27:46Z</time>
      </trkpt>
      <trkpt lat="45.18078" lon="0.46116">
        <ele>137</ele>
        <time>2015-12-08T14:27:52Z</time>
      </trkpt>
      <trkpt lat="45.18072" lon="0.46116">
        <ele>137</ele>
        <time>2015-12-08T14:27:56Z</time>
      </trkpt>
      <trkpt lat="45.18068" lon="0.46116">
        <ele>139</ele>
        <time>2015-12-08T14:28:02Z</time>
      </trkpt>
      <trkpt lat="45.1806" lon="0.46116">
        <ele>142</ele>
        <time>2015-12-08T14:28:07Z</time>
      </trkpt>
      <trkpt lat="45.18056" lon="0.46117">
        <ele>145</ele>
        <time>2015-12-08T14:28:11Z</time>
      </trkpt>
      <trkpt lat="45.1805" lon="0.46119">
        <ele>143</ele>
        <time>2015-12-08T14:28:15Z</time>
      </trkpt>
      <trkpt lat="45.18046" lon="0.46119">
        <ele>144</ele>
        <time>2015-12-08T14:28:19Z</time>
      </trkpt>
      <trkpt lat="45.18042" lon="0.46123">
        <ele>144</ele>
        <time>2015-12-08T14:28:24Z</time>
      </trkpt>
      <trkpt lat="45.18039" lon="0.46122">
        <ele>146</ele>
        <time>2015-12-08T14:28:29Z</time>
      </trkpt>
      <trkpt lat="45.18034" lon="0.46123">
        <ele>145</ele>
        <time>2015-12-08T14:28:37Z</time>
      </trkpt>
      <trkpt lat="45.18028" lon="0.46124">
        <ele>147</ele>
        <time>2015-12-08T14:28:42Z</time>
      </trkpt>
      <trkpt lat="45.18022" lon="0.46126">
        <ele>147</ele>
        <time>2015-12-08T14:28:46Z</time>
      </trkpt>
      <trkpt lat="45.18019" lon="0.46128">
        <ele>151</ele>
        <time>2015-12-08T14:29:03Z</time>
      </trkpt>
      <trkpt lat="45.18015" lon="0.46131">
        <ele>152</ele>
        <time>2015-12-08T14:29:08Z</time>
      </trkpt>
      <trkpt lat="45.1801" lon="0.46128">
        <ele>154</ele>
        <time>2015-12-08T14:29:12Z</time>
      </trkpt>
      <trkpt lat="45.18006" lon="0.46129">
        <ele>156</ele>
        <time>2015-12-08T14:29:18Z</time>
      </trkpt>
      <trkpt lat="45.18002" lon="0.46127">
        <ele>156</ele>
        <time>2015-12-08T14:29:23Z</time>
      </trkpt>
      <trkpt lat="45.17998" lon="0.46128">
        <ele>155</ele>
        <time>2015-12-08T14:29:28Z</time>
      </trkpt>
      <trkpt lat="45.17992" lon="0.46126">
        <ele>155</ele>
        <time>2015-12-08T14:29:33Z</time>
      </trkpt>
      <trkpt lat="45.1799" lon="0.46128">
        <ele>154</ele>
        <time>2015-12-08T14:29:38Z</time>
      </trkpt>
      <trkpt lat="45.17984" lon="0.46129">
        <ele>154</ele>
        <time>2015-12-08T14:29:42Z</time>
      </trkpt>
      <trkpt lat="45.17976" lon="0.4613">
        <ele>154</ele>
        <time>2015-12-08T14:29:47Z</time>
      </trkpt>
      <trkpt lat="45.1797" lon="0.46134">
        <ele>152</ele>
        <time>2015-12-08T14:29:51Z</time>
      </trkpt>
      <trkpt lat="45.17967" lon="0.46132">
        <ele>153</ele>
        <time>2015-12-08T14:29:55Z</time>
      </trkpt>
      <trkpt lat="45.17959" lon="0.46133">
        <ele>153</ele>
        <time>2015-12-08T14:30:00Z</time>
      </trkpt>
      <trkpt lat="45.17954" lon="0.46135">
        <ele>158</ele>
        <time>2015-12-08T14:30:04Z</time>
      </trkpt>
      <trkpt lat="45.17946" lon="0.46136">
        <ele>157</ele>
        <time>2015-12-08T14:30:09Z</time>
      </trkpt>
      <trkpt lat="45.17941" lon="0.46135">
        <ele>156</ele>
        <time>2015-12-08T14:30:13Z</time>
      </trkpt>
      <trkpt lat="45.17935" lon="0.46134">
        <ele>158</ele>
        <time>2015-12-08T14:30:17Z</time>
      </trkpt>
      <trkpt lat="45.17927" lon="0.46135">
        <ele>156</ele>
        <time>2015-12-08T14:30:22Z</time>
      </trkpt>
      <trkpt lat="45.17922" lon="0.46134">
        <ele>158</ele>
        <time>2015-12-08T14:30:26Z</time>
      </trkpt>
      <trkpt lat="45.17915" lon="0.4613">
        <ele>155</ele>
        <time>2015-12-08T14:30:31Z</time>
      </trkpt>
      <trkpt lat="45.17908" lon="0.46133">
        <ele>156</ele>
        <time>2015-12-08T14:30:36Z</time>
      </trkpt>
      <trkpt lat="45.17903" lon="0.46134">
        <ele>157</ele>
        <time>2015-12-08T14:30:40Z</time>
      </trkpt>
      <trkpt lat="45.17901" lon="0.46134">
        <ele>156</ele>
        <time>2015-12-08T14:31:46Z</time>
      </trkpt>
      <trkpt lat="45.17898" lon="0.46119">
        <ele>158</ele>
        <time>2015-12-08T14:31:51Z</time>
      </trkpt>
      <trkpt lat="45.17896" lon="0.46115">
        <ele>160</ele>
        <time>2015-12-08T14:32:07Z</time>
      </trkpt>
      <trkpt lat="45.17894" lon="0.46111">
        <ele>162</ele>
        <time>2015-12-08T14:32:21Z</time>
      </trkpt>
      <trkpt lat="45.17891" lon="0.46102">
        <ele>160</ele>
        <time>2015-12-08T14:32:25Z</time>
      </trkpt>
      <trkpt lat="45.17886" lon="0.46096">
        <ele>161</ele>
        <time>2015-12-08T14:32:29Z</time>
      </trkpt>
      <trkpt lat="45.17884" lon="0.46091">
        <ele>162</ele>
        <time>2015-12-08T14:32:48Z</time>
      </trkpt>
      <trkpt lat="45.17882" lon="0.46088">
        <ele>160</ele>
        <time>2015-12-08T14:35:24Z</time>
      </trkpt>
      <trkpt lat="45.17877" lon="0.46088">
        <ele>158</ele>
        <time>2015-12-08T14:35:29Z</time>
      </trkpt>
      <trkpt lat="45.17873" lon="0.4609">
        <ele>159</ele>
        <time>2015-12-08T14:35:34Z</time>
      </trkpt>
      <trkpt lat="45.17869" lon="0.46092">
        <ele>161</ele>
        <time>2015-12-08T14:35:40Z</time>
      </trkpt>
      <trkpt lat="45.17865" lon="0.46093">
        <ele>163</ele>
        <time>2015-12-08T14:35:45Z</time>
      </trkpt>
      <trkpt lat="45.1786" lon="0.46095">
        <ele>163</ele>
        <time>2015-12-08T14:35:50Z</time>
      </trkpt>
      <trkpt lat="45.17857" lon="0.46097">
        <ele>166</ele>
        <time>2015-12-08T14:35:54Z</time>
      </trkpt>
      <trkpt lat="45.17851" lon="0.46101">
        <ele>163</ele>
        <time>2015-12-08T14:35:59Z</time>
      </trkpt>
      <trkpt lat="45.17848" lon="0.46104">
        <ele>163</ele>
        <time>2015-12-08T14:36:04Z</time>
      </trkpt>
      <trkpt lat="45.17843" lon="0.46107">
        <ele>163</ele>
        <time>2015-12-08T14:36:08Z</time>
      </trkpt>
      <trkpt lat="45.17841" lon="0.4611">
        <ele>165</ele>
        <time>2015-12-08T14:36:15Z</time>
      </trkpt>
      <trkpt lat="45.17835" lon="0.46114">
        <ele>164</ele>
        <time>2015-12-08T14:36:19Z</time>
      </trkpt>
      <trkpt lat="45.17827" lon="0.46116">
        <ele>160</ele>
        <time>2015-12-08T14:36:24Z</time>
      </trkpt>
      <trkpt lat="45.17824" lon="0.46112">
        <ele>157</ele>
        <time>2015-12-08T14:36:33Z</time>
      </trkpt>
      <trkpt lat="45.17818" lon="0.46109">
        <ele>155</ele>
        <time>2015-12-08T14:36:38Z</time>
      </trkpt>
      <trkpt lat="45.17814" lon="0.46104">
        <ele>154</ele>
        <time>2015-12-08T14:36:42Z</time>
      </trkpt>
      <trkpt lat="45.17809" lon="0.461">
        <ele>154</ele>
        <time>2015-12-08T14:36:46Z</time>
      </trkpt>
      <trkpt lat="45.17806" lon="0.46093">
        <ele>154</ele>
        <time>2015-12-08T14:36:51Z</time>
      </trkpt>
      <trkpt lat="45.17803" lon="0.46088">
        <ele>156</ele>
        <time>2015-12-08T14:36:56Z</time>
      </trkpt>
      <trkpt lat="45.178" lon="0.46084">
        <ele>155</ele>
        <time>2015-12-08T14:37:03Z</time>
      </trkpt>
      <trkpt lat="45.17798" lon="0.46073">
        <ele>153</ele>
        <time>2015-12-08T14:37:08Z</time>
      </trkpt>
      <trkpt lat="45.17793" lon="0.46067">
        <ele>153</ele>
        <time>2015-12-08T14:37:13Z</time>
      </trkpt>
      <trkpt lat="45.17792" lon="0.46059">
        <ele>155</ele>
        <time>2015-12-08T14:37:17Z</time>
      </trkpt>
      <trkpt lat="45.1779" lon="0.46053">
        <ele>155</ele>
        <time>2015-12-08T14:37:21Z</time>
      </trkpt>
      <trkpt lat="45.17785" lon="0.46046">
        <ele>154</ele>
        <time>2015-12-08T14:37:26Z</time>
      </trkpt>
      <trkpt lat="45.17782" lon="0.4604">
        <ele>154</ele>
        <time>2015-12-08T14:37:30Z</time>
      </trkpt>
      <trkpt lat="45.1778" lon="0.46033">
        <ele>155</ele>
        <time>2015-12-08T14:37:35Z</time>
      </trkpt>
      <trkpt lat="45.17774" lon="0.46026">
        <ele>155</ele>
        <time>2015-12-08T14:37:40Z</time>
      </trkpt>
      <trkpt lat="45.17771" lon="0.46021">
        <ele>153</ele>
        <time>2015-12-08T14:37:44Z</time>
      </trkpt>
      <trkpt lat="45.17768" lon="0.46014">
        <ele>151</ele>
        <time>2015-12-08T14:37:48Z</time>
      </trkpt>
      <trkpt lat="45.17766" lon="0.46009">
        <ele>151</ele>
        <time>2015-12-08T14:37:52Z</time>
      </trkpt>
      <trkpt lat="45.17761" lon="0.46001">
        <ele>148</ele>
        <time>2015-12-08T14:37:57Z</time>
      </trkpt>
      <trkpt lat="45.17757" lon="0.45997">
        <ele>146</ele>
        <time>2015-12-08T14:38:01Z</time>
      </trkpt>
      <trkpt lat="45.17751" lon="0.45992">
        <ele>145</ele>
        <time>2015-12-08T14:38:05Z</time>
      </trkpt>
      <trkpt lat="45.17747" lon="0.45988">
        <ele>146</ele>
        <time>2015-12-08T14:38:10Z</time>
      </trkpt>
      <trkpt lat="45.17742" lon="0.45984">
        <ele>147</ele>
        <time>2015-12-08T14:38:14Z</time>
      </trkpt>
      <trkpt lat="45.17737" lon="0.45983">
        <ele>149</ele>
        <time>2015-12-08T14:38:18Z</time>
      </trkpt>
      <trkpt lat="45.17733" lon="0.45977">
        <ele>152</ele>
        <time>2015-12-08T14:38:23Z</time>
      </trkpt>
      <trkpt lat="45.17726" lon="0.45976">
        <ele>149</ele>
        <time>2015-12-08T14:38:27Z</time>
      </trkpt>
      <trkpt lat="45.1772" lon="0.45976">
        <ele>148</ele>
        <time>2015-12-08T14:38:32Z</time>
      </trkpt>
      <trkpt lat="45.17715" lon="0.45975">
        <ele>150</ele>
        <time>2015-12-08T14:38:37Z</time>
      </trkpt>
      <trkpt lat="45.17711" lon="0.45975">
        <ele>152</ele>
        <time>2015-12-08T14:38:44Z</time>
      </trkpt>
      <trkpt lat="45.17707" lon="0.45976">
        <ele>152</ele>
        <time>2015-12-08T14:38:49Z</time>
      </trkpt>
      <trkpt lat="45.17702" lon="0.45975">
        <ele>154</ele>
        <time>2015-12-08T14:38:54Z</time>
      </trkpt>
      <trkpt lat="45.17698" lon="0.45975">
        <ele>152</ele>
        <time>2015-12-08T14:38:58Z</time>
      </trkpt>
      <trkpt lat="45.17695" lon="0.45974">
        <ele>152</ele>
        <time>2015-12-08T14:39:03Z</time>
      </trkpt>
      <trkpt lat="45.1769" lon="0.45974">
        <ele>154</ele>
        <time>2015-12-08T14:39:07Z</time>
      </trkpt>
      <trkpt lat="45.17684" lon="0.45973">
        <ele>153</ele>
        <time>2015-12-08T14:39:12Z</time>
      </trkpt>
      <trkpt lat="45.17679" lon="0.45974">
        <ele>151</ele>
        <time>2015-12-08T14:39:17Z</time>
      </trkpt>
      <trkpt lat="45.17677" lon="0.45973">
        <ele>149</ele>
        <time>2015-12-08T14:39:21Z</time>
      </trkpt>
      <trkpt lat="45.17672" lon="0.45972">
        <ele>148</ele>
        <time>2015-12-08T14:39:25Z</time>
      </trkpt>
      <trkpt lat="45.17667" lon="0.4597">
        <ele>150</ele>
        <time>2015-12-08T14:39:30Z</time>
      </trkpt>
      <trkpt lat="45.17662" lon="0.4597">
        <ele>149</ele>
        <time>2015-12-08T14:39:34Z</time>
      </trkpt>
      <trkpt lat="45.17657" lon="0.45971">
        <ele>151</ele>
        <time>2015-12-08T14:39:39Z</time>
      </trkpt>
      <trkpt lat="45.17653" lon="0.45973">
        <ele>151</ele>
        <time>2015-12-08T14:39:45Z</time>
      </trkpt>
      <trkpt lat="45.17644" lon="0.45974">
        <ele>154</ele>
        <time>2015-12-08T14:39:50Z</time>
      </trkpt>
      <trkpt lat="45.1764" lon="0.45975">
        <ele>151</ele>
        <time>2015-12-08T14:39:54Z</time>
      </trkpt>
      <trkpt lat="45.17635" lon="0.45978">
        <ele>151</ele>
        <time>2015-12-08T14:39:59Z</time>
      </trkpt>
      <trkpt lat="45.17631" lon="0.45979">
        <ele>151</ele>
        <time>2015-12-08T14:40:04Z</time>
      </trkpt>
      <trkpt lat="45.17626" lon="0.4598">
        <ele>151</ele>
        <time>2015-12-08T14:40:08Z</time>
      </trkpt>
      <trkpt lat="45.17622" lon="0.4598">
        <ele>154</ele>
        <time>2015-12-08T14:40:14Z</time>
      </trkpt>
      <trkpt lat="45.17618" lon="0.4598">
        <ele>154</ele>
        <time>2015-12-08T14:40:19Z</time>
      </trkpt>
      <trkpt lat="45.17615" lon="0.45984">
        <ele>156</ele>
        <time>2015-12-08T14:40:25Z</time>
      </trkpt>
      <trkpt lat="45.17608" lon="0.45989">
        <ele>158</ele>
        <time>2015-12-08T14:40:29Z</time>
      </trkpt>
      <trkpt lat="45.17603" lon="0.45994">
        <ele>162</ele>
        <time>2015-12-08T14:40:34Z</time>
      </trkpt>
      <trkpt lat="45.17602" lon="0.46002">
        <ele>163</ele>
        <time>2015-12-08T14:40:38Z</time>
      </trkpt>
      <trkpt lat="45.176" lon="0.46009">
        <ele>160</ele>
        <time>2015-12-08T14:40:42Z</time>
      </trkpt>
      <trkpt lat="45.17596" lon="0.46014">
        <ele>161</ele>
        <time>2015-12-08T14:40:46Z</time>
      </trkpt>
      <trkpt lat="45.17592" lon="0.4602">
        <ele>160</ele>
        <time>2015-12-08T14:40:50Z</time>
      </trkpt>
      <trkpt lat="45.17589" lon="0.46026">
        <ele>162</ele>
        <time>2015-12-08T14:40:54Z</time>
      </trkpt>
      <trkpt lat="45.17588" lon="0.46035">
        <ele>162</ele>
        <time>2015-12-08T14:40:58Z</time>
      </trkpt>
      <trkpt lat="45.17587" lon="0.46041">
        <ele>163</ele>
        <time>2015-12-08T14:41:02Z</time>
      </trkpt>
      <trkpt lat="45.17586" lon="0.46051">
        <ele>162</ele>
        <time>2015-12-08T14:41:07Z</time>
      </trkpt>
      <trkpt lat="45.17583" lon="0.46058">
        <ele>160</ele>
        <time>2015-12-08T14:41:12Z</time>
      </trkpt>
      <trkpt lat="45.17585" lon="0.46069">
        <ele>158</ele>
        <time>2015-12-08T14:41:16Z</time>
      </trkpt>
      <trkpt lat="45.17583" lon="0.46077">
        <ele>161</ele>
        <time>2015-12-08T14:41:21Z</time>
      </trkpt>
      <trkpt lat="45.1758" lon="0.46082">
        <ele>160</ele>
        <time>2015-12-08T14:41:25Z</time>
      </trkpt>
      <trkpt lat="45.17578" lon="0.46089">
        <ele>160</ele>
        <time>2015-12-08T14:41:29Z</time>
      </trkpt>
      <trkpt lat="45.17577" lon="0.46096">
        <ele>157</ele>
        <time>2015-12-08T14:41:34Z</time>
      </trkpt>
      <trkpt lat="45.17576" lon="0.46106">
        <ele>155</ele>
        <time>2015-12-08T14:41:38Z</time>
      </trkpt>
      <trkpt lat="45.17577" lon="0.46119">
        <ele>158</ele>
        <time>2015-12-08T14:41:42Z</time>
      </trkpt>
      <trkpt lat="45.17576" lon="0.46126">
        <ele>157</ele>
        <time>2015-12-08T14:41:46Z</time>
      </trkpt>
      <trkpt lat="45.17576" lon="0.46131">
        <ele>152</ele>
        <time>2015-12-08T14:41:51Z</time>
      </trkpt>
      <trkpt lat="45.17574" lon="0.46136">
        <ele>155</ele>
        <time>2015-12-08T14:41:58Z</time>
      </trkpt>
      <trkpt lat="45.17572" lon="0.46142">
        <ele>157</ele>
        <time>2015-12-08T14:42:02Z</time>
      </trkpt>
      <trkpt lat="45.17571" lon="0.46148">
        <ele>156</ele>
        <time>2015-12-08T14:42:07Z</time>
      </trkpt>
      <trkpt lat="45.17568" lon="0.46152">
        <ele>159</ele>
        <time>2015-12-08T14:42:13Z</time>
      </trkpt>
      <trkpt lat="45.17565" lon="0.46153">
        <ele>162</ele>
        <time>2015-12-08T14:42:18Z</time>
      </trkpt>
      <trkpt lat="45.17563" lon="0.4616">
        <ele>164</ele>
        <time>2015-12-08T14:42:23Z</time>
      </trkpt>
      <trkpt lat="45.17557" lon="0.46164">
        <ele>166</ele>
        <time>2015-12-08T14:42:28Z</time>
      </trkpt>
      <trkpt lat="45.17555" lon="0.46169">
        <ele>165</ele>
        <time>2015-12-08T14:42:32Z</time>
      </trkpt>
      <trkpt lat="45.1755" lon="0.46175">
        <ele>163</ele>
        <time>2015-12-08T14:42:37Z</time>
      </trkpt>
      <trkpt lat="45.17545" lon="0.46177">
        <ele>163</ele>
        <time>2015-12-08T14:42:41Z</time>
      </trkpt>
      <trkpt lat="45.1754" lon="0.46177">
        <ele>164</ele>
        <time>2015-12-08T14:42:45Z</time>
      </trkpt>
      <trkpt lat="45.17537" lon="0.4618">
        <ele>167</ele>
        <time>2015-12-08T14:42:49Z</time>
      </trkpt>
      <trkpt lat="45.1753" lon="0.46182">
        <ele>167</ele>
        <time>2015-12-08T14:42:54Z</time>
      </trkpt>
      <trkpt lat="45.17526" lon="0.46185">
        <ele>169</ele>
        <time>2015-12-08T14:42:58Z</time>
      </trkpt>
      <trkpt lat="45.17523" lon="0.46189">
        <ele>169</ele>
        <time>2015-12-08T14:43:02Z</time>
      </trkpt>
      <trkpt lat="45.1752" lon="0.46197">
        <ele>168</ele>
        <time>2015-12-08T14:43:06Z</time>
      </trkpt>
      <trkpt lat="45.17518" lon="0.46206">
        <ele>168</ele>
        <time>2015-12-08T14:43:10Z</time>
      </trkpt>
      <trkpt lat="45.17519" lon="0.46218">
        <ele>168</ele>
        <time>2015-12-08T14:43:14Z</time>
      </trkpt>
      <trkpt lat="45.17518" lon="0.46233">
        <ele>166</ele>
        <time>2015-12-08T14:43:19Z</time>
      </trkpt>
      <trkpt lat="45.17518" lon="0.46241">
        <ele>167</ele>
        <time>2015-12-08T14:43:23Z</time>
      </trkpt>
      <trkpt lat="45.17517" lon="0.46249">
        <ele>169</ele>
        <time>2015-12-08T14:43:27Z</time>
      </trkpt>
      <trkpt lat="45.17519" lon="0.46257">
        <ele>168</ele>
        <time>2015-12-08T14:43:32Z</time>
      </trkpt>
      <trkpt lat="45.17519" lon="0.46265">
        <ele>169</ele>
        <time>2015-12-08T14:43:36Z</time>
      </trkpt>
      <trkpt lat="45.17519" lon="0.4627">
        <ele>168</ele>
        <time>2015-12-08T14:43:40Z</time>
      </trkpt>
      <trkpt lat="45.17518" lon="0.46277">
        <ele>168</ele>
        <time>2015-12-08T14:43:44Z</time>
      </trkpt>
      <trkpt lat="45.17517" lon="0.46283">
        <ele>167</ele>
        <time>2015-12-08T14:43:49Z</time>
      </trkpt>
      <trkpt lat="45.17518" lon="0.46291">
        <ele>167</ele>
        <time>2015-12-08T14:43:53Z</time>
      </trkpt>
      <trkpt lat="45.17518" lon="0.463">
        <ele>164</ele>
        <time>2015-12-08T14:43:58Z</time>
      </trkpt>
      <trkpt lat="45.17519" lon="0.4631">
        <ele>163</ele>
        <time>2015-12-08T14:44:03Z</time>
      </trkpt>
      <trkpt lat="45.17519" lon="0.46317">
        <ele>162</ele>
        <time>2015-12-08T14:44:07Z</time>
      </trkpt>
      <trkpt lat="45.17518" lon="0.46324">
        <ele>163</ele>
        <time>2015-12-08T14:44:12Z</time>
      </trkpt>
      <trkpt lat="45.17518" lon="0.46334">
        <ele>163</ele>
        <time>2015-12-08T14:44:17Z</time>
      </trkpt>
      <trkpt lat="45.17518" lon="0.46341">
        <ele>163</ele>
        <time>2015-12-08T14:44:21Z</time>
      </trkpt>
      <trkpt lat="45.17518" lon="0.46353">
        <ele>162</ele>
        <time>2015-12-08T14:44:26Z</time>
      </trkpt>
      <trkpt lat="45.17517" lon="0.46358">
        <ele>161</ele>
        <time>2015-12-08T14:44:31Z</time>
      </trkpt>
      <trkpt lat="45.17516" lon="0.46364">
        <ele>161</ele>
        <time>2015-12-08T14:44:35Z</time>
      </trkpt>
      <trkpt lat="45.17514" lon="0.4637">
        <ele>161</ele>
        <time>2015-12-08T14:44:39Z</time>
      </trkpt>
      <trkpt lat="45.17516" lon="0.46376">
        <ele>162</ele>
        <time>2015-12-08T14:44:44Z</time>
      </trkpt>
      <trkpt lat="45.17516" lon="0.46384">
        <ele>161</ele>
        <time>2015-12-08T14:44:48Z</time>
      </trkpt>
      <trkpt lat="45.17514" lon="0.46389">
        <ele>161</ele>
        <time>2015-12-08T14:44:52Z</time>
      </trkpt>
      <trkpt lat="45.17513" lon="0.46395">
        <ele>160</ele>
        <time>2015-12-08T14:44:56Z</time>
      </trkpt>
      <trkpt lat="45.17512" lon="0.464">
        <ele>161</ele>
        <time>2015-12-08T14:45:06Z</time>
      </trkpt>
      <trkpt lat="45.17513" lon="0.46406">
        <ele>161</ele>
        <time>2015-12-08T14:45:11Z</time>
      </trkpt>
      <trkpt lat="45.17512" lon="0.46411">
        <ele>161</ele>
        <time>2015-12-08T14:45:16Z</time>
      </trkpt>
      <trkpt lat="45.17512" lon="0.46418">
        <ele>162</ele>
        <time>2015-12-08T14:45:21Z</time>
      </trkpt>
      <trkpt lat="45.17511" lon="0.46424">
        <ele>161</ele>
        <time>2015-12-08T14:45:25Z</time>
      </trkpt>
      <trkpt lat="45.1751" lon="0.46431">
        <ele>164</ele>
        <time>2015-12-08T14:45:29Z</time>
      </trkpt>
      <trkpt lat="45.17505" lon="0.46437">
        <ele>164</ele>
        <time>2015-12-08T14:45:34Z</time>
      </trkpt>
      <trkpt lat="45.17504" lon="0.46447">
        <ele>160</ele>
        <time>2015-12-08T14:45:39Z</time>
      </trkpt>
      <trkpt lat="45.17503" lon="0.46455">
        <ele>158</ele>
        <time>2015-12-08T14:45:44Z</time>
      </trkpt>
      <trkpt lat="45.17502" lon="0.4646">
        <ele>159</ele>
        <time>2015-12-08T14:45:48Z</time>
      </trkpt>
      <trkpt lat="45.175" lon="0.46465">
        <ele>158</ele>
        <time>2015-12-08T14:45:53Z</time>
      </trkpt>
      <trkpt lat="45.17499" lon="0.46471">
        <ele>160</ele>
        <time>2015-12-08T14:45:58Z</time>
      </trkpt>
      <trkpt lat="45.17499" lon="0.46481">
        <ele>158</ele>
        <time>2015-12-08T14:46:03Z</time>
      </trkpt>
      <trkpt lat="45.17498" lon="0.46486">
        <ele>156</ele>
        <time>2015-12-08T14:46:07Z</time>
      </trkpt>
      <trkpt lat="45.17495" lon="0.4649">
        <ele>157</ele>
        <time>2015-12-08T14:46:13Z</time>
      </trkpt>
      <trkpt lat="45.1749" lon="0.46494">
        <ele>155</ele>
        <time>2015-12-08T14:46:17Z</time>
      </trkpt>
      <trkpt lat="45.17491" lon="0.46508">
        <ele>153</ele>
        <time>2015-12-08T14:46:22Z</time>
      </trkpt>
      <trkpt lat="45.1749" lon="0.46515">
        <ele>150</ele>
        <time>2015-12-08T14:46:26Z</time>
      </trkpt>
      <trkpt lat="45.17489" lon="0.46523">
        <ele>150</ele>
        <time>2015-12-08T14:46:31Z</time>
      </trkpt>
      <trkpt lat="45.17488" lon="0.4653">
        <ele>151</ele>
        <time>2015-12-08T14:46:35Z</time>
      </trkpt>
      <trkpt lat="45.17482" lon="0.46534">
        <ele>151</ele>
        <time>2015-12-08T14:46:40Z</time>
      </trkpt>
      <trkpt lat="45.17479" lon="0.46538">
        <ele>152</ele>
        <time>2015-12-08T14:46:44Z</time>
      </trkpt>
      <trkpt lat="45.17475" lon="0.46546">
        <ele>152</ele>
        <time>2015-12-08T14:46:48Z</time>
      </trkpt>
      <trkpt lat="45.17471" lon="0.4655">
        <ele>152</ele>
        <time>2015-12-08T14:46:53Z</time>
      </trkpt>
      <trkpt lat="45.17467" lon="0.46553">
        <ele>152</ele>
        <time>2015-12-08T14:46:57Z</time>
      </trkpt>
      <trkpt lat="45.17465" lon="0.46558">
        <ele>152</ele>
        <time>2015-12-08T14:47:01Z</time>
      </trkpt>
      <trkpt lat="45.17462" lon="0.46569">
        <ele>153</ele>
        <time>2015-12-08T14:47:06Z</time>
      </trkpt>
      <trkpt lat="45.17457" lon="0.46575">
        <ele>152</ele>
        <time>2015-12-08T14:47:11Z</time>
      </trkpt>
      <trkpt lat="45.17454" lon="0.46579">
        <ele>152</ele>
        <time>2015-12-08T14:47:15Z</time>
      </trkpt>
      <trkpt lat="45.17449" lon="0.46577">
        <ele>156</ele>
        <time>2015-12-08T14:47:19Z</time>
      </trkpt>
      <trkpt lat="45.17445" lon="0.46577">
        <ele>161</ele>
        <time>2015-12-08T14:47:23Z</time>
      </trkpt>
      <trkpt lat="45.17441" lon="0.46579">
        <ele>158</ele>
        <time>2015-12-08T14:47:28Z</time>
      </trkpt>
      <trkpt lat="45.17435" lon="0.4658">
        <ele>160</ele>
        <time>2015-12-08T14:47:33Z</time>
      </trkpt>
      <trkpt lat="45.17432" lon="0.46588">
        <ele>161</ele>
        <time>2015-12-08T14:47:37Z</time>
      </trkpt>
      <trkpt lat="45.17427" lon="0.46589">
        <ele>163</ele>
        <time>2015-12-08T14:47:41Z</time>
      </trkpt>
      <trkpt lat="45.1742" lon="0.46593">
        <ele>156</ele>
        <time>2015-12-08T14:47:45Z</time>
      </trkpt>
      <trkpt lat="45.17413" lon="0.46597">
        <ele>155</ele>
        <time>2015-12-08T14:47:50Z</time>
      </trkpt>
      <trkpt lat="45.17409" lon="0.466">
        <ele>155</ele>
        <time>2015-12-08T14:47:54Z</time>
      </trkpt>
      <trkpt lat="45.17405" lon="0.46606">
        <ele>155</ele>
        <time>2015-12-08T14:47:59Z</time>
      </trkpt>
      <trkpt lat="45.174" lon="0.4661">
        <ele>155</ele>
        <time>2015-12-08T14:48:03Z</time>
      </trkpt>
      <trkpt lat="45.17396" lon="0.46617">
        <ele>157</ele>
        <time>2015-12-08T14:48:08Z</time>
      </trkpt>
      <trkpt lat="45.17394" lon="0.46626">
        <ele>158</ele>
        <time>2015-12-08T14:48:12Z</time>
      </trkpt>
      <trkpt lat="45.17393" lon="0.46637">
        <ele>157</ele>
        <time>2015-12-08T14:48:16Z</time>
      </trkpt>
      <trkpt lat="45.17391" lon="0.46643">
        <ele>158</ele>
        <time>2015-12-08T14:48:21Z</time>
      </trkpt>
      <trkpt lat="45.17388" lon="0.46651">
        <ele>156</ele>
        <time>2015-12-08T14:48:26Z</time>
      </trkpt>
      <trkpt lat="45.17386" lon="0.46658">
        <ele>155</ele>
        <time>2015-12-08T14:48:31Z</time>
      </trkpt>
      <trkpt lat="45.17385" lon="0.46667">
        <ele>153</ele>
        <time>2015-12-08T14:48:35Z</time>
      </trkpt>
      <trkpt lat="45.17383" lon="0.46677">
        <ele>149</ele>
        <time>2015-12-08T14:48:40Z</time>
      </trkpt>
      <trkpt lat="45.17379" lon="0.46681">
        <ele>149</ele>
        <time>2015-12-08T14:48:44Z</time>
      </trkpt>
      <trkpt lat="45.17377" lon="0.46686">
        <ele>147</ele>
        <time>2015-12-08T14:48:49Z</time>
      </trkpt>
      <trkpt lat="45.17372" lon="0.46692">
        <ele>147</ele>
        <time>2015-12-08T14:48:54Z</time>
      </trkpt>
      <trkpt lat="45.17368" lon="0.46697">
        <ele>145</ele>
        <time>2015-12-08T14:48:58Z</time>
      </trkpt>
      <trkpt lat="45.17364" lon="0.46697">
        <ele>144</ele>
        <time>2015-12-08T14:49:02Z</time>
      </trkpt>
      <trkpt lat="45.1736" lon="0.46696">
        <ele>142</ele>
        <time>2015-12-08T14:49:07Z</time>
      </trkpt>
      <trkpt lat="45.17355" lon="0.46693">
        <ele>142</ele>
        <time>2015-12-08T14:49:11Z</time>
      </trkpt>
      <trkpt lat="45.17356" lon="0.46689">
        <ele>143</ele>
        <time>2015-12-08T14:49:15Z</time>
      </trkpt>
      <trkpt lat="45.17352" lon="0.46688">
        <ele>138</ele>
        <time>2015-12-08T14:49:20Z</time>
      </trkpt>
      <trkpt lat="45.17346" lon="0.46688">
        <ele>139</ele>
        <time>2015-12-08T14:49:24Z</time>
      </trkpt>
      <trkpt lat="45.17336" lon="0.46685">
        <ele>141</ele>
        <time>2015-12-08T14:49:29Z</time>
      </trkpt>
      <trkpt lat="45.17334" lon="0.46679">
        <ele>144</ele>
        <time>2015-12-08T14:49:33Z</time>
      </trkpt>
      <trkpt lat="45.17327" lon="0.46675">
        <ele>144</ele>
        <time>2015-12-08T14:49:38Z</time>
      </trkpt>
      <trkpt lat="45.17322" lon="0.46675">
        <ele>145</ele>
        <time>2015-12-08T14:49:42Z</time>
      </trkpt>
      <trkpt lat="45.17315" lon="0.46672">
        <ele>143</ele>
        <time>2015-12-08T14:49:46Z</time>
      </trkpt>
      <trkpt lat="45.17309" lon="0.46679">
        <ele>146</ele>
        <time>2015-12-08T14:49:51Z</time>
      </trkpt>
      <trkpt lat="45.17307" lon="0.46674">
        <ele>146</ele>
        <time>2015-12-08T14:49:58Z</time>
      </trkpt>
      <trkpt lat="45.17302" lon="0.46665">
        <ele>142</ele>
        <time>2015-12-08T14:50:03Z</time>
      </trkpt>
      <trkpt lat="45.173" lon="0.46661">
        <ele>147</ele>
        <time>2015-12-08T14:50:12Z</time>
      </trkpt>
      <trkpt lat="45.17297" lon="0.46656">
        <ele>147</ele>
        <time>2015-12-08T14:50:16Z</time>
      </trkpt>
      <trkpt lat="45.1729" lon="0.4665">
        <ele>142</ele>
        <time>2015-12-08T14:50:21Z</time>
      </trkpt>
      <trkpt lat="45.17289" lon="0.46642">
        <ele>142</ele>
        <time>2015-12-08T14:50:26Z</time>
      </trkpt>
      <trkpt lat="45.17288" lon="0.46639">
        <ele>143</ele>
        <time>2015-12-08T14:50:30Z</time>
      </trkpt>
      <trkpt lat="45.17284" lon="0.46631">
        <ele>142</ele>
        <time>2015-12-08T14:50:35Z</time>
      </trkpt>
      <trkpt lat="45.17281" lon="0.46626">
        <ele>144</ele>
        <time>2015-12-08T14:50:41Z</time>
      </trkpt>
      <trkpt lat="45.17275" lon="0.46622">
        <ele>139</ele>
        <time>2015-12-08T14:50:46Z</time>
      </trkpt>
      <trkpt lat="45.17272" lon="0.46619">
        <ele>140</ele>
        <time>2015-12-08T14:50:50Z</time>
      </trkpt>
      <trkpt lat="45.1727" lon="0.46615">
        <ele>141</ele>
        <time>2015-12-08T14:51:00Z</time>
      </trkpt>
      <trkpt lat="45.17266" lon="0.46608">
        <ele>142</ele>
        <time>2015-12-08T14:51:05Z</time>
      </trkpt>
      <trkpt lat="45.17259" lon="0.46606">
        <ele>142</ele>
        <time>2015-12-08T14:51:09Z</time>
      </trkpt>
      <trkpt lat="45.17255" lon="0.46604">
        <ele>144</ele>
        <time>2015-12-08T14:51:14Z</time>
      </trkpt>
      <trkpt lat="45.17249" lon="0.46601">
        <ele>140</ele>
        <time>2015-12-08T14:51:18Z</time>
      </trkpt>
      <trkpt lat="45.17243" lon="0.46603">
        <ele>142</ele>
        <time>2015-12-08T14:51:23Z</time>
      </trkpt>
      <trkpt lat="45.17238" lon="0.46604">
        <ele>140</ele>
        <time>2015-12-08T14:51:28Z</time>
      </trkpt>
      <trkpt lat="45.17235" lon="0.46603">
        <ele>136</ele>
        <time>2015-12-08T14:51:32Z</time>
      </trkpt>
      <trkpt lat="45.17228" lon="0.46605">
        <ele>132</ele>
        <time>2015-12-08T14:51:37Z</time>
      </trkpt>
      <trkpt lat="45.17224" lon="0.46605">
        <ele>132</ele>
        <time>2015-12-08T14:51:43Z</time>
      </trkpt>
      <trkpt lat="45.17219" lon="0.46608">
        <ele>134</ele>
        <time>2015-12-08T14:51:47Z</time>
      </trkpt>
      <trkpt lat="45.17213" lon="0.4661">
        <ele>138</ele>
        <time>2015-12-08T14:51:51Z</time>
      </trkpt>
      <trkpt lat="45.17208" lon="0.46613">
        <ele>140</ele>
        <time>2015-12-08T14:51:56Z</time>
      </trkpt>
      <trkpt lat="45.17203" lon="0.46615">
        <ele>141</ele>
        <time>2015-12-08T14:52:01Z</time>
      </trkpt>
      <trkpt lat="45.17196" lon="0.46618">
        <ele>141</ele>
        <time>2015-12-08T14:52:05Z</time>
      </trkpt>
      <trkpt lat="45.17189" lon="0.46623">
        <ele>136</ele>
        <time>2015-12-08T14:52:10Z</time>
      </trkpt>
      <trkpt lat="45.17187" lon="0.46627">
        <ele>134</ele>
        <time>2015-12-08T14:52:14Z</time>
      </trkpt>
      <trkpt lat="45.17182" lon="0.46634">
        <ele>132</ele>
        <time>2015-12-08T14:52:19Z</time>
      </trkpt>
      <trkpt lat="45.17178" lon="0.46639">
        <ele>130</ele>
        <time>2015-12-08T14:52:23Z</time>
      </trkpt>
      <trkpt lat="45.17173" lon="0.46642">
        <ele>131</ele>
        <time>2015-12-08T14:52:28Z</time>
      </trkpt>
      <trkpt lat="45.17167" lon="0.46645">
        <ele>132</ele>
        <time>2015-12-08T14:52:33Z</time>
      </trkpt>
      <trkpt lat="45.17164" lon="0.46647">
        <ele>132</ele>
        <time>2015-12-08T14:52:38Z</time>
      </trkpt>
      <trkpt lat="45.17161" lon="0.46648">
        <ele>134</ele>
        <time>2015-12-08T14:52:42Z</time>
      </trkpt>
      <trkpt lat="45.17155" lon="0.46651">
        <ele>131</ele>
        <time>2015-12-08T14:52:46Z</time>
      </trkpt>
      <trkpt lat="45.1715" lon="0.46656">
        <ele>130</ele>
        <time>2015-12-08T14:52:50Z</time>
      </trkpt>
      <trkpt lat="45.17146" lon="0.46659">
        <ele>130</ele>
        <time>2015-12-08T14:52:55Z</time>
      </trkpt>
      <trkpt lat="45.17141" lon="0.46658">
        <ele>131</ele>
        <time>2015-12-08T14:52:59Z</time>
      </trkpt>
      <trkpt lat="45.17137" lon="0.46657">
        <ele>129</ele>
        <time>2015-12-08T14:53:03Z</time>
      </trkpt>
      <trkpt lat="45.17133" lon="0.46659">
        <ele>130</ele>
        <time>2015-12-08T14:53:08Z</time>
      </trkpt>
      <trkpt lat="45.17128" lon="0.46657">
        <ele>130</ele>
        <time>2015-12-08T14:53:13Z</time>
      </trkpt>
      <trkpt lat="45.17122" lon="0.46657">
        <ele>129</ele>
        <time>2015-12-08T14:53:17Z</time>
      </trkpt>
      <trkpt lat="45.17116" lon="0.46654">
        <ele>128</ele>
        <time>2015-12-08T14:53:22Z</time>
      </trkpt>
      <trkpt lat="45.17112" lon="0.46653">
        <ele>130</ele>
        <time>2015-12-08T14:53:26Z</time>
      </trkpt>
      <trkpt lat="45.17105" lon="0.46653">
        <ele>126</ele>
        <time>2015-12-08T14:53:30Z</time>
      </trkpt>
      <trkpt lat="45.17101" lon="0.46651">
        <ele>127</ele>
        <time>2015-12-08T14:53:34Z</time>
      </trkpt>
      <trkpt lat="45.17097" lon="0.4665">
        <ele>125</ele>
        <time>2015-12-08T14:53:38Z</time>
      </trkpt>
      <trkpt lat="45.17091" lon="0.46651">
        <ele>126</ele>
        <time>2015-12-08T14:53:43Z</time>
      </trkpt>
      <trkpt lat="45.17087" lon="0.46649">
        <ele>125</ele>
        <time>2015-12-08T14:53:47Z</time>
      </trkpt>
      <trkpt lat="45.17083" lon="0.46648">
        <ele>126</ele>
        <time>2015-12-08T14:53:51Z</time>
      </trkpt>
      <trkpt lat="45.17078" lon="0.46647">
        <ele>124</ele>
        <time>2015-12-08T14:53:56Z</time>
      </trkpt>
      <trkpt lat="45.17074" lon="0.46648">
        <ele>123</ele>
        <time>2015-12-08T14:54:01Z</time>
      </trkpt>
      <trkpt lat="45.1707" lon="0.46647">
        <ele>121</ele>
        <time>2015-12-08T14:54:07Z</time>
      </trkpt>
      <trkpt lat="45.17063" lon="0.46647">
        <ele>124</ele>
        <time>2015-12-08T14:54:12Z</time>
      </trkpt>
      <trkpt lat="45.17056" lon="0.46645">
        <ele>120</ele>
        <time>2015-12-08T14:54:16Z</time>
      </trkpt>
      <trkpt lat="45.17051" lon="0.46646">
        <ele>122</ele>
        <time>2015-12-08T14:54:21Z</time>
      </trkpt>
      <trkpt lat="45.17046" lon="0.46646">
        <ele>123</ele>
        <time>2015-12-08T14:54:25Z</time>
      </trkpt>
      <trkpt lat="45.17042" lon="0.46645">
        <ele>120</ele>
        <time>2015-12-08T14:54:31Z</time>
      </trkpt>
      <trkpt lat="45.17037" lon="0.46646">
        <ele>122</ele>
        <time>2015-12-08T14:54:35Z</time>
      </trkpt>
      <trkpt lat="45.17031" lon="0.46647">
        <ele>120</ele>
        <time>2015-12-08T14:54:40Z</time>
      </trkpt>
      <trkpt lat="45.17026" lon="0.46649">
        <ele>117</ele>
        <time>2015-12-08T14:54:44Z</time>
      </trkpt>
      <trkpt lat="45.1702" lon="0.46649">
        <ele>117</ele>
        <time>2015-12-08T14:54:49Z</time>
      </trkpt>
      <trkpt lat="45.17015" lon="0.46651">
        <ele>116</ele>
        <time>2015-12-08T14:54:53Z</time>
      </trkpt>
      <trkpt lat="45.17011" lon="0.46651">
        <ele>115</ele>
        <time>2015-12-08T14:54:57Z</time>
      </trkpt>
      <trkpt lat="45.17005" lon="0.46651">
        <ele>114</ele>
        <time>2015-12-08T14:55:02Z</time>
      </trkpt>
      <trkpt lat="45.17" lon="0.46656">
        <ele>113</ele>
        <time>2015-12-08T14:55:07Z</time>
      </trkpt>
      <trkpt lat="45.16995" lon="0.46657">
        <ele>112</ele>
        <time>2015-12-08T14:55:11Z</time>
      </trkpt>
      <trkpt lat="45.1699" lon="0.46659">
        <ele>112</ele>
        <time>2015-12-08T14:55:16Z</time>
      </trkpt>
      <trkpt lat="45.16985" lon="0.4666">
        <ele>111</ele>
        <time>2015-12-08T14:55:20Z</time>
      </trkpt>
      <trkpt lat="45.1698" lon="0.46664">
        <ele>109</ele>
        <time>2015-12-08T14:55:25Z</time>
      </trkpt>
      <trkpt lat="45.16975" lon="0.46664">
        <ele>109</ele>
        <time>2015-12-08T14:55:30Z</time>
      </trkpt>
      <trkpt lat="45.16971" lon="0.46666">
        <ele>108</ele>
        <time>2015-12-08T14:55:34Z</time>
      </trkpt>
      <trkpt lat="45.16966" lon="0.46669">
        <ele>107</ele>
        <time>2015-12-08T14:55:39Z</time>
      </trkpt>
      <trkpt lat="45.16962" lon="0.46669">
        <ele>107</ele>
        <time>2015-12-08T14:55:43Z</time>
      </trkpt>
      <trkpt lat="45.16958" lon="0.46667">
        <ele>107</ele>
        <time>2015-12-08T14:55:48Z</time>
      </trkpt>
      <trkpt lat="45.16953" lon="0.46668">
        <ele>104</ele>
        <time>2015-12-08T14:55:54Z</time>
      </trkpt>
      <trkpt lat="45.16948" lon="0.46665">
        <ele>104</ele>
        <time>2015-12-08T14:55:59Z</time>
      </trkpt>
      <trkpt lat="45.16944" lon="0.46662">
        <ele>105</ele>
        <time>2015-12-08T14:56:03Z</time>
      </trkpt>
      <trkpt lat="45.1694" lon="0.4666">
        <ele>106</ele>
        <time>2015-12-08T14:56:09Z</time>
      </trkpt>
      <trkpt lat="45.16934" lon="0.46658">
        <ele>108</ele>
        <time>2015-12-08T14:56:14Z</time>
      </trkpt>
      <trkpt lat="45.16929" lon="0.46655">
        <ele>107</ele>
        <time>2015-12-08T14:56:19Z</time>
      </trkpt>
      <trkpt lat="45.16926" lon="0.46652">
        <ele>110</ele>
        <time>2015-12-08T14:56:24Z</time>
      </trkpt>
      <trkpt lat="45.16923" lon="0.46648">
        <ele>111</ele>
        <time>2015-12-08T14:56:28Z</time>
      </trkpt>
      <trkpt lat="45.1692" lon="0.46645">
        <ele>118</ele>
        <time>2015-12-08T14:56:37Z</time>
      </trkpt>
      <trkpt lat="45.16916" lon="0.46641">
        <ele>120</ele>
        <time>2015-12-08T14:56:45Z</time>
      </trkpt>
      <trkpt lat="45.16913" lon="0.46638">
        <ele>121</ele>
        <time>2015-12-08T14:56:50Z</time>
      </trkpt>
      <trkpt lat="45.16909" lon="0.46633">
        <ele>122</ele>
        <time>2015-12-08T14:56:54Z</time>
      </trkpt>
      <trkpt lat="45.16907" lon="0.46629">
        <ele>125</ele>
        <time>2015-12-08T14:56:58Z</time>
      </trkpt>
      <trkpt lat="45.16902" lon="0.46626">
        <ele>126</ele>
        <time>2015-12-08T14:57:02Z</time>
      </trkpt>
      <trkpt lat="45.16896" lon="0.4662">
        <ele>126</ele>
        <time>2015-12-08T14:57:07Z</time>
      </trkpt>
      <trkpt lat="45.1689" lon="0.46615">
        <ele>123</ele>
        <time>2015-12-08T14:57:11Z</time>
      </trkpt>
      <trkpt lat="45.16884" lon="0.46614">
        <ele>127</ele>
        <time>2015-12-08T14:57:15Z</time>
      </trkpt>
      <trkpt lat="45.16879" lon="0.46612">
        <ele>128</ele>
        <time>2015-12-08T14:57:19Z</time>
      </trkpt>
      <trkpt lat="45.16873" lon="0.46611">
        <ele>127</ele>
        <time>2015-12-08T14:57:23Z</time>
      </trkpt>
      <trkpt lat="45.16866" lon="0.4661">
        <ele>127</ele>
        <time>2015-12-08T14:57:28Z</time>
      </trkpt>
      <trkpt lat="45.16862" lon="0.46614">
        <ele>125</ele>
        <time>2015-12-08T14:57:32Z</time>
      </trkpt>
      <trkpt lat="45.16858" lon="0.46617">
        <ele>128</ele>
        <time>2015-12-08T14:57:41Z</time>
      </trkpt>
      <trkpt lat="45.16854" lon="0.46617">
        <ele>128</ele>
        <time>2015-12-08T14:57:45Z</time>
      </trkpt>
      <trkpt lat="45.16849" lon="0.46621">
        <ele>130</ele>
        <time>2015-12-08T14:57:50Z</time>
      </trkpt>
      <trkpt lat="45.16846" lon="0.4662">
        <ele>131</ele>
        <time>2015-12-08T14:57:54Z</time>
      </trkpt>
      <trkpt lat="45.16842" lon="0.46622">
        <ele>128</ele>
        <time>2015-12-08T14:57:59Z</time>
      </trkpt>
      <trkpt lat="45.16838" lon="0.46623">
        <ele>126</ele>
        <time>2015-12-08T14:58:06Z</time>
      </trkpt>
      <trkpt lat="45.16825" lon="0.46618">
        <ele>122</ele>
        <time>2015-12-08T14:58:11Z</time>
      </trkpt>
      <trkpt lat="45.1682" lon="0.46619">
        <ele>122</ele>
        <time>2015-12-08T14:58:15Z</time>
      </trkpt>
      <trkpt lat="45.16817" lon="0.4662">
        <ele>123</ele>
        <time>2015-12-08T14:58:19Z</time>
      </trkpt>
      <trkpt lat="45.16812" lon="0.46628">
        <ele>119</ele>
        <time>2015-12-08T14:58:24Z</time>
      </trkpt>
      <trkpt lat="45.16807" lon="0.46627">
        <ele>125</ele>
        <time>2015-12-08T14:58:29Z</time>
      </trkpt>
      <trkpt lat="45.16802" lon="0.46625">
        <ele>123</ele>
        <time>2015-12-08T14:58:33Z</time>
      </trkpt>
      <trkpt lat="45.16794" lon="0.46624">
        <ele>114</ele>
        <time>2015-12-08T14:58:37Z</time>
      </trkpt>
      <trkpt lat="45.16787" lon="0.4662">
        <ele>113</ele>
        <time>2015-12-08T14:58:42Z</time>
      </trkpt>
      <trkpt lat="45.16782" lon="0.46622">
        <ele>113</ele>
        <time>2015-12-08T14:58:47Z</time>
      </trkpt>
      <trkpt lat="45.16777" lon="0.46624">
        <ele>109</ele>
        <time>2015-12-08T14:58:51Z</time>
      </trkpt>
      <trkpt lat="45.1677" lon="0.46622">
        <ele>109</ele>
        <time>2015-12-08T14:58:55Z</time>
      </trkpt>
      <trkpt lat="45.16765" lon="0.46622">
        <ele>110</ele>
        <time>2015-12-08T14:58:59Z</time>
      </trkpt>
      <trkpt lat="45.1676" lon="0.46622">
        <ele>108</ele>
        <time>2015-12-08T14:59:03Z</time>
      </trkpt>
      <trkpt lat="45.16754" lon="0.46619">
        <ele>109</ele>
        <time>2015-12-08T14:59:07Z</time>
      </trkpt>
      <trkpt lat="45.1675" lon="0.46619">
        <ele>111</ele>
        <time>2015-12-08T14:59:12Z</time>
      </trkpt>
      <trkpt lat="45.16746" lon="0.46619">
        <ele>111</ele>
        <time>2015-12-08T14:59:24Z</time>
      </trkpt>
      <trkpt lat="45.16743" lon="0.46622">
        <ele>107</ele>
        <time>2015-12-08T15:00:44Z</time>
      </trkpt>
      <trkpt lat="45.16745" lon="0.46628">
        <ele>106</ele>
        <time>2015-12-08T15:00:53Z</time>
      </trkpt>
      <trkpt lat="45.16742" lon="0.4663">
        <ele>110</ele>
        <time>2015-12-08T15:01:10Z</time>
      </trkpt>
      <trkpt lat="45.16741" lon="0.46625">
        <ele>107</ele>
        <time>2015-12-08T15:01:16Z</time>
      </trkpt>
      <trkpt lat="45.16742" lon="0.46621">
        <ele>107</ele>
        <time>2015-12-08T15:01:21Z</time>
      </trkpt>
      <trkpt lat="45.16746" lon="0.46621">
        <ele>116</ele>
        <time>2015-12-08T15:01:31Z</time>
      </trkpt>
      <trkpt lat="45.16749" lon="0.46619">
        <ele>118</ele>
        <time>2015-12-08T15:01:35Z</time>
      </trkpt>
      <trkpt lat="45.16752" lon="0.46613">
        <ele>117</ele>
        <time>2015-12-08T15:01:39Z</time>
      </trkpt>
      <trkpt lat="45.16754" lon="0.46609">
        <ele>117</ele>
        <time>2015-12-08T15:01:43Z</time>
      </trkpt>
      <trkpt lat="45.16756" lon="0.46604">
        <ele>118</ele>
        <time>2015-12-08T15:01:49Z</time>
      </trkpt>
      <trkpt lat="45.16757" lon="0.466">
        <ele>118</ele>
        <time>2015-12-08T15:02:07Z</time>
      </trkpt>
      <trkpt lat="45.16761" lon="0.46583">
        <ele>117</ele>
        <time>2015-12-08T15:02:12Z</time>
      </trkpt>
      <trkpt lat="45.16763" lon="0.46576">
        <ele>121</ele>
        <time>2015-12-08T15:02:16Z</time>
      </trkpt>
      <trkpt lat="45.16766" lon="0.46566">
        <ele>122</ele>
        <time>2015-12-08T15:02:20Z</time>
      </trkpt>
      <trkpt lat="45.16768" lon="0.46559">
        <ele>123</ele>
        <time>2015-12-08T15:02:25Z</time>
      </trkpt>
      <trkpt lat="45.16771" lon="0.46551">
        <ele>123</ele>
        <time>2015-12-08T15:02:29Z</time>
      </trkpt>
      <trkpt lat="45.16773" lon="0.46544">
        <ele>123</ele>
        <time>2015-12-08T15:02:33Z</time>
      </trkpt>
      <trkpt lat="45.16774" lon="0.46537">
        <ele>123</ele>
        <time>2015-12-08T15:02:37Z</time>
      </trkpt>
      <trkpt lat="45.16776" lon="0.46529">
        <ele>124</ele>
        <time>2015-12-08T15:02:42Z</time>
      </trkpt>
      <trkpt lat="45.16778" lon="0.4652">
        <ele>125</ele>
        <time>2015-12-08T15:02:46Z</time>
      </trkpt>
      <trkpt lat="45.16778" lon="0.46515">
        <ele>127</ele>
        <time>2015-12-08T15:02:51Z</time>
      </trkpt>
      <trkpt lat="45.16782" lon="0.46503">
        <ele>124</ele>
        <time>2015-12-08T15:02:55Z</time>
      </trkpt>
      <trkpt lat="45.16783" lon="0.46499">
        <ele>126</ele>
        <time>2015-12-08T15:03:02Z</time>
      </trkpt>
      <trkpt lat="45.16786" lon="0.46492">
        <ele>125</ele>
        <time>2015-12-08T15:03:07Z</time>
      </trkpt>
      <trkpt lat="45.16786" lon="0.46485">
        <ele>125</ele>
        <time>2015-12-08T15:03:21Z</time>
      </trkpt>
      <trkpt lat="45.16788" lon="0.4648">
        <ele>127</ele>
        <time>2015-12-08T15:03:29Z</time>
      </trkpt>
      <trkpt lat="45.16791" lon="0.46471">
        <ele>128</ele>
        <time>2015-12-08T15:03:34Z</time>
      </trkpt>
      <trkpt lat="45.16794" lon="0.46467">
        <ele>130</ele>
        <time>2015-12-08T15:03:38Z</time>
      </trkpt>
      <trkpt lat="45.16801" lon="0.4646">
        <ele>128</ele>
        <time>2015-12-08T15:03:43Z</time>
      </trkpt>
      <trkpt lat="45.16804" lon="0.46461">
        <ele>127</ele>
        <time>2015-12-08T15:03:50Z</time>
      </trkpt>
      <trkpt lat="45.16808" lon="0.46461">
        <ele>126</ele>
        <time>2015-12-08T15:03:55Z</time>
      </trkpt>
      <trkpt lat="45.16812" lon="0.46463">
        <ele>125</ele>
        <time>2015-12-08T15:03:59Z</time>
      </trkpt>
      <trkpt lat="45.16815" lon="0.46465">
        <ele>125</ele>
        <time>2015-12-08T15:04:03Z</time>
      </trkpt>
      <trkpt lat="45.1682" lon="0.4646">
        <ele>124</ele>
        <time>2015-12-08T15:04:07Z</time>
      </trkpt>
      <trkpt lat="45.16824" lon="0.46458">
        <ele>125</ele>
        <time>2015-12-08T15:04:12Z</time>
      </trkpt>
      <trkpt lat="45.16829" lon="0.46453">
        <ele>127</ele>
        <time>2015-12-08T15:04:16Z</time>
      </trkpt>
      <trkpt lat="45.16835" lon="0.46451">
        <ele>130</ele>
        <time>2015-12-08T15:04:21Z</time>
      </trkpt>
      <trkpt lat="45.16838" lon="0.46446">
        <ele>133</ele>
        <time>2015-12-08T15:04:25Z</time>
      </trkpt>
      <trkpt lat="45.16841" lon="0.46443">
        <ele>134</ele>
        <time>2015-12-08T15:04:29Z</time>
      </trkpt>
      <trkpt lat="45.16844" lon="0.46436">
        <ele>132</ele>
        <time>2015-12-08T15:04:33Z</time>
      </trkpt>
      <trkpt lat="45.16847" lon="0.46439">
        <ele>137</ele>
        <time>2015-12-08T15:04:37Z</time>
      </trkpt>
      <trkpt lat="45.16851" lon="0.46434">
        <ele>139</ele>
        <time>2015-12-08T15:04:41Z</time>
      </trkpt>
      <trkpt lat="45.16857" lon="0.46427">
        <ele>137</ele>
        <time>2015-12-08T15:04:45Z</time>
      </trkpt>
      <trkpt lat="45.16863" lon="0.46424">
        <ele>139</ele>
        <time>2015-12-08T15:04:49Z</time>
      </trkpt>
      <trkpt lat="45.16865" lon="0.4642">
        <ele>138</ele>
        <time>2015-12-08T15:04:54Z</time>
      </trkpt>
      <trkpt lat="45.16868" lon="0.46415">
        <ele>140</ele>
        <time>2015-12-08T15:04:58Z</time>
      </trkpt>
      <trkpt lat="45.16873" lon="0.46402">
        <ele>138</ele>
        <time>2015-12-08T15:05:03Z</time>
      </trkpt>
      <trkpt lat="45.16875" lon="0.46393">
        <ele>139</ele>
        <time>2015-12-08T15:05:07Z</time>
      </trkpt>
      <trkpt lat="45.16877" lon="0.46385">
        <ele>142</ele>
        <time>2015-12-08T15:05:12Z</time>
      </trkpt>
      <trkpt lat="45.16881" lon="0.46379">
        <ele>144</ele>
        <time>2015-12-08T15:05:16Z</time>
      </trkpt>
      <trkpt lat="45.16878" lon="0.46374">
        <ele>147</ele>
        <time>2015-12-08T15:05:22Z</time>
      </trkpt>
      <trkpt lat="45.16879" lon="0.46367">
        <ele>149</ele>
        <time>2015-12-08T15:05:27Z</time>
      </trkpt>
      <trkpt lat="45.16877" lon="0.46362">
        <ele>148</ele>
        <time>2015-12-08T15:05:31Z</time>
      </trkpt>
      <trkpt lat="45.1688" lon="0.46353">
        <ele>147</ele>
        <time>2015-12-08T15:05:35Z</time>
      </trkpt>
      <trkpt lat="45.1688" lon="0.46347">
        <ele>147</ele>
        <time>2015-12-08T15:05:41Z</time>
      </trkpt>
      <trkpt lat="45.16881" lon="0.46338">
        <ele>149</ele>
        <time>2015-12-08T15:05:46Z</time>
      </trkpt>
      <trkpt lat="45.16882" lon="0.46332">
        <ele>148</ele>
        <time>2015-12-08T15:05:50Z</time>
      </trkpt>
      <trkpt lat="45.16884" lon="0.46325">
        <ele>148</ele>
        <time>2015-12-08T15:05:54Z</time>
      </trkpt>
      <trkpt lat="45.16882" lon="0.4632">
        <ele>147</ele>
        <time>2015-12-08T15:06:02Z</time>
      </trkpt>
      <trkpt lat="45.16883" lon="0.46312">
        <ele>146</ele>
        <time>2015-12-08T15:06:07Z</time>
      </trkpt>
      <trkpt lat="45.16882" lon="0.46307">
        <ele>146</ele>
        <time>2015-12-08T15:06:11Z</time>
      </trkpt>
      <trkpt lat="45.16882" lon="0.46301">
        <ele>146</ele>
        <time>2015-12-08T15:06:18Z</time>
      </trkpt>
      <trkpt lat="45.16884" lon="0.46296">
        <ele>145</ele>
        <time>2015-12-08T15:06:22Z</time>
      </trkpt>
      <trkpt lat="45.16885" lon="0.46287">
        <ele>143</ele>
        <time>2015-12-08T15:06:26Z</time>
      </trkpt>
      <trkpt lat="45.16884" lon="0.46281">
        <ele>142</ele>
        <time>2015-12-08T15:06:32Z</time>
      </trkpt>
      <trkpt lat="45.1688" lon="0.46274">
        <ele>143</ele>
        <time>2015-12-08T15:06:36Z</time>
      </trkpt>
      <trkpt lat="45.16876" lon="0.46267">
        <ele>143</ele>
        <time>2015-12-08T15:06:41Z</time>
      </trkpt>
      <trkpt lat="45.16872" lon="0.46256">
        <ele>145</ele>
        <time>2015-12-08T15:06:45Z</time>
      </trkpt>
      <trkpt lat="45.16865" lon="0.46244">
        <ele>145</ele>
        <time>2015-12-08T15:06:50Z</time>
      </trkpt>
      <trkpt lat="45.16859" lon="0.46236">
        <ele>142</ele>
        <time>2015-12-08T15:06:55Z</time>
      </trkpt>
      <trkpt lat="45.16859" lon="0.46229">
        <ele>144</ele>
        <time>2015-12-08T15:07:00Z</time>
      </trkpt>
      <trkpt lat="45.16857" lon="0.46223">
        <ele>144</ele>
        <time>2015-12-08T15:07:04Z</time>
      </trkpt>
      <trkpt lat="45.16857" lon="0.46214">
        <ele>144</ele>
        <time>2015-12-08T15:07:09Z</time>
      </trkpt>
      <trkpt lat="45.16857" lon="0.46207">
        <ele>146</ele>
        <time>2015-12-08T15:07:13Z</time>
      </trkpt>
      <trkpt lat="45.16854" lon="0.46201">
        <ele>149</ele>
        <time>2015-12-08T15:07:18Z</time>
      </trkpt>
      <trkpt lat="45.16852" lon="0.46196">
        <ele>151</ele>
        <time>2015-12-08T15:07:23Z</time>
      </trkpt>
      <trkpt lat="45.1685" lon="0.46191">
        <ele>152</ele>
        <time>2015-12-08T15:07:31Z</time>
      </trkpt>
      <trkpt lat="45.16848" lon="0.46184">
        <ele>152</ele>
        <time>2015-12-08T15:07:36Z</time>
      </trkpt>
      <trkpt lat="45.16848" lon="0.46178">
        <ele>153</ele>
        <time>2015-12-08T15:07:41Z</time>
      </trkpt>
      <trkpt lat="45.16849" lon="0.4617">
        <ele>151</ele>
        <time>2015-12-08T15:07:45Z</time>
      </trkpt>
      <trkpt lat="45.16851" lon="0.46163">
        <ele>153</ele>
        <time>2015-12-08T15:07:49Z</time>
      </trkpt>
      <trkpt lat="45.16845" lon="0.46146">
        <ele>151</ele>
        <time>2015-12-08T15:07:54Z</time>
      </trkpt>
      <trkpt lat="45.1684" lon="0.46139">
        <ele>149</ele>
        <time>2015-12-08T15:07:58Z</time>
      </trkpt>
      <trkpt lat="45.16837" lon="0.46134">
        <ele>151</ele>
        <time>2015-12-08T15:08:03Z</time>
      </trkpt>
      <trkpt lat="45.16833" lon="0.46125">
        <ele>150</ele>
        <time>2015-12-08T15:08:08Z</time>
      </trkpt>
      <trkpt lat="45.16831" lon="0.46119">
        <ele>150</ele>
        <time>2015-12-08T15:08:12Z</time>
      </trkpt>
      <trkpt lat="45.16832" lon="0.46113">
        <ele>151</ele>
        <time>2015-12-08T15:08:17Z</time>
      </trkpt>
      <trkpt lat="45.16833" lon="0.46105">
        <ele>151</ele>
        <time>2015-12-08T15:08:22Z</time>
      </trkpt>
      <trkpt lat="45.16834" lon="0.46097">
        <ele>150</ele>
        <time>2015-12-08T15:08:26Z</time>
      </trkpt>
      <trkpt lat="45.16837" lon="0.46092">
        <ele>150</ele>
        <time>2015-12-08T15:08:31Z</time>
      </trkpt>
      <trkpt lat="45.16839" lon="0.46085">
        <ele>150</ele>
        <time>2015-12-08T15:08:36Z</time>
      </trkpt>
      <trkpt lat="45.16843" lon="0.46079">
        <ele>150</ele>
        <time>2015-12-08T15:08:41Z</time>
      </trkpt>
      <trkpt lat="45.16846" lon="0.46074">
        <ele>150</ele>
        <time>2015-12-08T15:08:45Z</time>
      </trkpt>
      <trkpt lat="45.16847" lon="0.46069">
        <ele>149</ele>
        <time>2015-12-08T15:08:49Z</time>
      </trkpt>
      <trkpt lat="45.16851" lon="0.46063">
        <ele>149</ele>
        <time>2015-12-08T15:08:54Z</time>
      </trkpt>
      <trkpt lat="45.16854" lon="0.46056">
        <ele>150</ele>
        <time>2015-12-08T15:08:59Z</time>
      </trkpt>
      <trkpt lat="45.16857" lon="0.46052">
        <ele>151</ele>
        <time>2015-12-08T15:09:03Z</time>
      </trkpt>
      <trkpt lat="45.16861" lon="0.46047">
        <ele>151</ele>
        <time>2015-12-08T15:09:07Z</time>
      </trkpt>
      <trkpt lat="45.16866" lon="0.46041">
        <ele>153</ele>
        <time>2015-12-08T15:09:12Z</time>
      </trkpt>
      <trkpt lat="45.16868" lon="0.46035">
        <ele>154</ele>
        <time>2015-12-08T15:09:17Z</time>
      </trkpt>
      <trkpt lat="45.16871" lon="0.46031">
        <ele>157</ele>
        <time>2015-12-08T15:09:22Z</time>
      </trkpt>
      <trkpt lat="45.16873" lon="0.46028">
        <ele>161</ele>
        <time>2015-12-08T15:09:29Z</time>
      </trkpt>
      <trkpt lat="45.16877" lon="0.46019">
        <ele>162</ele>
        <time>2015-12-08T15:09:33Z</time>
      </trkpt>
      <trkpt lat="45.1688" lon="0.46014">
        <ele>163</ele>
        <time>2015-12-08T15:09:37Z</time>
      </trkpt>
      <trkpt lat="45.16885" lon="0.46009">
        <ele>164</ele>
        <time>2015-12-08T15:09:42Z</time>
      </trkpt>
      <trkpt lat="45.16888" lon="0.46003">
        <ele>162</ele>
        <time>2015-12-08T15:09:46Z</time>
      </trkpt>
      <trkpt lat="45.16892" lon="0.45998">
        <ele>162</ele>
        <time>2015-12-08T15:09:50Z</time>
      </trkpt>
      <trkpt lat="45.16895" lon="0.45996">
        <ele>166</ele>
        <time>2015-12-08T15:09:59Z</time>
      </trkpt>
      <trkpt lat="45.16903" lon="0.45994">
        <ele>167</ele>
        <time>2015-12-08T15:10:04Z</time>
      </trkpt>
      <trkpt lat="45.16908" lon="0.45993">
        <ele>167</ele>
        <time>2015-12-08T15:10:09Z</time>
      </trkpt>
      <trkpt lat="45.16914" lon="0.45995">
        <ele>165</ele>
        <time>2015-12-08T15:10:13Z</time>
      </trkpt>
      <trkpt lat="45.16916" lon="0.45994">
        <ele>166</ele>
        <time>2015-12-08T15:10:18Z</time>
      </trkpt>
      <trkpt lat="45.16921" lon="0.45991">
        <ele>163</ele>
        <time>2015-12-08T15:10:22Z</time>
      </trkpt>
      <trkpt lat="45.16926" lon="0.45989">
        <ele>164</ele>
        <time>2015-12-08T15:10:27Z</time>
      </trkpt>
      <trkpt lat="45.16931" lon="0.45985">
        <ele>165</ele>
        <time>2015-12-08T15:10:31Z</time>
      </trkpt>
      <trkpt lat="45.16934" lon="0.45982">
        <ele>168</ele>
        <time>2015-12-08T15:10:35Z</time>
      </trkpt>
      <trkpt lat="45.16939" lon="0.45967">
        <ele>164</ele>
        <time>2015-12-08T15:10:39Z</time>
      </trkpt>
      <trkpt lat="45.16941" lon="0.45961">
        <ele>165</ele>
        <time>2015-12-08T15:10:43Z</time>
      </trkpt>
      <trkpt lat="45.16943" lon="0.45954">
        <ele>165</ele>
        <time>2015-12-08T15:10:47Z</time>
      </trkpt>
      <trkpt lat="45.16945" lon="0.45948">
        <ele>166</ele>
        <time>2015-12-08T15:10:52Z</time>
      </trkpt>
      <trkpt lat="45.16948" lon="0.45942">
        <ele>166</ele>
        <time>2015-12-08T15:10:57Z</time>
      </trkpt>
      <trkpt lat="45.16949" lon="0.45935">
        <ele>166</ele>
        <time>2015-12-08T15:11:01Z</time>
      </trkpt>
      <trkpt lat="45.16952" lon="0.45926">
        <ele>165</ele>
        <time>2015-12-08T15:11:05Z</time>
      </trkpt>
      <trkpt lat="45.16953" lon="0.45921">
        <ele>170</ele>
        <time>2015-12-08T15:11:12Z</time>
      </trkpt>
      <trkpt lat="45.16953" lon="0.45912">
        <ele>171</ele>
        <time>2015-12-08T15:11:17Z</time>
      </trkpt>
      <trkpt lat="45.16955" lon="0.45903">
        <ele>170</ele>
        <time>2015-12-08T15:11:21Z</time>
      </trkpt>
      <trkpt lat="45.16956" lon="0.45897">
        <ele>173</ele>
        <time>2015-12-08T15:11:26Z</time>
      </trkpt>
      <trkpt lat="45.16958" lon="0.4589">
        <ele>174</ele>
        <time>2015-12-08T15:11:30Z</time>
      </trkpt>
      <trkpt lat="45.16959" lon="0.45884">
        <ele>175</ele>
        <time>2015-12-08T15:11:34Z</time>
      </trkpt>
      <trkpt lat="45.16959" lon="0.45878">
        <ele>178</ele>
        <time>2015-12-08T15:11:42Z</time>
      </trkpt>
      <trkpt lat="45.16961" lon="0.45872">
        <ele>179</ele>
        <time>2015-12-08T15:11:48Z</time>
      </trkpt>
      <trkpt lat="45.1696" lon="0.45864">
        <ele>176</ele>
        <time>2015-12-08T15:11:53Z</time>
      </trkpt>
      <trkpt lat="45.16962" lon="0.45859">
        <ele>176</ele>
        <time>2015-12-08T15:11:57Z</time>
      </trkpt>
      <trkpt lat="45.16964" lon="0.45852">
        <ele>175</ele>
        <time>2015-12-08T15:12:02Z</time>
      </trkpt>
      <trkpt lat="45.16966" lon="0.45843">
        <ele>175</ele>
        <time>2015-12-08T15:12:06Z</time>
      </trkpt>
      <trkpt lat="45.16967" lon="0.45837">
        <ele>173</ele>
        <time>2015-12-08T15:12:10Z</time>
      </trkpt>
      <trkpt lat="45.16969" lon="0.45832">
        <ele>172</ele>
        <time>2015-12-08T15:12:15Z</time>
      </trkpt>
      <trkpt lat="45.1697" lon="0.45826">
        <ele>171</ele>
        <time>2015-12-08T15:12:20Z</time>
      </trkpt>
      <trkpt lat="45.1697" lon="0.4582">
        <ele>172</ele>
        <time>2015-12-08T15:12:26Z</time>
      </trkpt>
      <trkpt lat="45.16971" lon="0.45811">
        <ele>172</ele>
        <time>2015-12-08T15:12:31Z</time>
      </trkpt>
      <trkpt lat="45.16973" lon="0.45804">
        <ele>175</ele>
        <time>2015-12-08T15:12:35Z</time>
      </trkpt>
      <trkpt lat="45.16973" lon="0.45798">
        <ele>176</ele>
        <time>2015-12-08T15:12:39Z</time>
      </trkpt>
      <trkpt lat="45.16975" lon="0.45789">
        <ele>177</ele>
        <time>2015-12-08T15:12:44Z</time>
      </trkpt>
      <trkpt lat="45.16976" lon="0.45782">
        <ele>180</ele>
        <time>2015-12-08T15:12:49Z</time>
      </trkpt>
      <trkpt lat="45.16978" lon="0.45777">
        <ele>182</ele>
        <time>2015-12-08T15:12:54Z</time>
      </trkpt>
      <trkpt lat="45.16981" lon="0.45769">
        <ele>181</ele>
        <time>2015-12-08T15:12:58Z</time>
      </trkpt>
      <trkpt lat="45.16983" lon="0.45762">
        <ele>182</ele>
        <time>2015-12-08T15:13:03Z</time>
      </trkpt>
      <trkpt lat="45.16983" lon="0.45756">
        <ele>183</ele>
        <time>2015-12-08T15:13:07Z</time>
      </trkpt>
      <trkpt lat="45.16985" lon="0.45748">
        <ele>183</ele>
        <time>2015-12-08T15:13:12Z</time>
      </trkpt>
      <trkpt lat="45.16985" lon="0.4574">
        <ele>183</ele>
        <time>2015-12-08T15:13:17Z</time>
      </trkpt>
      <trkpt lat="45.16986" lon="0.4573">
        <ele>184</ele>
        <time>2015-12-08T15:13:21Z</time>
      </trkpt>
      <trkpt lat="45.16989" lon="0.45722">
        <ele>184</ele>
        <time>2015-12-08T15:13:25Z</time>
      </trkpt>
      <trkpt lat="45.16991" lon="0.45715">
        <ele>185</ele>
        <time>2015-12-08T15:13:29Z</time>
      </trkpt>
      <trkpt lat="45.16995" lon="0.45705">
        <ele>188</ele>
        <time>2015-12-08T15:13:34Z</time>
      </trkpt>
      <trkpt lat="45.16996" lon="0.45698">
        <ele>189</ele>
        <time>2015-12-08T15:13:38Z</time>
      </trkpt>
      <trkpt lat="45.16997" lon="0.45692">
        <ele>191</ele>
        <time>2015-12-08T15:13:42Z</time>
      </trkpt>
      <trkpt lat="45.16996" lon="0.45685">
        <ele>190</ele>
        <time>2015-12-08T15:13:47Z</time>
      </trkpt>
      <trkpt lat="45.16995" lon="0.45677">
        <ele>189</ele>
        <time>2015-12-08T15:13:52Z</time>
      </trkpt>
      <trkpt lat="45.16997" lon="0.45671">
        <ele>188</ele>
        <time>2015-12-08T15:13:56Z</time>
      </trkpt>
      <trkpt lat="45.16998" lon="0.45665">
        <ele>186</ele>
        <time>2015-12-08T15:14:00Z</time>
      </trkpt>
      <trkpt lat="45.17" lon="0.45658">
        <ele>186</ele>
        <time>2015-12-08T15:14:05Z</time>
      </trkpt>
      <trkpt lat="45.17003" lon="0.45648">
        <ele>185</ele>
        <time>2015-12-08T15:14:10Z</time>
      </trkpt>
      <trkpt lat="45.17006" lon="0.45638">
        <ele>184</ele>
        <time>2015-12-08T15:14:15Z</time>
      </trkpt>
      <trkpt lat="45.1701" lon="0.4563">
        <ele>182</ele>
        <time>2015-12-08T15:14:19Z</time>
      </trkpt>
      <trkpt lat="45.17012" lon="0.45623">
        <ele>181</ele>
        <time>2015-12-08T15:14:23Z</time>
      </trkpt>
      <trkpt lat="45.17015" lon="0.45615">
        <ele>180</ele>
        <time>2015-12-08T15:14:28Z</time>
      </trkpt>
      <trkpt lat="45.17017" lon="0.45611">
        <ele>181</ele>
        <time>2015-12-08T15:14:32Z</time>
      </trkpt>
      <trkpt lat="45.1702" lon="0.45606">
        <ele>183</ele>
        <time>2015-12-08T15:14:36Z</time>
      </trkpt>
      <trkpt lat="45.17023" lon="0.45599">
        <ele>183</ele>
        <time>2015-12-08T15:14:41Z</time>
      </trkpt>
      <trkpt lat="45.17025" lon="0.45591">
        <ele>185</ele>
        <time>2015-12-08T15:14:46Z</time>
      </trkpt>
      <trkpt lat="45.1703" lon="0.45583">
        <ele>184</ele>
        <time>2015-12-08T15:14:50Z</time>
      </trkpt>
      <trkpt lat="45.17029" lon="0.45577">
        <ele>182</ele>
        <time>2015-12-08T15:14:54Z</time>
      </trkpt>
      <trkpt lat="45.17033" lon="0.45571">
        <ele>181</ele>
        <time>2015-12-08T15:14:58Z</time>
      </trkpt>
      <trkpt lat="45.17028" lon="0.45564">
        <ele>180</ele>
        <time>2015-12-08T15:15:02Z</time>
      </trkpt>
      <trkpt lat="45.17026" lon="0.45555">
        <ele>182</ele>
        <time>2015-12-08T15:15:07Z</time>
      </trkpt>
      <trkpt lat="45.17024" lon="0.45548">
        <ele>182</ele>
        <time>2015-12-08T15:15:11Z</time>
      </trkpt>
      <trkpt lat="45.17022" lon="0.45543">
        <ele>184</ele>
        <time>2015-12-08T15:15:17Z</time>
      </trkpt>
      <trkpt lat="45.1702" lon="0.45537">
        <ele>184</ele>
        <time>2015-12-08T15:15:21Z</time>
      </trkpt>
      <trkpt lat="45.1702" lon="0.45529">
        <ele>184</ele>
        <time>2015-12-08T15:15:26Z</time>
      </trkpt>
      <trkpt lat="45.1702" lon="0.45522">
        <ele>185</ele>
        <time>2015-12-08T15:15:30Z</time>
      </trkpt>
      <trkpt lat="45.1702" lon="0.45512">
        <ele>185</ele>
        <time>2015-12-08T15:15:35Z</time>
      </trkpt>
      <trkpt lat="45.1702" lon="0.45503">
        <ele>184</ele>
        <time>2015-12-08T15:15:39Z</time>
      </trkpt>
      <trkpt lat="45.1702" lon="0.45493">
        <ele>183</ele>
        <time>2015-12-08T15:15:44Z</time>
      </trkpt>
      <trkpt lat="45.17022" lon="0.45488">
        <ele>182</ele>
        <time>2015-12-08T15:15:48Z</time>
      </trkpt>
      <trkpt lat="45.17021" lon="0.45482">
        <ele>182</ele>
        <time>2015-12-08T15:15:52Z</time>
      </trkpt>
      <trkpt lat="45.17021" lon="0.45476">
        <ele>183</ele>
        <time>2015-12-08T15:15:56Z</time>
      </trkpt>
      <trkpt lat="45.17021" lon="0.45466">
        <ele>183</ele>
        <time>2015-12-08T15:16:01Z</time>
      </trkpt>
      <trkpt lat="45.1702" lon="0.45458">
        <ele>181</ele>
        <time>2015-12-08T15:16:06Z</time>
      </trkpt>
      <trkpt lat="45.1702" lon="0.45451">
        <ele>182</ele>
        <time>2015-12-08T15:16:10Z</time>
      </trkpt>
      <trkpt lat="45.1702" lon="0.45442">
        <ele>182</ele>
        <time>2015-12-08T15:16:15Z</time>
      </trkpt>
      <trkpt lat="45.17019" lon="0.45435">
        <ele>182</ele>
        <time>2015-12-08T15:16:19Z</time>
      </trkpt>
      <trkpt lat="45.17019" lon="0.45429">
        <ele>181</ele>
        <time>2015-12-08T15:16:23Z</time>
      </trkpt>
      <trkpt lat="45.17019" lon="0.4542">
        <ele>181</ele>
        <time>2015-12-08T15:16:28Z</time>
      </trkpt>
      <trkpt lat="45.17019" lon="0.45414">
        <ele>181</ele>
        <time>2015-12-08T15:16:32Z</time>
      </trkpt>
      <trkpt lat="45.17019" lon="0.45405">
        <ele>181</ele>
        <time>2015-12-08T15:16:37Z</time>
      </trkpt>
      <trkpt lat="45.1702" lon="0.45397">
        <ele>180</ele>
        <time>2015-12-08T15:16:41Z</time>
      </trkpt>
      <trkpt lat="45.17019" lon="0.4539">
        <ele>179</ele>
        <time>2015-12-08T15:16:45Z</time>
      </trkpt>
      <trkpt lat="45.1702" lon="0.45383">
        <ele>180</ele>
        <time>2015-12-08T15:16:49Z</time>
      </trkpt>
      <trkpt lat="45.17021" lon="0.45376">
        <ele>180</ele>
        <time>2015-12-08T15:16:53Z</time>
      </trkpt>
      <trkpt lat="45.17021" lon="0.45369">
        <ele>179</ele>
        <time>2015-12-08T15:16:57Z</time>
      </trkpt>
      <trkpt lat="45.17022" lon="0.45362">
        <ele>179</ele>
        <time>2015-12-08T15:17:01Z</time>
      </trkpt>
      <trkpt lat="45.17023" lon="0.45356">
        <ele>179</ele>
        <time>2015-12-08T15:17:05Z</time>
      </trkpt>
      <trkpt lat="45.17024" lon="0.45348">
        <ele>178</ele>
        <time>2015-12-08T15:17:10Z</time>
      </trkpt>
      <trkpt lat="45.17025" lon="0.45342">
        <ele>179</ele>
        <time>2015-12-08T15:17:14Z</time>
      </trkpt>
      <trkpt lat="45.17026" lon="0.45335">
        <ele>179</ele>
        <time>2015-12-08T15:17:18Z</time>
      </trkpt>
      <trkpt lat="45.17028" lon="0.45328">
        <ele>179</ele>
        <time>2015-12-08T15:17:23Z</time>
      </trkpt>
      <trkpt lat="45.1703" lon="0.45322">
        <ele>180</ele>
        <time>2015-12-08T15:17:27Z</time>
      </trkpt>
      <trkpt lat="45.17031" lon="0.45315">
        <ele>181</ele>
        <time>2015-12-08T15:17:31Z</time>
      </trkpt>
      <trkpt lat="45.17033" lon="0.45309">
        <ele>181</ele>
        <time>2015-12-08T15:17:35Z</time>
      </trkpt>
      <trkpt lat="45.17036" lon="0.45303">
        <ele>181</ele>
        <time>2015-12-08T15:17:39Z</time>
      </trkpt>
      <trkpt lat="45.17037" lon="0.45296">
        <ele>180</ele>
        <time>2015-12-08T15:17:43Z</time>
      </trkpt>
      <trkpt lat="45.17039" lon="0.45288">
        <ele>179</ele>
        <time>2015-12-08T15:17:48Z</time>
      </trkpt>
      <trkpt lat="45.17041" lon="0.45281">
        <ele>178</ele>
        <time>2015-12-08T15:17:52Z</time>
      </trkpt>
      <trkpt lat="45.17042" lon="0.45273">
        <ele>177</ele>
        <time>2015-12-08T15:17:57Z</time>
      </trkpt>
      <trkpt lat="45.17044" lon="0.45267">
        <ele>177</ele>
        <time>2015-12-08T15:18:01Z</time>
      </trkpt>
      <trkpt lat="45.17047" lon="0.45261">
        <ele>176</ele>
        <time>2015-12-08T15:18:05Z</time>
      </trkpt>
      <trkpt lat="45.17048" lon="0.45255">
        <ele>175</ele>
        <time>2015-12-08T15:18:09Z</time>
      </trkpt>
      <trkpt lat="45.17051" lon="0.45246">
        <ele>173</ele>
        <time>2015-12-08T15:18:14Z</time>
      </trkpt>
      <trkpt lat="45.17052" lon="0.4524">
        <ele>173</ele>
        <time>2015-12-08T15:18:18Z</time>
      </trkpt>
      <trkpt lat="45.17053" lon="0.45234">
        <ele>171</ele>
        <time>2015-12-08T15:18:22Z</time>
      </trkpt>
      <trkpt lat="45.17057" lon="0.45227">
        <ele>170</ele>
        <time>2015-12-08T15:18:26Z</time>
      </trkpt>
      <trkpt lat="45.17057" lon="0.45222">
        <ele>169</ele>
        <time>2015-12-08T15:18:31Z</time>
      </trkpt>
      <trkpt lat="45.17057" lon="0.45216">
        <ele>169</ele>
        <time>2015-12-08T15:18:35Z</time>
      </trkpt>
      <trkpt lat="45.17058" lon="0.45208">
        <ele>168</ele>
        <time>2015-12-08T15:18:40Z</time>
      </trkpt>
      <trkpt lat="45.17058" lon="0.45202">
        <ele>167</ele>
        <time>2015-12-08T15:18:44Z</time>
      </trkpt>
      <trkpt lat="45.17062" lon="0.45193">
        <ele>167</ele>
        <time>2015-12-08T15:18:49Z</time>
      </trkpt>
      <trkpt lat="45.17063" lon="0.45188">
        <ele>168</ele>
        <time>2015-12-08T15:18:53Z</time>
      </trkpt>
      <trkpt lat="45.17066" lon="0.45183">
        <ele>168</ele>
        <time>2015-12-08T15:18:57Z</time>
      </trkpt>
      <trkpt lat="45.17068" lon="0.4518">
        <ele>167</ele>
        <time>2015-12-08T15:19:01Z</time>
      </trkpt>
      <trkpt lat="45.17072" lon="0.45174">
        <ele>167</ele>
        <time>2015-12-08T15:19:05Z</time>
      </trkpt>
      <trkpt lat="45.17075" lon="0.45169">
        <ele>166</ele>
        <time>2015-12-08T15:19:09Z</time>
      </trkpt>
      <trkpt lat="45.17078" lon="0.45163">
        <ele>167</ele>
        <time>2015-12-08T15:19:13Z</time>
      </trkpt>
      <trkpt lat="45.17081" lon="0.45156">
        <ele>166</ele>
        <time>2015-12-08T15:19:18Z</time>
      </trkpt>
      <trkpt lat="45.17081" lon="0.45148">
        <ele>164</ele>
        <time>2015-12-08T15:19:22Z</time>
      </trkpt>
      <trkpt lat="45.17081" lon="0.45142">
        <ele>163</ele>
        <time>2015-12-08T15:19:26Z</time>
      </trkpt>
      <trkpt lat="45.17081" lon="0.45134">
        <ele>161</ele>
        <time>2015-12-08T15:19:31Z</time>
      </trkpt>
      <trkpt lat="45.17084" lon="0.45126">
        <ele>160</ele>
        <time>2015-12-08T15:19:36Z</time>
      </trkpt>
      <trkpt lat="45.17087" lon="0.4512">
        <ele>160</ele>
        <time>2015-12-08T15:19:40Z</time>
      </trkpt>
      <trkpt lat="45.17088" lon="0.45113">
        <ele>159</ele>
        <time>2015-12-08T15:19:44Z</time>
      </trkpt>
      <trkpt lat="45.17091" lon="0.45105">
        <ele>158</ele>
        <time>2015-12-08T15:19:49Z</time>
      </trkpt>
      <trkpt lat="45.17093" lon="0.45098">
        <ele>158</ele>
        <time>2015-12-08T15:19:53Z</time>
      </trkpt>
      <trkpt lat="45.17096" lon="0.45091">
        <ele>158</ele>
        <time>2015-12-08T15:19:58Z</time>
      </trkpt>
      <trkpt lat="45.17096" lon="0.45085">
        <ele>158</ele>
        <time>2015-12-08T15:20:02Z</time>
      </trkpt>
      <trkpt lat="45.17099" lon="0.45077">
        <ele>157</ele>
        <time>2015-12-08T15:20:07Z</time>
      </trkpt>
      <trkpt lat="45.171" lon="0.45072">
        <ele>157</ele>
        <time>2015-12-08T15:20:11Z</time>
      </trkpt>
      <trkpt lat="45.17103" lon="0.45062">
        <ele>157</ele>
        <time>2015-12-08T15:20:16Z</time>
      </trkpt>
      <trkpt lat="45.17104" lon="0.45054">
        <ele>155</ele>
        <time>2015-12-08T15:20:21Z</time>
      </trkpt>
      <trkpt lat="45.17104" lon="0.45049">
        <ele>154</ele>
        <time>2015-12-08T15:20:25Z</time>
      </trkpt>
      <trkpt lat="45.17106" lon="0.45042">
        <ele>153</ele>
        <time>2015-12-08T15:20:29Z</time>
      </trkpt>
      <trkpt lat="45.17108" lon="0.45034">
        <ele>152</ele>
        <time>2015-12-08T15:20:33Z</time>
      </trkpt>
      <trkpt lat="45.17107" lon="0.45026">
        <ele>149</ele>
        <time>2015-12-08T15:20:38Z</time>
      </trkpt>
      <trkpt lat="45.17106" lon="0.45021">
        <ele>148</ele>
        <time>2015-12-08T15:20:42Z</time>
      </trkpt>
      <trkpt lat="45.17105" lon="0.45015">
        <ele>148</ele>
        <time>2015-12-08T15:20:47Z</time>
      </trkpt>
      <trkpt lat="45.17107" lon="0.45005">
        <ele>147</ele>
        <time>2015-12-08T15:20:52Z</time>
      </trkpt>
      <trkpt lat="45.17107" lon="0.44999">
        <ele>149</ele>
        <time>2015-12-08T15:20:56Z</time>
      </trkpt>
      <trkpt lat="45.17108" lon="0.44991">
        <ele>149</ele>
        <time>2015-12-08T15:21:01Z</time>
      </trkpt>
      <trkpt lat="45.17106" lon="0.44984">
        <ele>148</ele>
        <time>2015-12-08T15:21:05Z</time>
      </trkpt>
      <trkpt lat="45.17106" lon="0.44976">
        <ele>147</ele>
        <time>2015-12-08T15:21:10Z</time>
      </trkpt>
      <trkpt lat="45.17105" lon="0.44971">
        <ele>146</ele>
        <time>2015-12-08T15:21:14Z</time>
      </trkpt>
      <trkpt lat="45.17103" lon="0.44965">
        <ele>145</ele>
        <time>2015-12-08T15:21:18Z</time>
      </trkpt>
      <trkpt lat="45.17103" lon="0.44958">
        <ele>144</ele>
        <time>2015-12-08T15:21:22Z</time>
      </trkpt>
      <trkpt lat="45.17104" lon="0.44952">
        <ele>145</ele>
        <time>2015-12-08T15:21:26Z</time>
      </trkpt>
      <trkpt lat="45.17103" lon="0.44947">
        <ele>145</ele>
        <time>2015-12-08T15:21:30Z</time>
      </trkpt>
      <trkpt lat="45.171" lon="0.44941">
        <ele>144</ele>
        <time>2015-12-08T15:21:35Z</time>
      </trkpt>
      <trkpt lat="45.17099" lon="0.44935">
        <ele>143</ele>
        <time>2015-12-08T15:21:40Z</time>
      </trkpt>
      <trkpt lat="45.17097" lon="0.44931">
        <ele>143</ele>
        <time>2015-12-08T15:21:44Z</time>
      </trkpt>
      <trkpt lat="45.17096" lon="0.44923">
        <ele>141</ele>
        <time>2015-12-08T15:21:49Z</time>
      </trkpt>
      <trkpt lat="45.17098" lon="0.44915">
        <ele>140</ele>
        <time>2015-12-08T15:21:53Z</time>
      </trkpt>
      <trkpt lat="45.17098" lon="0.44909">
        <ele>140</ele>
        <time>2015-12-08T15:21:58Z</time>
      </trkpt>
      <trkpt lat="45.17098" lon="0.449">
        <ele>138</ele>
        <time>2015-12-08T15:22:03Z</time>
      </trkpt>
      <trkpt lat="45.17101" lon="0.44894">
        <ele>137</ele>
        <time>2015-12-08T15:22:07Z</time>
      </trkpt>
      <trkpt lat="45.17104" lon="0.44885">
        <ele>136</ele>
        <time>2015-12-08T15:22:12Z</time>
      </trkpt>
      <trkpt lat="45.17106" lon="0.4488">
        <ele>135</ele>
        <time>2015-12-08T15:22:16Z</time>
      </trkpt>
      <trkpt lat="45.17111" lon="0.44872">
        <ele>135</ele>
        <time>2015-12-08T15:22:21Z</time>
      </trkpt>
      <trkpt lat="45.17113" lon="0.44867">
        <ele>134</ele>
        <time>2015-12-08T15:22:25Z</time>
      </trkpt>
      <trkpt lat="45.17115" lon="0.44863">
        <ele>133</ele>
        <time>2015-12-08T15:22:30Z</time>
      </trkpt>
      <trkpt lat="45.17118" lon="0.44857">
        <ele>133</ele>
        <time>2015-12-08T15:22:35Z</time>
      </trkpt>
      <trkpt lat="45.17121" lon="0.44851">
        <ele>133</ele>
        <time>2015-12-08T15:22:39Z</time>
      </trkpt>
      <trkpt lat="45.17124" lon="0.44843">
        <ele>134</ele>
        <time>2015-12-08T15:22:44Z</time>
      </trkpt>
      <trkpt lat="45.17125" lon="0.44838">
        <ele>134</ele>
        <time>2015-12-08T15:22:49Z</time>
      </trkpt>
      <trkpt lat="45.17132" lon="0.44828">
        <ele>135</ele>
        <time>2015-12-08T15:22:54Z</time>
      </trkpt>
      <trkpt lat="45.17134" lon="0.44822">
        <ele>135</ele>
        <time>2015-12-08T15:22:58Z</time>
      </trkpt>
      <trkpt lat="45.17133" lon="0.44817">
        <ele>137</ele>
        <time>2015-12-08T15:23:04Z</time>
      </trkpt>
      <trkpt lat="45.1714" lon="0.4481">
        <ele>138</ele>
        <time>2015-12-08T15:23:08Z</time>
      </trkpt>
      <trkpt lat="45.17141" lon="0.44803">
        <ele>138</ele>
        <time>2015-12-08T15:23:13Z</time>
      </trkpt>
      <trkpt lat="45.17144" lon="0.44796">
        <ele>139</ele>
        <time>2015-12-08T15:23:17Z</time>
      </trkpt>
      <trkpt lat="45.17146" lon="0.44789">
        <ele>141</ele>
        <time>2015-12-08T15:23:22Z</time>
      </trkpt>
      <trkpt lat="45.17149" lon="0.44782">
        <ele>141</ele>
        <time>2015-12-08T15:23:26Z</time>
      </trkpt>
      <trkpt lat="45.17155" lon="0.44772">
        <ele>138</ele>
        <time>2015-12-08T15:23:30Z</time>
      </trkpt>
      <trkpt lat="45.17154" lon="0.44765">
        <ele>136</ele>
        <time>2015-12-08T15:23:34Z</time>
      </trkpt>
      <trkpt lat="45.17156" lon="0.44759">
        <ele>137</ele>
        <time>2015-12-08T15:23:41Z</time>
      </trkpt>
      <trkpt lat="45.17158" lon="0.44755">
        <ele>138</ele>
        <time>2015-12-08T15:23:46Z</time>
      </trkpt>
      <trkpt lat="45.17162" lon="0.44752">
        <ele>140</ele>
        <time>2015-12-08T15:23:51Z</time>
      </trkpt>
      <trkpt lat="45.17165" lon="0.44748">
        <ele>143</ele>
        <time>2015-12-08T15:23:56Z</time>
      </trkpt>
      <trkpt lat="45.17168" lon="0.44746">
        <ele>147</ele>
        <time>2015-12-08T15:24:00Z</time>
      </trkpt>
      <trkpt lat="45.17171" lon="0.44743">
        <ele>147</ele>
        <time>2015-12-08T15:24:04Z</time>
      </trkpt>
      <trkpt lat="45.17175" lon="0.44739">
        <ele>146</ele>
        <time>2015-12-08T15:24:09Z</time>
      </trkpt>
      <trkpt lat="45.17178" lon="0.44736">
        <ele>147</ele>
        <time>2015-12-08T15:24:14Z</time>
      </trkpt>
      <trkpt lat="45.17182" lon="0.44733">
        <ele>147</ele>
        <time>2015-12-08T15:24:18Z</time>
      </trkpt>
      <trkpt lat="45.17185" lon="0.44726">
        <ele>146</ele>
        <time>2015-12-08T15:24:22Z</time>
      </trkpt>
      <trkpt lat="45.17188" lon="0.4472">
        <ele>147</ele>
        <time>2015-12-08T15:24:27Z</time>
      </trkpt>
      <trkpt lat="45.17191" lon="0.44716">
        <ele>148</ele>
        <time>2015-12-08T15:24:31Z</time>
      </trkpt>
      <trkpt lat="45.17194" lon="0.44711">
        <ele>147</ele>
        <time>2015-12-08T15:24:35Z</time>
      </trkpt>
      <trkpt lat="45.17198" lon="0.44706">
        <ele>147</ele>
        <time>2015-12-08T15:24:40Z</time>
      </trkpt>
      <trkpt lat="45.17202" lon="0.44704">
        <ele>147</ele>
        <time>2015-12-08T15:24:45Z</time>
      </trkpt>
      <trkpt lat="45.17206" lon="0.44703">
        <ele>149</ele>
        <time>2015-12-08T15:24:50Z</time>
      </trkpt>
      <trkpt lat="45.1721" lon="0.447">
        <ele>148</ele>
        <time>2015-12-08T15:24:55Z</time>
      </trkpt>
      <trkpt lat="45.17215" lon="0.44698">
        <ele>147</ele>
        <time>2015-12-08T15:25:00Z</time>
      </trkpt>
      <trkpt lat="45.17218" lon="0.44697">
        <ele>147</ele>
        <time>2015-12-08T15:25:04Z</time>
      </trkpt>
      <trkpt lat="45.17222" lon="0.44693">
        <ele>148</ele>
        <time>2015-12-08T15:25:08Z</time>
      </trkpt>
      <trkpt lat="45.17227" lon="0.44691">
        <ele>147</ele>
        <time>2015-12-08T15:25:13Z</time>
      </trkpt>
      <trkpt lat="45.17231" lon="0.44689">
        <ele>147</ele>
        <time>2015-12-08T15:25:17Z</time>
      </trkpt>
      <trkpt lat="45.17236" lon="0.44689">
        <ele>149</ele>
        <time>2015-12-08T15:25:22Z</time>
      </trkpt>
      <trkpt lat="45.17241" lon="0.44683">
        <ele>149</ele>
        <time>2015-12-08T15:25:27Z</time>
      </trkpt>
      <trkpt lat="45.17242" lon="0.44672">
        <ele>148</ele>
        <time>2015-12-08T15:25:31Z</time>
      </trkpt>
      <trkpt lat="45.17243" lon="0.44666">
        <ele>148</ele>
        <time>2015-12-08T15:25:36Z</time>
      </trkpt>
      <trkpt lat="45.17242" lon="0.4466">
        <ele>148</ele>
        <time>2015-12-08T15:25:42Z</time>
      </trkpt>
      <trkpt lat="45.17246" lon="0.44656">
        <ele>148</ele>
        <time>2015-12-08T15:25:47Z</time>
      </trkpt>
      <trkpt lat="45.17243" lon="0.44651">
        <ele>149</ele>
        <time>2015-12-08T15:25:51Z</time>
      </trkpt>
      <trkpt lat="45.17243" lon="0.44646">
        <ele>150</ele>
        <time>2015-12-08T15:25:56Z</time>
      </trkpt>
      <trkpt lat="45.1724" lon="0.44643">
        <ele>150</ele>
        <time>2015-12-08T15:26:03Z</time>
      </trkpt>
      <trkpt lat="45.1724" lon="0.44632">
        <ele>152</ele>
        <time>2015-12-08T15:26:07Z</time>
      </trkpt>
      <trkpt lat="45.17241" lon="0.44624">
        <ele>155</ele>
        <time>2015-12-08T15:26:11Z</time>
      </trkpt>
      <trkpt lat="45.17237" lon="0.4462">
        <ele>156</ele>
        <time>2015-12-08T15:26:15Z</time>
      </trkpt>
      <trkpt lat="45.17234" lon="0.44618">
        <ele>157</ele>
        <time>2015-12-08T15:26:20Z</time>
      </trkpt>
      <trkpt lat="45.17235" lon="0.44607">
        <ele>155</ele>
        <time>2015-12-08T15:26:24Z</time>
      </trkpt>
      <trkpt lat="45.17237" lon="0.44602">
        <ele>150</ele>
        <time>2015-12-08T15:26:32Z</time>
      </trkpt>
      <trkpt lat="45.17239" lon="0.44598">
        <ele>150</ele>
        <time>2015-12-08T15:26:36Z</time>
      </trkpt>
      <trkpt lat="45.17243" lon="0.44597">
        <ele>149</ele>
        <time>2015-12-08T15:26:41Z</time>
      </trkpt>
      <trkpt lat="45.17246" lon="0.44598">
        <ele>152</ele>
        <time>2015-12-08T15:26:47Z</time>
      </trkpt>
      <trkpt lat="45.1725" lon="0.44599">
        <ele>152</ele>
        <time>2015-12-08T15:26:52Z</time>
      </trkpt>
      <trkpt lat="45.17254" lon="0.44599">
        <ele>154</ele>
        <time>2015-12-08T15:27:00Z</time>
      </trkpt>
      <trkpt lat="45.17257" lon="0.44592">
        <ele>153</ele>
        <time>2015-12-08T15:27:05Z</time>
      </trkpt>
      <trkpt lat="45.17261" lon="0.44581">
        <ele>151</ele>
        <time>2015-12-08T15:27:09Z</time>
      </trkpt>
      <trkpt lat="45.17263" lon="0.44568">
        <ele>153</ele>
        <time>2015-12-08T15:27:14Z</time>
      </trkpt>
      <trkpt lat="45.17266" lon="0.44564">
        <ele>151</ele>
        <time>2015-12-08T15:27:19Z</time>
      </trkpt>
      <trkpt lat="45.1727" lon="0.44558">
        <ele>151</ele>
        <time>2015-12-08T15:27:23Z</time>
      </trkpt>
      <trkpt lat="45.17271" lon="0.44554">
        <ele>151</ele>
        <time>2015-12-08T15:27:27Z</time>
      </trkpt>
      <trkpt lat="45.17272" lon="0.44544">
        <ele>148</ele>
        <time>2015-12-08T15:27:32Z</time>
      </trkpt>
      <trkpt lat="45.17277" lon="0.44542">
        <ele>151</ele>
        <time>2015-12-08T15:27:37Z</time>
      </trkpt>
      <trkpt lat="45.17284" lon="0.44534">
        <ele>153</ele>
        <time>2015-12-08T15:27:41Z</time>
      </trkpt>
      <trkpt lat="45.17289" lon="0.44533">
        <ele>157</ele>
        <time>2015-12-08T15:27:46Z</time>
      </trkpt>
      <trkpt lat="45.17292" lon="0.4453">
        <ele>156</ele>
        <time>2015-12-08T15:27:52Z</time>
      </trkpt>
      <trkpt lat="45.17298" lon="0.44528">
        <ele>155</ele>
        <time>2015-12-08T15:27:56Z</time>
      </trkpt>
      <trkpt lat="45.17299" lon="0.44523">
        <ele>157</ele>
        <time>2015-12-08T15:28:02Z</time>
      </trkpt>
      <trkpt lat="45.17301" lon="0.44517">
        <ele>158</ele>
        <time>2015-12-08T15:28:07Z</time>
      </trkpt>
      <trkpt lat="45.17301" lon="0.44512">
        <ele>158</ele>
        <time>2015-12-08T15:28:11Z</time>
      </trkpt>
      <trkpt lat="45.17304" lon="0.44507">
        <ele>159</ele>
        <time>2015-12-08T15:28:16Z</time>
      </trkpt>
      <trkpt lat="45.17306" lon="0.44504">
        <ele>158</ele>
        <time>2015-12-08T15:28:20Z</time>
      </trkpt>
      <trkpt lat="45.17308" lon="0.44497">
        <ele>159</ele>
        <time>2015-12-08T15:28:25Z</time>
      </trkpt>
      <trkpt lat="45.1731" lon="0.44492">
        <ele>159</ele>
        <time>2015-12-08T15:28:30Z</time>
      </trkpt>
      <trkpt lat="45.17313" lon="0.44489">
        <ele>160</ele>
        <time>2015-12-08T15:28:35Z</time>
      </trkpt>
      <trkpt lat="45.17316" lon="0.44484">
        <ele>161</ele>
        <time>2015-12-08T15:28:40Z</time>
      </trkpt>
      <trkpt lat="45.17317" lon="0.44479">
        <ele>163</ele>
        <time>2015-12-08T15:29:08Z</time>
      </trkpt>
      <trkpt lat="45.17319" lon="0.44473">
        <ele>161</ele>
        <time>2015-12-08T15:29:42Z</time>
      </trkpt>
      <trkpt lat="45.17319" lon="0.44467">
        <ele>162</ele>
        <time>2015-12-08T15:30:26Z</time>
      </trkpt>
      <trkpt lat="45.17322" lon="0.44463">
        <ele>162</ele>
        <time>2015-12-08T15:30:31Z</time>
      </trkpt>
      <trkpt lat="45.17326" lon="0.4446">
        <ele>163</ele>
        <time>2015-12-08T15:30:36Z</time>
      </trkpt>
      <trkpt lat="45.17328" lon="0.44455">
        <ele>164</ele>
        <time>2015-12-08T15:30:43Z</time>
      </trkpt>
      <trkpt lat="45.1733" lon="0.4445">
        <ele>164</ele>
        <time>2015-12-08T15:31:23Z</time>
      </trkpt>
      <trkpt lat="45.17333" lon="0.44446">
        <ele>165</ele>
        <time>2015-12-08T15:31:41Z</time>
      </trkpt>
      <trkpt lat="45.17332" lon="0.44441">
        <ele>168</ele>
        <time>2015-12-08T15:32:13Z</time>
      </trkpt>
      <trkpt lat="45.17328" lon="0.44443">
        <ele>169</ele>
        <time>2015-12-08T15:32:19Z</time>
      </trkpt>
      <trkpt lat="45.17324" lon="0.44449">
        <ele>169</ele>
        <time>2015-12-08T15:32:24Z</time>
      </trkpt>
      <trkpt lat="45.17321" lon="0.44453">
        <ele>170</ele>
        <time>2015-12-08T15:32:30Z</time>
      </trkpt>
      <trkpt lat="45.1732" lon="0.44459">
        <ele>169</ele>
        <time>2015-12-08T15:32:34Z</time>
      </trkpt>
      <trkpt lat="45.17317" lon="0.44463">
        <ele>165</ele>
        <time>2015-12-08T15:32:48Z</time>
      </trkpt>
      <trkpt lat="45.17318" lon="0.44466">
        <ele>164</ele>
        <time>2015-12-08T15:33:03Z</time>
      </trkpt>
      <trkpt lat="45.17318" lon="0.44466">
        <ele>164</ele>
        <time>2015-12-08T15:33:03Z</time>
      </trkpt>
    </trkseg>
  </trk>
</gpx>